Provisional Data: Little Juniata River near Tipton, PA


Please select a monitoring station.
Please select start date.
Please select start date.

Toggle Unit: C/F Toggle Unit: C/F
Sample Time Temperature (C) Temperature (F) Specific Conductivity (mS/cm) pH   Turbidity (NTU+) DO (mg/L)
10/22/2021 12:00:00 AM 14.55 58.19 0.317 7.77 2.1 8.74
10/22/2021 12:15:00 AM 14.51 58.118 0.316 7.77 2.05 8.74
10/22/2021 12:30:00 AM 14.48 58.064 0.316 7.76 1.97 8.71
10/22/2021 12:45:00 AM 14.45 58.01 0.316 7.76 2.01 8.72
10/22/2021 1:00:00 AM 14.42 57.956 0.316 7.75 2.02 8.73
10/22/2021 1:15:00 AM 14.4 57.92 0.316 7.75 1.98 8.74
10/22/2021 1:30:00 AM 14.35 57.83 0.317 7.75 2.13 8.73
10/22/2021 1:45:00 AM 14.3 57.74 0.317 7.74 2.05 8.74
10/22/2021 2:00:00 AM 14.26 57.668 0.316 7.74 2.1 8.75
10/22/2021 2:15:00 AM 14.22 57.596 0.316 7.74 2.1 8.76
10/22/2021 2:30:00 AM 14.19 57.542 0.316 7.73 2.11 8.74
10/22/2021 2:45:00 AM 14.17 57.506 0.316 7.73 2.15 8.76
10/22/2021 3:00:00 AM 14.16 57.488 0.316 7.73 2.1 8.78
10/22/2021 3:15:00 AM 14.15 57.47 0.316 7.73 2.09 8.77
10/22/2021 3:30:00 AM 14.14 57.452 0.317 7.73 2.11 8.79
10/22/2021 3:45:00 AM 14.12 57.416 0.318 7.73 2.38 8.79
10/22/2021 4:00:00 AM 14.13 57.434 0.319 7.73 2.84 8.81
10/22/2021 4:15:00 AM 14.13 57.434 0.319 7.73 3.43 8.8
10/22/2021 4:30:00 AM 14.13 57.434 0.317 7.73 4.73 8.81
10/22/2021 4:45:00 AM 14.14 57.452 0.313 7.72 3.36 8.82
10/22/2021 5:00:00 AM 14.13 57.434 0.31 7.72 3.11 8.84
10/22/2021 5:15:00 AM 14.11 57.398 0.309 7.72 2.93 8.85
10/22/2021 5:30:00 AM 14.08 57.344 0.309 7.72 2.73 8.86
10/22/2021 5:45:00 AM 14.06 57.308 0.311 7.72 2.75 8.88
10/22/2021 6:00:00 AM 14.03 57.254 0.313 7.72 2.69 8.89
10/22/2021 6:15:00 AM 14.01 57.218 0.316 7.73 2.68 8.91
10/22/2021 6:30:00 AM 14 57.2 0.32 7.72 2.76 8.9
10/22/2021 6:45:00 AM 13.99 57.182 0.325 7.74 2.78 8.91
10/22/2021 7:00:00 AM 13.98 57.164 0.331 7.74 2.54 8.92
10/22/2021 7:15:00 AM 13.97 57.146 0.337 7.75 2.58 8.92
10/22/2021 7:30:00 AM 13.96 57.128 0.342 7.75 2.7 8.92
10/22/2021 7:45:00 AM 13.94 57.092 0.346 7.75 2.58 8.94
10/22/2021 8:00:00 AM 13.93 57.074 0.349 7.76 2.51 8.95
10/22/2021 8:15:00 AM 13.93 57.074 0.351 7.77 2.47 9.01
10/22/2021 8:30:00 AM 13.92 57.056 0.352 7.78 2.29 9.05
10/22/2021 8:45:00 AM 13.91 57.038 0.353 7.79 2.27 9.11
10/22/2021 9:00:00 AM 13.91 57.038 0.355 7.8 2.24 9.19
10/22/2021 9:15:00 AM 13.9 57.02 0.356 7.82 2.2 9.24
10/22/2021 9:30:00 AM 13.89 57.002 0.358 7.83 2.27 9.29
10/22/2021 9:45:00 AM 13.89 57.002 0.361 7.79 2.19 9.32
10/22/2021 10:00:00 AM 13.88 56.984 0.364 7.83 2.21 9.33
10/22/2021 10:15:00 AM 13.88 56.984 0.367 7.84 2.37 9.38
10/22/2021 10:30:00 AM 13.88 56.984 0.37 7.85 2.06 9.43
10/22/2021 10:45:00 AM 13.88 56.984 0.373 7.86 2.25 9.48
10/22/2021 11:00:00 AM 13.9 57.02 0.376 7.88 2.15 9.62
10/22/2021 11:15:00 AM 13.93 57.074 0.378 7.91 2.21 9.77
10/22/2021 11:30:00 AM 13.94 57.092 0.378 7.93 2.11 9.8
10/22/2021 11:45:00 AM 13.97 57.146 0.378 7.95 2.17 9.92
10/22/2021 12:00:00 PM 14.03 57.254 0.377 8 2.18 10.14
10/22/2021 12:15:00 PM 14.08 57.344 0.375 8.05 2.27 10.31
10/22/2021 12:30:00 PM 14.11 57.398 0.372 8.08 2.18 10.43
10/22/2021 12:45:00 PM 14.15 57.47 0.369 8.12 2.23 10.55
10/22/2021 1:00:00 PM 14.2 57.56 0.366 8.17 2.21 10.69
10/22/2021 1:15:00 PM 14.22 57.596 0.362 8.18 2.4 10.71
10/22/2021 1:30:00 PM 14.24 57.632 0.359 8.21 2.39 10.78
10/22/2021 1:45:00 PM 14.28 57.704 0.354 8.24 2.32 10.88
10/22/2021 2:00:00 PM 14.29 57.722 0.35 8.25 2.4 10.9
10/22/2021 2:15:00 PM 14.26 57.668 0.345 8.24 2.37 10.77
10/22/2021 2:30:00 PM 14.25 57.65 0.341 8.23 2.54 10.72
10/22/2021 2:45:00 PM 14.22 57.596 0.336 8.22 2.56 10.66
10/22/2021 3:00:00 PM 14.23 57.614 0.333 8.23 2.46 10.68
10/22/2021 3:15:00 PM 14.26 57.668 0.329 8.25 2.65 10.76
10/22/2021 3:30:00 PM 14.28 57.704 0.327 8.27 2.71 10.79
10/22/2021 3:45:00 PM 14.3 57.74 0.325 8.28 2.72 10.8
10/22/2021 4:00:00 PM 14.31 57.758 0.323 8.29 2.77 10.78
10/22/2021 4:15:00 PM 14.32 57.776 0.322 8.3 2.79 10.8
10/22/2021 4:30:00 PM 14.34 57.812 0.322 8.31 2.83 10.78
10/22/2021 4:45:00 PM 14.33 57.794 0.321 8.29 2.82 10.68
10/22/2021 5:00:00 PM 14.32 57.776 0.321 8.26 2.87 10.53
10/22/2021 5:15:00 PM 14.31 57.758 0.321 8.23 2.87 10.43
10/22/2021 5:30:00 PM 14.31 57.758 0.321 8.22 2.98 10.32
10/22/2021 5:45:00 PM 14.29 57.722 0.321 8.18 2.9 10.16
10/22/2021 6:00:00 PM 14.27 57.686 0.322 8.13 2.94 9.98
10/22/2021 6:15:00 PM 14.24 57.632 0.322 8.09 3.01 9.82
10/22/2021 6:30:00 PM 14.21 57.578 0.322 8.05 2.86 9.69
10/22/2021 6:45:00 PM 14.19 57.542 0.322 8.02 2.79 9.59
10/22/2021 7:00:00 PM 14.17 57.506 0.322 7.98 2.87 9.5
10/22/2021 7:15:00 PM 14.15 57.47 0.323 7.96 3.1 9.43
10/22/2021 7:30:00 PM 14.14 57.452 0.324 7.94 2.86 9.38
10/22/2021 7:45:00 PM 14.12 57.416 0.325 7.92 2.87 9.33
10/22/2021 8:00:00 PM 14.1 57.38 0.326 7.91 2.96 9.29
10/22/2021 8:15:00 PM 14.09 57.362 0.326 7.89 2.72 9.26
10/22/2021 8:30:00 PM 14.07 57.326 0.327 7.88 2.82 9.24
10/22/2021 8:45:00 PM 14.05 57.29 0.326 7.87 2.91 9.2
10/22/2021 9:00:00 PM 14.02 57.236 0.326 7.85 2.86 9.18
10/22/2021 9:15:00 PM 14 57.2 0.326 7.84 2.91 9.15
10/22/2021 9:30:00 PM 13.97 57.146 0.326 7.83 2.76 9.13
10/22/2021 9:45:00 PM 13.95 57.11 0.325 7.81 2.73 9.1
10/22/2021 10:00:00 PM 13.92 57.056 0.325 7.8 2.65 9.08
10/22/2021 10:15:00 PM 13.9 57.02 0.325 7.79 2.66 9.07
10/22/2021 10:30:00 PM 13.87 56.966 0.325 7.77 2.52 9.05
10/22/2021 10:45:00 PM 13.85 56.93 0.325 7.77 2.74 9.04
10/22/2021 11:00:00 PM 13.82 56.876 0.325 7.75 2.67 9.04
10/22/2021 11:15:00 PM 13.8 56.84 0.325 7.74 2.69 9.02
10/22/2021 11:30:00 PM 13.78 56.804 0.325 7.73 2.7 9.01
10/22/2021 11:45:00 PM 13.75 56.75 0.324 7.73 2.56 9.01
10/23/2021 12:00:00 AM 13.73 56.714 0.323 7.72 2.62 9.01
10/23/2021 12:15:00 AM 13.7 56.66 0.323 7.72 2.64 9
10/23/2021 12:30:00 AM 13.68 56.624 0.323 7.71 2.54 8.99
10/23/2021 12:45:00 AM 13.65 56.57 0.322 7.71 2.49 8.99
10/23/2021 1:00:00 AM 13.63 56.534 0.322 7.71 2.53 9
10/23/2021 1:15:00 AM 13.6 56.48 0.322 7.7 2.37 9
10/23/2021 1:30:00 AM 13.58 56.444 0.321 7.7 2.84 8.99
10/23/2021 1:45:00 AM 13.56 56.408 0.321 7.7 2.48 8.99
10/23/2021 2:00:00 AM 13.54 56.372 0.32 7.7 2.48 9
10/23/2021 2:15:00 AM 13.52 56.336 0.32 7.71 2.38 9.01
10/23/2021 2:30:00 AM 13.5 56.3 0.32 7.71 2.36 9.01
10/23/2021 2:45:00 AM 13.48 56.264 0.32 7.71 2.51 9.02
10/23/2021 3:00:00 AM 13.45 56.21 0.32 7.71 2.37 9
10/23/2021 3:15:00 AM 13.44 56.192 0.321 7.71 2.35 9.01
10/23/2021 3:30:00 AM 13.42 56.156 0.321 7.71 2.39 9.02
10/23/2021 3:45:00 AM 13.4 56.12 0.321 7.71 2.37 9.03
10/23/2021 4:00:00 AM 13.38 56.084 0.321 7.7 2.4 9.04
10/23/2021 4:15:00 AM 13.37 56.066 0.321 7.71 2.37 9.04
10/23/2021 4:30:00 AM 13.35 56.03 0.321 7.7 2.31 9.03
10/23/2021 4:45:00 AM 13.34 56.012 0.321 7.71 2.39 9.05
10/23/2021 5:00:00 AM 13.32 55.976 0.32 7.7 2.44 9.06
10/23/2021 5:15:00 AM 13.3 55.94 0.319 7.7 2.45 9.05
10/23/2021 5:30:00 AM 13.29 55.922 0.319 7.69 2.49 9.07
10/23/2021 5:45:00 AM 13.27 55.886 0.318 7.69 2.27 9.06
10/23/2021 6:00:00 AM 13.25 55.85 0.318 7.7 2.53 9.08
10/23/2021 6:15:00 AM 13.23 55.814 0.318 7.7 2.95 9.08
10/23/2021 6:30:00 AM 13.21 55.778 0.317 7.71 2.21 9.08
10/23/2021 6:45:00 AM 13.2 55.76 0.317 7.71 2.35 9.09
10/23/2021 7:00:00 AM 13.18 55.724 0.316 7.7 2.42 9.1
10/23/2021 7:15:00 AM 13.16 55.688 0.315 7.71 2.23 9.1
10/23/2021 7:30:00 AM 13.13 55.634 0.315 7.71 2.29 9.12
10/23/2021 7:45:00 AM 13.12 55.616 0.315 7.7 2.22 9.12
10/23/2021 8:00:00 AM 13.1 55.58 0.315 7.71 2.35 9.14
10/23/2021 8:15:00 AM 13.08 55.544 0.315 7.71 2.18 9.17
10/23/2021 8:30:00 AM 13.06 55.508 0.316 7.72 2.14 9.19
10/23/2021 8:45:00 AM 13.05 55.49 0.316 7.73 2.16 9.25
10/23/2021 9:00:00 AM 13.03 55.454 0.316 7.74 2.14 9.29
10/23/2021 9:15:00 AM 13.03 55.454 0.316 7.76 2.11 9.38
10/23/2021 9:30:00 AM 13.01 55.418 0.316 7.77 2.11 9.46
10/23/2021 9:45:00 AM 12.99 55.382 0.315 7.78 2.04 9.5
10/23/2021 10:00:00 AM 12.99 55.382 0.315 7.81 2.05 9.64
10/23/2021 10:15:00 AM 13.02 55.436 0.314 7.86 2.03 9.95
10/23/2021 10:30:00 AM 13.05 55.49 0.313 7.91 1.95 10.2
10/23/2021 10:45:00 AM 13.07 55.526 0.313 7.97 1.97 10.38
10/23/2021 11:00:00 AM 13.06 55.508 0.313 7.98 2.03 10.39
10/23/2021 11:15:00 AM 13.06 55.508 0.313 8.01 1.97 10.44
10/23/2021 11:30:00 AM 13.05 55.49 0.313 8.02 1.99 10.48
10/23/2021 11:45:00 AM 13.06 55.508 0.313 8.05 2.06 10.56
10/23/2021 12:00:00 PM 13.05 55.49 0.313 8.06 1.98 10.54
10/23/2021 12:15:00 PM 13.06 55.508 0.313 8.09 2 10.63
10/23/2021 12:30:00 PM 13.09 55.562 0.312 8.13 4.35 10.82
10/23/2021 12:45:00 PM 13.17 55.706 0.312 8.2 1.95 11.02
10/23/2021 1:00:00 PM 13.22 55.796 0.312 8.25 1.94 11.17
10/23/2021 1:15:00 PM 13.27 55.886 0.312 8.29 1.93 11.32
10/23/2021 1:30:00 PM 13.34 56.012 0.312 8.34 1.95 11.44
10/23/2021 1:45:00 PM 13.39 56.102 0.312 8.39 1.97 11.57
10/23/2021 2:00:00 PM 13.43 56.174 0.312 8.43 1.92 11.63
10/23/2021 2:15:00 PM 13.46 56.228 0.312 8.47 1.92 11.68
10/23/2021 2:30:00 PM 13.46 56.228 0.312 8.47 1.92 11.65
10/23/2021 2:45:00 PM 13.48 56.264 0.312 8.49 1.89 11.65
10/23/2021 3:00:00 PM 13.48 56.264 0.312 8.49 1.95 11.62
10/23/2021 3:15:00 PM 13.45 56.21 0.312 8.48 1.93 11.51
10/23/2021 3:30:00 PM 13.43 56.174 0.312 8.45 1.97 11.44
10/23/2021 3:45:00 PM 13.38 56.084 0.312 8.43 1.94 11.28
10/23/2021 4:00:00 PM 13.35 56.03 0.312 8.43 1.96 11.23
10/23/2021 4:15:00 PM 13.31 55.958 0.311 8.44 2.1 11.11
10/23/2021 4:30:00 PM 13.29 55.922 0.311 8.43 1.93 11.08
10/23/2021 4:45:00 PM 13.27 55.886 0.311 8.42 1.9 10.94
10/23/2021 5:00:00 PM 13.24 55.832 0.312 8.39 1.94 10.79
10/23/2021 5:15:00 PM 13.22 55.796 0.312 8.35 1.99 10.63
10/23/2021 5:30:00 PM 13.19 55.742 0.312 8.32 1.95 10.5
10/23/2021 5:45:00 PM 13.17 55.706 0.312 8.3 1.9 10.44
10/23/2021 6:00:00 PM 13.14 55.652 0.311 8.27 1.92 10.34
10/23/2021 6:15:00 PM 13.09 55.562 0.311 8.24 1.94 10.23
10/23/2021 6:30:00 PM 13.05 55.49 0.31 8.2 1.88 10.1
10/23/2021 6:45:00 PM 13.01 55.418 0.31 8.16 1.91 9.99
10/23/2021 7:00:00 PM 12.98 55.364 0.31 8.13 1.89 9.9
10/23/2021 7:15:00 PM 12.94 55.292 0.31 8.08 1.95 9.82
10/23/2021 7:30:00 PM 12.91 55.238 0.31 8.06 2.02 9.77
10/23/2021 7:45:00 PM 12.87 55.166 0.31 8.04 2.44 9.71
10/23/2021 8:00:00 PM 12.83 55.094 0.311 8.02 2.02 9.67
10/23/2021 8:15:00 PM 12.78 55.004 0.311 8 2.3 9.64
10/23/2021 8:30:00 PM 12.72 54.896 0.31 7.98 2.29 9.61
10/23/2021 8:45:00 PM 12.67 54.806 0.31 7.96 2.56 9.59
10/23/2021 9:00:00 PM 12.61 54.698 0.31 7.94 2.68 9.57
10/23/2021 9:15:00 PM 12.55 54.59 0.31 7.91 2.74 9.56
10/23/2021 9:30:00 PM 12.49 54.482 0.31 7.9 2.51 9.54
10/23/2021 9:45:00 PM 12.42 54.356 0.31 7.88 2.46 9.53
10/23/2021 10:00:00 PM 12.36 54.248 0.31 7.87 2.28 9.51
10/23/2021 10:15:00 PM 12.29 54.122 0.311 7.86 2.2 9.51
10/23/2021 10:30:00 PM 12.23 54.014 0.311 7.85 2.18 9.51
10/23/2021 10:45:00 PM 12.17 53.906 0.311 7.85 2.26 9.51
10/23/2021 11:00:00 PM 12.11 53.798 0.311 7.84 2.14 9.5
10/23/2021 11:15:00 PM 12.04 53.672 0.31 7.84 2.17 9.51
10/23/2021 11:30:00 PM 11.98 53.564 0.31 7.82 2.1 9.5
10/23/2021 11:45:00 PM 11.92 53.456 0.31 7.82 2.06 9.51
10/24/2021 12:00:00 AM 11.86 53.348 0.31 7.8 2.08 9.51
10/24/2021 12:15:00 AM 11.8 53.24 0.31 7.81 2.14 9.52
10/24/2021 12:30:00 AM 11.74 53.132 0.31 7.81 2.18 9.53
10/24/2021 12:45:00 AM 11.68 53.024 0.311 7.81 2.2 9.54
10/24/2021 1:00:00 AM 11.61 52.898 0.311 7.81 2.15 9.55
10/24/2021 1:15:00 AM 11.56 52.808 0.312 7.8 2.33 9.56
10/24/2021 1:30:00 AM 11.51 52.718 0.312 7.79 2.15 9.56
10/24/2021 1:45:00 AM 11.47 52.646 0.312 7.8 2.14 9.57
10/24/2021 2:00:00 AM 11.43 52.574 0.311 7.79 2.13 9.58
10/24/2021 2:15:00 AM 11.39 52.502 0.311 7.8 2.11 9.61
10/24/2021 2:30:00 AM 11.35 52.43 0.311 7.79 2.11 9.6
10/24/2021 2:45:00 AM 11.32 52.376 0.311 7.79 2.02 9.63
10/24/2021 3:00:00 AM 11.29 52.322 0.311 7.79 2.07 9.63
10/24/2021 3:15:00 AM 11.27 52.286 0.311 7.78 2.05 9.65
10/24/2021 3:30:00 AM 11.24 52.232 0.311 7.78 2.08 9.65
10/24/2021 3:45:00 AM 11.22 52.196 0.311 7.79 2.03 9.65
10/24/2021 4:00:00 AM 11.2 52.16 0.312 7.77 2.04 9.67
10/24/2021 4:15:00 AM 11.18 52.124 0.312 7.79 2.06 9.67
10/24/2021 4:30:00 AM 11.16 52.088 0.312 7.78 2.02 9.68
10/24/2021 4:45:00 AM 11.15 52.07 0.313 7.79 2.04 9.69
10/24/2021 5:00:00 AM 11.13 52.034 0.313 7.78 2.15 9.69
10/24/2021 5:15:00 AM 11.11 51.998 0.313 7.78 2.04 9.69
10/24/2021 5:30:00 AM 11.09 51.962 0.313 7.78 2.03 9.7
10/24/2021 5:45:00 AM 11.08 51.944 0.314 7.77 2.04 9.71
10/24/2021 6:00:00 AM 11.06 51.908 0.315 7.78 2.05 9.71
10/24/2021 6:15:00 AM 11.05 51.89 0.316 7.76 2.03 9.72
10/24/2021 6:30:00 AM 11.03 51.854 0.317 7.79 2.08 9.73
10/24/2021 6:45:00 AM 11.02 51.836 0.318 7.77 2.05 9.73
10/24/2021 7:00:00 AM 11.01 51.818 0.319 7.78 2.07 9.74
10/24/2021 7:15:00 AM 11 51.8 0.319 7.78 2.1 9.74
10/24/2021 7:30:00 AM 10.99 51.782 0.32 7.78 2.05 9.73
10/24/2021 7:45:00 AM 10.98 51.764 0.32 7.78 2.01 9.75
10/24/2021 8:00:00 AM 10.98 51.764 0.32 7.78 2.02 9.77
10/24/2021 8:15:00 AM 10.97 51.746 0.32 7.79 2.04 9.81
10/24/2021 8:30:00 AM 10.98 51.764 0.321 7.79 2 9.86
10/24/2021 8:45:00 AM 10.98 51.764 0.321 7.81 2.05 9.93
10/24/2021 9:00:00 AM 11 51.8 0.321 7.83 2.99 10.09
10/24/2021 9:15:00 AM 11.01 51.818 0.322 7.86 1.91 10.22
10/24/2021 9:30:00 AM 11.02 51.836 0.322 7.89 23.3 10.37
10/24/2021 9:45:00 AM 11.07 51.926 0.322 7.93 2.43 10.6
10/24/2021 10:00:00 AM 11.11 51.998 0.322 7.97 1.94 10.72
10/24/2021 10:15:00 AM 11.13 52.034 0.322 7.97 1.79 10.75
10/24/2021 10:30:00 AM 11.18 52.124 0.322 8.03 1.83 10.96
10/24/2021 10:45:00 AM 11.22 52.196 0.321 8.06 1.81 11.04
10/24/2021 11:00:00 AM 11.28 52.304 0.321 8.1 1.86 11.21
10/24/2021 11:15:00 AM 11.29 52.322 0.32 8.1 1.83 11.14
10/24/2021 11:30:00 AM 11.32 52.376 0.32 8.12 1.84 11.15
10/24/2021 11:45:00 AM 11.36 52.448 0.32 8.14 1.76 11.22
10/24/2021 12:00:00 PM 11.38 52.484 0.319 8.16 36.62 11.26
10/24/2021 12:15:00 PM 11.44 52.592 0.319 8.19 11.51 11.37
10/24/2021 12:30:00 PM 11.46 52.628 0.318 8.2 4.16 11.34
10/24/2021 12:45:00 PM 11.5 52.7 0.318 8.23 27.3 11.41
10/24/2021 1:00:00 PM 11.6 52.88 0.317 8.28 10.7 11.57
10/24/2021 1:15:00 PM 11.7 53.06 0.315 8.32 1.78 11.75
10/24/2021 1:30:00 PM 11.79 53.222 0.314 8.38 1.84 11.84
10/24/2021 1:45:00 PM 11.83 53.294 0.313 8.4 1.77 11.86
10/24/2021 2:00:00 PM 11.89 53.402 0.313 8.42 1.81 11.87
10/24/2021 2:15:00 PM 11.99 53.582 0.312 8.46 1.76 12.03
10/24/2021 2:30:00 PM 12.1 53.78 0.311 8.51 1.78 12.11
10/24/2021 2:45:00 PM 12.14 53.852 0.311 8.52 1.73 12.04
10/24/2021 3:00:00 PM 12.19 53.942 0.31 8.53 1.75 11.99
10/24/2021 3:15:00 PM 12.2 53.96 0.309 8.52 1.79 11.89
10/24/2021 3:30:00 PM 12.19 53.942 0.309 8.49 1.79 11.7
10/24/2021 3:45:00 PM 12.22 53.996 0.307 8.5 1.77 11.69
10/24/2021 4:00:00 PM 12.23 54.014 0.306 8.49 1.76 11.61
10/24/2021 4:15:00 PM 12.26 54.068 0.305 8.5 1.87 11.58
10/24/2021 4:30:00 PM 12.26 54.068 0.304 8.47 1.8 11.39
10/24/2021 4:45:00 PM 12.27 54.086 0.303 8.44 1.85 11.23
10/24/2021 5:00:00 PM 12.26 54.068 0.303 8.4 1.81 11.04
10/24/2021 5:15:00 PM 12.26 54.068 0.302 8.36 1.84 10.86
10/24/2021 5:30:00 PM 12.26 54.068 0.302 8.33 1.83 10.74
10/24/2021 5:45:00 PM 12.27 54.086 0.301 8.29 1.81 10.59
10/24/2021 6:00:00 PM 12.27 54.086 0.3 8.25 1.79 10.47
10/24/2021 6:15:00 PM 12.27 54.086 0.299 8.21 1.87 10.35
10/24/2021 6:30:00 PM 12.26 54.068 0.298 8.17 1.81 10.23
10/24/2021 6:45:00 PM 12.26 54.068 0.297 8.14 1.91 10.15
10/24/2021 7:00:00 PM 12.25 54.05 0.296 8.1 1.92 10.07
10/24/2021 7:15:00 PM 12.25 54.05 0.295 8.08 1.93 10.01
10/24/2021 7:30:00 PM 12.25 54.05 0.294 8.05 1.9 9.96
10/24/2021 7:45:00 PM 12.25 54.05 0.293 8.03 2.14 9.91
10/24/2021 8:00:00 PM 12.25 54.05 0.293 8.01 2.11 9.87
10/24/2021 8:15:00 PM 12.25 54.05 0.292 7.98 2.28 9.83
10/24/2021 8:30:00 PM 12.25 54.05 0.291 7.96 2.13 9.79
10/24/2021 8:45:00 PM 12.24 54.032 0.289 7.93 2.3 9.76
10/24/2021 9:00:00 PM 12.23 54.014 0.288 7.91 2.5 9.72
10/24/2021 9:15:00 PM 12.23 54.014 0.288 7.89 2.11 9.69
10/24/2021 9:30:00 PM 12.23 54.014 0.288 7.87 2.29 9.65
10/24/2021 9:45:00 PM 12.23 54.014 0.288 7.85 2.28 9.62
10/24/2021 10:00:00 PM 12.23 54.014 0.287 7.83 2.1 9.59
10/24/2021 10:15:00 PM 12.23 54.014 0.288 7.82 2.38 9.57
10/24/2021 10:30:00 PM 12.23 54.014 0.288 7.8 2.28 9.55
10/24/2021 10:45:00 PM 12.23 54.014 0.286 7.78 2.74 9.53
10/24/2021 11:00:00 PM 12.24 54.032 0.284 7.77 3.02 9.51
10/24/2021 11:15:00 PM 12.24 54.032 0.283 7.76 4.08 9.5
10/24/2021 11:30:00 PM 12.24 54.032 0.281 7.75 5.25 9.49
10/24/2021 11:45:00 PM 12.24 54.032 0.279 7.73 5.7 9.47
10/25/2021 12:00:00 AM 12.24 54.032 0.277 7.73 5.75 9.47
10/25/2021 12:15:00 AM 12.24 54.032 0.277 7.73 5 9.47
10/25/2021 12:30:00 AM 12.24 54.032 0.278 7.72 5.86 9.45
10/25/2021 12:45:00 AM 12.25 54.05 0.278 7.72 6.62 9.44
10/25/2021 1:00:00 AM 12.25 54.05 0.279 7.71 6.94 9.44
10/25/2021 1:15:00 AM 12.25 54.05 0.28 7.71 7.38 9.43
10/25/2021 1:30:00 AM 12.25 54.05 0.282 7.71 8.06 9.42
10/25/2021 1:45:00 AM 12.26 54.068 0.282 7.7 7.82 9.42
10/25/2021 2:00:00 AM 12.27 54.086 0.282 7.71 7.64 9.41
10/25/2021 2:15:00 AM 12.28 54.104 0.282 7.71 7.6 9.4
10/25/2021 2:30:00 AM 12.3 54.14 0.283 7.71 7.32 9.38
10/25/2021 2:45:00 AM 12.33 54.194 0.285 7.71 7.73 9.39
10/25/2021 3:00:00 AM 12.37 54.266 0.284 7.72 8.75 9.39
10/25/2021 3:15:00 AM 12.41 54.338 0.281 7.72 7.32 9.37
10/25/2021 3:30:00 AM 12.45 54.41 0.28 7.71 7.79 9.4
10/25/2021 3:45:00 AM 12.48 54.464 0.28 7.71 7.02 9.4
10/25/2021 4:00:00 AM 12.51 54.518 0.283 7.71 7.29 9.4
10/25/2021 4:15:00 AM 12.54 54.572 0.288 7.72 6.17 9.4
10/25/2021 4:30:00 AM 12.57 54.626 0.297 7.72 6.65 9.39
10/25/2021 4:45:00 AM 12.6 54.68 0.308 7.72 6.01 9.34
10/25/2021 5:00:00 AM 12.62 54.716 0.315 7.72 5.95 9.33
10/25/2021 5:15:00 AM 12.65 54.77 0.322 7.73 5.42 9.33
10/25/2021 5:30:00 AM 12.67 54.806 0.327 7.73 5.11 9.33
10/25/2021 5:45:00 AM 12.69 54.842 0.331 7.73 5.7 9.33
10/25/2021 6:00:00 AM 12.71 54.878 0.336 7.73 5.76 9.32
10/25/2021 6:15:00 AM 12.74 54.932 0.342 7.73 5.25 9.31
10/25/2021 6:30:00 AM 12.77 54.986 0.348 7.73 5.48 9.29
10/25/2021 6:45:00 AM 12.81 55.058 0.353 7.73 4.9 9.26
10/25/2021 7:00:00 AM 12.85 55.13 0.357 7.72 4.98 9.26
10/25/2021 7:15:00 AM 12.88 55.184 0.359 7.73 4.99 9.25
10/25/2021 7:30:00 AM 12.91 55.238 0.359 7.73 5 9.24
10/25/2021 7:45:00 AM 12.91 55.238 0.357 7.72 4.66 9.21
10/25/2021 8:00:00 AM 12.92 55.256 0.354 7.88 4.5 9.24
10/25/2021 8:15:00 AM 12.93 55.274 0.35 7.91 4.39 9.26
10/25/2021 8:30:00 AM 12.92 55.256 0.345 7.92 4.56 9.29
10/25/2021 8:45:00 AM 12.93 55.274 0.339 7.92 4.18 9.32
10/25/2021 9:00:00 AM 12.93 55.274 0.333 7.92 4.59 9.42
10/25/2021 9:15:00 AM 12.93 55.274 0.327 7.93 3.97 9.51
10/25/2021 9:30:00 AM 12.94 55.292 0.321 7.95 4.11 9.62
10/25/2021 9:45:00 AM 12.94 55.292 0.317 7.96 3.98 9.7
10/25/2021 10:00:00 AM 12.97 55.346 0.312 7.98 4.05 9.82
10/25/2021 10:15:00 AM 13 55.4 0.309 8.01 3.88 9.96
10/25/2021 10:30:00 AM 13.04 55.472 0.305 8.04 3.79 10.1
10/25/2021 10:45:00 AM 13.08 55.544 0.303 8.08 4.06 10.23
10/25/2021 11:00:00 AM 13.16 55.688 0.3 8.12 4.05 10.39
10/25/2021 11:15:00 AM 13.24 55.832 0.298 8.17 4.21 10.49
10/25/2021 11:30:00 AM 13.38 56.084 0.295 8.21 4.07 10.63
10/25/2021 11:45:00 AM 13.54 56.372 0.292 8.24 4.19 10.71
10/25/2021 12:00:00 PM 13.58 56.444 0.289 8.26 4.08 10.72
10/25/2021 12:15:00 PM 13.65 56.57 0.285 8.28 4.11 10.72
10/25/2021 12:30:00 PM 13.63 56.534 0.282 8.29 4.15 10.73
10/25/2021 12:45:00 PM 13.66 56.588 0.279 8.32 4.11 10.76
10/25/2021 1:00:00 PM 13.77 56.786 0.276 8.37 4.06 10.86
10/25/2021 1:15:00 PM 13.88 56.984 0.274 8.41 4.18 10.97
10/25/2021 1:30:00 PM 13.98 57.164 0.272 8.42 4.13 11.01
10/25/2021 1:45:00 PM 14.07 57.326 0.271 8.48 4.14 11.05
10/25/2021 2:00:00 PM 14.15 57.47 0.27 8.49 4.02 11.08
10/25/2021 2:15:00 PM 14.22 57.596 0.27 8.52 3.96 11.03
10/25/2021 2:30:00 PM 14.28 57.704 0.271 8.53 4.01 11.05
10/25/2021 2:45:00 PM 14.33 57.794 0.271 8.55 3.89 11.03
10/25/2021 3:00:00 PM 14.35 57.83 0.271 8.52 4.03 10.93
10/25/2021 3:15:00 PM 14.34 57.812 0.271 8.5 3.85 10.75
10/25/2021 3:30:00 PM 14.35 57.83 0.27 8.48 3.93 10.67
10/25/2021 3:45:00 PM 14.37 57.866 0.269 8.47 3.81 10.62
10/25/2021 4:00:00 PM 14.39 57.902 0.269 8.45 3.94 10.55
10/25/2021 4:15:00 PM 14.42 57.956 0.268 8.46 3.98 10.53
10/25/2021 4:30:00 PM 14.43 57.974 0.268 8.43 3.78 10.41
10/25/2021 4:45:00 PM 14.43 57.974 0.268 8.4 3.68 10.27
10/25/2021 5:00:00 PM 14.43 57.974 0.269 8.35 3.67 10.12
10/25/2021 5:15:00 PM 14.44 57.992 0.271 8.32 3.82 10.02
10/25/2021 5:30:00 PM 14.45 58.01 0.272 8.27 3.55 9.92
10/25/2021 5:45:00 PM 14.44 57.992 0.273 8.25 3.55 9.77
10/25/2021 6:00:00 PM 14.43 57.974 0.274 8.2 3.56 9.65
10/25/2021 6:15:00 PM 14.42 57.956 0.275 8.16 4.79 9.54
10/25/2021 6:30:00 PM 14.42 57.956 0.274 8.13 3.95 9.46
10/25/2021 6:45:00 PM 14.41 57.938 0.274 8.11 3.44 9.41
10/25/2021 7:00:00 PM 14.39 57.902 0.275 8.08 3.71 9.33
10/25/2021 7:15:00 PM 14.37 57.866 0.275 8.06 3.71 9.27
10/25/2021 7:30:00 PM 14.36 57.848 0.276 8.04 3.97 9.21
10/25/2021 7:45:00 PM 14.34 57.812 0.277 8.02 3.5 9.14
10/25/2021 8:00:00 PM 14.33 57.794 0.279 8 3.63 9.14
10/25/2021 8:15:00 PM 14.31 57.758 0.281 8 3.45 9.09
10/25/2021 8:30:00 PM 14.3 57.74 0.283 7.99 3.44 9.07
10/25/2021 8:45:00 PM 14.29 57.722 0.284 7.97 3.47 9.01
10/25/2021 9:00:00 PM 14.28 57.704 0.285 7.96 3.48 8.99
10/25/2021 9:15:00 PM 14.29 57.722 0.286 7.96 3.28 8.98
10/25/2021 9:30:00 PM 14.29 57.722 0.287 7.95 3.27 8.95
10/25/2021 9:45:00 PM 14.29 57.722 0.287 7.94 3.36 8.94
10/25/2021 10:00:00 PM 14.29 57.722 0.288 7.93 3.51 8.92
10/25/2021 10:15:00 PM 14.3 57.74 0.289 7.93 3.22 8.9
10/25/2021 10:30:00 PM 14.3 57.74 0.29 7.92 3.26 8.88
10/25/2021 10:45:00 PM 14.3 57.74 0.291 7.92 3.12 8.87
10/25/2021 11:00:00 PM 14.3 57.74 0.293 7.92 3.12 8.85
10/25/2021 11:15:00 PM 14.31 57.758 0.295 7.92 2.99 8.84
10/25/2021 11:30:00 PM 14.31 57.758 0.297 7.91 2.88 8.83
10/25/2021 11:45:00 PM 14.31 57.758 0.298 7.92 2.95 8.83
10/26/2021 12:00:00 AM 14.31 57.758 0.299 7.9 2.97 8.82
10/26/2021 12:15:00 AM 14.3 57.74 0.3 7.91 3.19 8.81
10/26/2021 12:30:00 AM 14.3 57.74 0.301 7.91 2.79 8.78
10/26/2021 12:45:00 AM 14.29 57.722 0.302 7.9 3.17 8.8
10/26/2021 1:00:00 AM 14.28 57.704 0.302 7.9 2.82 8.78
10/26/2021 1:15:00 AM 14.28 57.704 0.302 7.9 2.81 8.76
10/26/2021 1:30:00 AM 14.29 57.722 0.303 7.9 3.08 8.79
10/26/2021 1:45:00 AM 14.29 57.722 0.303 7.9 2.75 8.81
10/26/2021 2:00:00 AM 14.3 57.74 0.304 7.91 2.83 8.8
10/26/2021 2:15:00 AM 14.3 57.74 0.305 7.9 2.68 8.79
10/26/2021 2:30:00 AM 14.3 57.74 0.305 7.9 2.84 8.79
10/26/2021 2:45:00 AM 14.31 57.758 0.305 7.91 2.73 8.8
10/26/2021 3:00:00 AM 14.31 57.758 0.305 7.9 2.93 8.77
10/26/2021 3:15:00 AM 14.31 57.758 0.304 7.9 2.74 8.79
10/26/2021 3:30:00 AM 14.31 57.758 0.304 7.9 3.18 8.75
10/26/2021 3:45:00 AM 14.3 57.74 0.304 7.9 2.9 8.78
10/26/2021 4:00:00 AM 14.29 57.722 0.304 7.9 2.74 8.79
10/26/2021 4:15:00 AM 14.28 57.704 0.304 7.9 2.71 8.77
10/26/2021 4:30:00 AM 14.28 57.704 0.305 7.9 2.83 8.79
10/26/2021 4:45:00 AM 14.27 57.686 0.305 7.9 2.88 8.78
10/26/2021 5:00:00 AM 14.26 57.668 0.305 7.9 2.91 8.77
10/26/2021 5:15:00 AM 14.25 57.65 0.306 7.9 2.97 8.78
10/26/2021 5:30:00 AM 14.24 57.632 0.306 7.9 3.09 8.79
10/26/2021 5:45:00 AM 14.23 57.614 0.306 7.9 2.75 8.78
10/26/2021 6:00:00 AM 14.22 57.596 0.306 7.91 2.71 8.79
10/26/2021 6:15:00 AM 14.2 57.56 0.306 7.9 2.71 8.8
10/26/2021 6:30:00 AM 14.17 57.506 0.306 7.9 2.62 8.79
10/26/2021 6:45:00 AM 14.15 57.47 0.306 7.9 2.7 8.81
10/26/2021 7:00:00 AM 14.13 57.434 0.306 7.91 2.5 8.81
10/26/2021 7:15:00 AM 14.11 57.398 0.306 7.91 2.56 8.82
10/26/2021 7:30:00 AM 14.1 57.38 0.307 7.91 2.48 8.81
10/26/2021 7:45:00 AM 14.09 57.362 0.308 7.91 2.62 8.81
10/26/2021 8:00:00 AM 14.07 57.326 0.308 7.91 2.44 8.8
10/26/2021 8:15:00 AM 14.06 57.308 0.308 7.92 2.39 8.86
10/26/2021 8:30:00 AM 14.06 57.308 0.308 7.93 2.49 8.87
10/26/2021 8:45:00 AM 14.05 57.29 0.308 7.93 2.3 8.9
10/26/2021 9:00:00 AM 14.04 57.272 0.308 7.93 2.33 8.95
10/26/2021 9:15:00 AM 14.01 57.218 0.307 7.94 2.29 9.01
10/26/2021 9:30:00 AM 13.98 57.164 0.306 7.93 2.26 9.06
10/26/2021 9:45:00 AM 13.94 57.092 0.305 7.97 2.26 9.14
10/26/2021 10:00:00 AM 13.9 57.02 0.304 7.97 2.21 9.22
10/26/2021 10:15:00 AM 13.87 56.966 0.303 8.01 2.3 9.36
10/26/2021 10:30:00 AM 13.83 56.894 0.303 8.02 2.32 9.46
10/26/2021 10:45:00 AM 13.8 56.84 0.303 8.05 2.24 9.6
10/26/2021 11:00:00 AM 13.77 56.786 0.303 8.08 2.24 9.77
10/26/2021 11:15:00 AM 13.76 56.768 0.303 8.13 2.52 9.92
10/26/2021 11:30:00 AM 13.74 56.732 0.303 8.16 2.16 10.05
10/26/2021 11:45:00 AM 13.73 56.714 0.303 8.18 2.19 10.13
10/26/2021 12:00:00 PM 13.7 56.66 0.302 8.19 2.24 10.16
10/26/2021 12:15:00 PM 13.67 56.606 0.302 8.21 2.17 10.21
10/26/2021 12:30:00 PM 13.69 56.642 0.301 8.25 2.23 10.32
10/26/2021 12:45:00 PM 13.68 56.624 0.3 8.29 2.15 10.47
10/26/2021 1:00:00 PM 13.66 56.588 0.299 8.31 2.19 10.52
10/26/2021 1:15:00 PM 13.61 56.498 0.298 8.32 2.19 10.49
10/26/2021 1:30:00 PM 13.57 56.426 0.298 8.32 2.21 10.46
10/26/2021 1:45:00 PM 13.53 56.354 0.297 8.32 2.25 10.47
10/26/2021 2:00:00 PM 13.48 56.264 0.297 8.32 2.2 10.44
10/26/2021 2:15:00 PM 13.45 56.21 0.297 8.33 2.2 10.43
10/26/2021 2:30:00 PM 13.39 56.102 0.297 8.31 2.27 10.34
10/26/2021 2:45:00 PM 13.34 56.012 0.296 8.29 2.24 10.29
10/26/2021 3:00:00 PM 13.3 55.94 0.295 8.29 2.29 10.3
10/26/2021 3:15:00 PM 13.25 55.85 0.293 8.27 2.27 10.24
10/26/2021 3:30:00 PM 13.19 55.742 0.292 8.24 2.29 10.18
10/26/2021 3:45:00 PM 13.13 55.634 0.291 8.25 2.2 10.18
10/26/2021 4:00:00 PM 13.07 55.526 0.29 8.25 2.3 10.18
10/26/2021 4:15:00 PM 13.02 55.436 0.289 8.24 2.98 10.15
10/26/2021 4:30:00 PM 12.97 55.346 0.288 8.24 2.06 10.17
10/26/2021 4:45:00 PM 12.92 55.256 0.288 8.25 2.06 10.19
10/26/2021 5:00:00 PM 12.86 55.148 0.287 8.25 2.05 10.2
10/26/2021 5:15:00 PM 12.8 55.04 0.286 8.24 2.14 10.21
10/26/2021 5:30:00 PM 12.74 54.932 0.285 8.24 2.11 10.19
10/26/2021 5:45:00 PM 12.68 54.824 0.284 8.21 2.09 10.11
10/26/2021 6:00:00 PM 12.62 54.716 0.284 8.18 2.1 10.05
10/26/2021 6:15:00 PM 12.55 54.59 0.282 8.16 2.1 9.94
10/26/2021 6:30:00 PM 12.46 54.428 0.281 8.1 2.22 9.83
10/26/2021 6:45:00 PM 12.36 54.248 0.278 8.06 2.5 9.74
10/26/2021 7:00:00 PM 12.26 54.068 0.273 8 3.89 9.68
10/26/2021 7:15:00 PM 12.17 53.906 0.27 7.99 6.28 9.66
10/26/2021 7:30:00 PM 12.1 53.78 0.268 7.97 7.39 9.64
10/26/2021 7:45:00 PM 12.06 53.708 0.267 7.96 8.55 9.62
10/26/2021 8:00:00 PM 12 53.6 0.267 7.94 10.41 9.61
10/26/2021 8:15:00 PM 11.93 53.474 0.266 7.91 16.51 9.62
10/26/2021 8:30:00 PM 11.84 53.312 0.261 7.88 24.91 9.6
10/26/2021 8:45:00 PM 11.76 53.168 0.255 7.86 30.49 9.63
10/26/2021 9:00:00 PM 11.68 53.024 0.251 7.84 32.8 9.63
10/26/2021 9:15:00 PM 11.63 52.934 0.249 7.84 29.95 9.65
10/26/2021 9:30:00 PM 11.58 52.844 0.249 7.84 29.67 9.66
10/26/2021 9:45:00 PM 11.55 52.79 0.249 7.83 32.07 9.66
10/26/2021 10:00:00 PM 11.54 52.772 0.25 7.83 32.93 9.65
10/26/2021 10:15:00 PM 11.53 52.754 0.25 7.83 28.19 9.65
10/26/2021 10:30:00 PM 11.51 52.718 0.252 7.83 27.95 9.65
10/26/2021 10:45:00 PM 11.5 52.7 0.252 7.83 23.61 9.65
10/26/2021 11:00:00 PM 11.49 52.682 0.253 7.83 23.77 9.64
10/26/2021 11:15:00 PM 11.49 52.682 0.256 7.83 20.72 9.65
10/26/2021 11:30:00 PM 11.49 52.682 0.259 7.84 21.37 9.65
10/26/2021 11:45:00 PM 11.51 52.718 0.262 7.84 17.31 9.66
10/27/2021 12:00:00 AM 11.53 52.754 0.265 7.85 16.69 9.66
10/27/2021 12:15:00 AM 11.53 52.754 0.266 7.85 17.14 9.64
10/27/2021 12:30:00 AM 11.53 52.754 0.269 7.85 15.81 9.65
10/27/2021 12:45:00 AM 11.54 52.772 0.274 7.85 13.87 9.66
10/27/2021 1:00:00 AM 11.55 52.79 0.279 7.86 15.73 9.65
10/27/2021 1:15:00 AM 11.55 52.79 0.284 7.85 13.86 9.65
10/27/2021 1:30:00 AM 11.55 52.79 0.287 7.86 13.18 9.65
10/27/2021 1:45:00 AM 11.55 52.79 0.29 7.86 13.23 9.65
10/27/2021 2:00:00 AM 11.56 52.808 0.294 7.86 13.41 9.65
10/27/2021 2:15:00 AM 11.56 52.808 0.295 7.86 14.84 9.65
10/27/2021 2:30:00 AM 11.56 52.808 0.297 7.86 16.3 9.64
10/27/2021 2:45:00 AM 11.58 52.844 0.301 7.86 17.62 9.64
10/27/2021 3:00:00 AM 11.59 52.862 0.305 7.87 18.01 9.63
10/27/2021 3:15:00 AM 11.61 52.898 0.308 7.87 17.99 9.62
10/27/2021 3:30:00 AM 11.63 52.934 0.31 7.86 17.26 9.62
10/27/2021 3:45:00 AM 11.63 52.934 0.308 7.86 14.92 9.62
10/27/2021 4:00:00 AM 11.63 52.934 0.306 7.85 14.36 9.61
10/27/2021 4:15:00 AM 11.62 52.916 0.304 7.85 13.88 9.62
10/27/2021 4:30:00 AM 11.61 52.898 0.301 7.84 14.32 9.62
10/27/2021 4:45:00 AM 11.59 52.862 0.298 7.83 12.59 9.63
10/27/2021 5:00:00 AM 11.58 52.844 0.295 7.83 12.87 9.63
10/27/2021 5:15:00 AM 11.56 52.808 0.291 7.83 11.86 9.64
10/27/2021 5:30:00 AM 11.54 52.772 0.287 7.81 11.85 9.65
10/27/2021 5:45:00 AM 11.52 52.736 0.284 7.82 11.71 9.65
10/27/2021 6:00:00 AM 11.5 52.7 0.281 7.81 11.95 9.65
10/27/2021 6:15:00 AM 11.49 52.682 0.278 7.81 11.5 9.65
10/27/2021 6:30:00 AM 11.49 52.682 0.276 7.8 11.73 9.65
10/27/2021 6:45:00 AM 11.49 52.682 0.273 7.8 11.35 9.65
10/27/2021 7:00:00 AM 11.47 52.646 0.27 7.8 11.95 9.66
10/27/2021 7:15:00 AM 11.46 52.628 0.267 7.8 11.06 9.67
10/27/2021 7:30:00 AM 11.45 52.61 0.265 7.79 11.15 9.68
10/27/2021 7:45:00 AM 11.44 52.592 0.263 7.8 14.86 9.67
10/27/2021 8:00:00 AM 11.43 52.574 0.261 7.8 10.83 9.7
10/27/2021 8:15:00 AM 11.42 52.556 0.259 7.8 10.42 9.72
10/27/2021 8:30:00 AM 11.41 52.538 0.257 7.81 9.92 9.75
10/27/2021 8:45:00 AM 11.41 52.538 0.255 7.81 9.77 9.78
10/27/2021 9:00:00 AM 11.42 52.556 0.255 7.82 9.68 9.83
10/27/2021 9:15:00 AM 11.42 52.556 0.255 7.83 9.07 9.86
10/27/2021 9:30:00 AM 11.44 52.592 0.256 7.83 8.88 9.89
10/27/2021 9:45:00 AM 11.46 52.628 0.256 7.84 8.95 9.93
10/27/2021 10:00:00 AM 11.5 52.7 0.256 7.87 8.12 10.04
10/27/2021 10:15:00 AM 11.55 52.79 0.255 7.89 8.19 10.15
10/27/2021 10:30:00 AM 11.59 52.862 0.254 7.91 8.6 10.24
10/27/2021 10:45:00 AM 11.62 52.916 0.253 7.93 8.16 10.31
10/27/2021 11:00:00 AM 11.67 53.006 0.251 7.95 7.6 10.38
10/27/2021 11:15:00 AM 11.73 53.114 0.248 7.97 7.94 10.45
10/27/2021 11:30:00 AM 11.8 53.24 0.246 8 7.72 10.52
10/27/2021 11:45:00 AM 11.9 53.42 0.245 8.03 7.39 10.6
10/27/2021 12:00:00 PM 11.92 53.456 0.244 8.03 7.2 10.62
10/27/2021 12:15:00 PM 11.95 53.51 0.243 8.05 7.01 10.64
10/27/2021 12:30:00 PM 12 53.6 0.242 8.07 6.97 10.69
10/27/2021 12:45:00 PM 12.04 53.672 0.242 8.09 6.71 10.69
10/27/2021 1:00:00 PM 12.09 53.762 0.242 8.1 6.73 10.7
10/27/2021 1:15:00 PM 12.13 53.834 0.241 8.11 6.32 10.69
10/27/2021 1:30:00 PM 12.24 54.032 0.239 8.14 6.58 10.77
10/27/2021 1:45:00 PM 12.36 54.248 0.238 8.18 6.3 10.83
10/27/2021 2:00:00 PM 12.44 54.392 0.236 8.2 6.19 10.87
10/27/2021 2:15:00 PM 12.51 54.518 0.234 8.21 5.76 10.87
10/27/2021 2:30:00 PM 12.6 54.68 0.233 8.24 5.6 10.88
10/27/2021 2:45:00 PM 12.69 54.842 0.232 8.25 5.73 10.85
10/27/2021 3:00:00 PM 12.79 55.022 0.231 8.26 5.61 10.83
10/27/2021 3:15:00 PM 12.88 55.184 0.231 8.27 5.51 10.8
10/27/2021 3:30:00 PM 12.98 55.364 0.232 8.27 5.65 10.78
10/27/2021 3:45:00 PM 13.07 55.526 0.233 8.28 5.46 10.73
10/27/2021 4:00:00 PM 13.15 55.67 0.233 8.28 5.11 10.69
10/27/2021 4:15:00 PM 13.21 55.778 0.233 8.28 5.03 10.62
10/27/2021 4:30:00 PM 13.25 55.85 0.233 8.26 4.98 10.54
10/27/2021 4:45:00 PM 13.27 55.886 0.232 8.24 4.81 10.46
10/27/2021 5:00:00 PM 13.28 55.904 0.232 8.21 4.81 10.38
10/27/2021 5:15:00 PM 13.26 55.868 0.232 8.18 4.76 10.29
10/27/2021 5:30:00 PM 13.24 55.832 0.232 8.15 4.58 10.18
10/27/2021 5:45:00 PM 13.2 55.76 0.233 8.11 4.68 10.09
10/27/2021 6:00:00 PM 13.16 55.688 0.234 8.08 4.65 10.01
10/27/2021 6:15:00 PM 13.11 55.598 0.235 8.05 4.23 9.94
10/27/2021 6:30:00 PM 13.07 55.526 0.237 8.03 4.6 9.86
10/27/2021 6:45:00 PM 13.04 55.472 0.238 8 4.46 9.8
10/27/2021 7:00:00 PM 13 55.4 0.238 7.99 4.5 9.75
10/27/2021 7:15:00 PM 12.97 55.346 0.238 7.97 5.27 9.71
10/27/2021 7:30:00 PM 12.94 55.292 0.237 7.94 4.82 9.66
10/27/2021 7:45:00 PM 12.9 55.22 0.237 7.93 4.88 9.64
10/27/2021 8:00:00 PM 12.87 55.166 0.237 7.9 4.68 9.6
10/27/2021 8:15:00 PM 12.83 55.094 0.237 7.9 4.82 9.58
10/27/2021 8:30:00 PM 12.8 55.04 0.238 7.88 4.42 9.54
10/27/2021 8:45:00 PM 12.77 54.986 0.24 7.88 4.62 9.52
10/27/2021 9:00:00 PM 12.74 54.932 0.242 7.87 4.59 9.5
10/27/2021 9:15:00 PM 12.72 54.896 0.245 7.87 4.41 9.5
10/27/2021 9:30:00 PM 12.7 54.86 0.247 7.86 4.4 9.49
10/27/2021 9:45:00 PM 12.68 54.824 0.249 7.85 4.24 9.48
10/27/2021 10:00:00 PM 12.65 54.77 0.249 7.85 4.67 9.47
10/27/2021 10:15:00 PM 12.62 54.716 0.249 7.84 4.33 9.46
10/27/2021 10:30:00 PM 12.59 54.662 0.249 7.84 4.44 9.47
10/27/2021 10:45:00 PM 12.55 54.59 0.248 7.83 4.57 9.47
10/27/2021 11:00:00 PM 12.52 54.536 0.249 7.83 4.72 9.47
10/27/2021 11:15:00 PM 12.48 54.464 0.249 7.83 4.89 9.47
10/27/2021 11:30:00 PM 12.43 54.374 0.25 7.82 5.07 9.47
10/27/2021 11:45:00 PM 12.38 54.284 0.251 7.81 5.07 9.48
10/28/2021 12:00:00 AM 12.34 54.212 0.253 7.81 5.84 9.48
10/28/2021 12:15:00 AM 12.29 54.122 0.255 7.81 5.76 9.48
10/28/2021 12:30:00 AM 12.24 54.032 0.256 7.81 5.63 9.49
10/28/2021 12:45:00 AM 12.2 53.96 0.257 7.81 5.53 9.5
10/28/2021 1:00:00 AM 12.15 53.87 0.256 7.8 6.09 9.5
10/28/2021 1:15:00 AM 12.11 53.798 0.255 7.8 5.15 9.52
10/28/2021 1:30:00 AM 12.07 53.726 0.254 7.8 4.76 9.52
10/28/2021 1:45:00 AM 12.02 53.636 0.253 7.8 4.65 9.55
10/28/2021 2:00:00 AM 11.98 53.564 0.252 7.8 4.47 9.56
10/28/2021 2:15:00 AM 11.94 53.492 0.251 7.79 4.31 9.57
10/28/2021 2:30:00 AM 11.9 53.42 0.251 7.79 4.23 9.57
10/28/2021 2:45:00 AM 11.85 53.33 0.252 7.79 4.12 9.59
10/28/2021 3:00:00 AM 11.82 53.276 0.252 7.79 3.93 9.61
10/28/2021 3:15:00 AM 11.79 53.222 0.254 7.79 3.92 9.61
10/28/2021 3:30:00 AM 11.75 53.15 0.254 7.78 3.86 9.61
10/28/2021 3:45:00 AM 11.71 53.078 0.254 7.79 3.85 9.62
10/28/2021 4:00:00 AM 11.67 53.006 0.253 7.79 3.75 9.65
10/28/2021 4:15:00 AM 11.63 52.934 0.253 7.78 3.9 9.64
10/28/2021 4:30:00 AM 11.6 52.88 0.252 7.79 3.7 9.63
10/28/2021 4:45:00 AM 11.56 52.808 0.251 7.76 3.74 9.66
10/28/2021 5:00:00 AM 11.51 52.718 0.25 7.79 3.78 9.67
10/28/2021 5:15:00 AM 11.47 52.646 0.25 7.78 3.8 9.69
10/28/2021 5:30:00 AM 11.43 52.574 0.25 7.77 3.72 9.71
10/28/2021 5:45:00 AM 11.4 52.52 0.25 7.79 3.4 9.71
10/28/2021 6:00:00 AM 11.36 52.448 0.251 7.77 3.54 9.73
10/28/2021 6:15:00 AM 11.33 52.394 0.252 7.79 3.49 9.73
10/28/2021 6:30:00 AM 11.31 52.358 0.252 7.78 3.42 9.74
10/28/2021 6:45:00 AM 11.28 52.304 0.252 7.79 3.73 9.74
10/28/2021 7:00:00 AM 11.25 52.25 0.251 7.79 3.52 9.76
10/28/2021 7:15:00 AM 11.22 52.196 0.25 7.79 3.43 9.78
10/28/2021 7:30:00 AM 11.18 52.124 0.249 7.78 3.51 9.77
10/28/2021 7:45:00 AM 11.16 52.088 0.248 7.78 3.35 9.8
10/28/2021 8:00:00 AM 11.12 52.016 0.247 7.79 3.4 9.78
10/28/2021 8:15:00 AM 11.1 51.98 0.246 7.79 3.26 9.86
10/28/2021 8:30:00 AM 11.07 51.926 0.246 7.81 3.23 9.95
10/28/2021 8:45:00 AM 11.06 51.908 0.246 7.81 5.36 10.02
10/28/2021 9:00:00 AM 11.05 51.89 0.246 7.84 3.06 10.09
10/28/2021 9:15:00 AM 11.04 51.872 0.246 7.87 2.99 10.25
10/28/2021 9:30:00 AM 11.05 51.89 0.246 7.89 3.01 10.34
10/28/2021 9:45:00 AM 11.06 51.908 0.245 7.9 2.88 10.48
10/28/2021 10:00:00 AM 11.08 51.944 0.244 7.96 2.87 10.59
10/28/2021 10:15:00 AM 11.1 51.98 0.243 7.99 3.27 10.71
10/28/2021 10:30:00 AM 11.15 52.07 0.242 8.01 3.18 10.83
10/28/2021 10:45:00 AM 11.19 52.142 0.241 8.06 2.72 10.92
10/28/2021 11:00:00 AM 11.29 52.322 0.24 8.1 2.73 11.01
10/28/2021 11:15:00 AM 11.36 52.448 0.24 8.13 2.78 11.05
10/28/2021 11:30:00 AM 11.43 52.574 0.24 8.15 2.68 11.14
10/28/2021 11:45:00 AM 11.49 52.682 0.241 8.19 2.67 11.2
10/28/2021 12:00:00 PM 11.55 52.79 0.241 8.22 2.68 11.23
10/28/2021 12:15:00 PM 11.63 52.934 0.241 8.26 2.65 11.3
10/28/2021 12:30:00 PM 11.71 53.078 0.24 8.28 2.57 11.34
10/28/2021 12:45:00 PM 11.78 53.204 0.24 8.32 2.69 11.37
10/28/2021 1:00:00 PM 11.86 53.348 0.239 8.35 2.66 11.41
10/28/2021 1:15:00 PM 11.92 53.456 0.239 8.38 2.64 11.45
10/28/2021 1:30:00 PM 11.99 53.582 0.238 8.41 2.68 11.49
10/28/2021 1:45:00 PM 12.11 53.798 0.238 8.45 2.75 11.54
10/28/2021 2:00:00 PM 12.18 53.924 0.238 8.47 2.68 11.53
10/28/2021 2:15:00 PM 12.21 53.978 0.239 8.49 2.64 11.51
10/28/2021 2:30:00 PM 12.26 54.068 0.239 8.51 2.68 11.51
10/28/2021 2:45:00 PM 12.32 54.176 0.239 8.53 2.68 11.5
10/28/2021 3:00:00 PM 12.4 54.32 0.239 8.55 2.63 11.52
10/28/2021 3:15:00 PM 12.52 54.536 0.239 8.59 2.81 11.54
10/28/2021 3:30:00 PM 12.64 54.752 0.239 8.6 2.63 11.53
10/28/2021 3:45:00 PM 12.67 54.806 0.238 8.59 2.66 11.41
10/28/2021 4:00:00 PM 12.64 54.752 0.238 8.56 2.62 11.3
10/28/2021 4:15:00 PM 12.66 54.788 0.237 8.56 2.66 11.27
10/28/2021 4:30:00 PM 12.65 54.77 0.238 8.54 2.55 11.16
10/28/2021 4:45:00 PM 12.65 54.77 0.238 8.53 2.74 11.1
10/28/2021 5:00:00 PM 12.65 54.77 0.239 8.51 2.59 11.02
10/28/2021 5:15:00 PM 12.65 54.77 0.24 8.46 2.6 10.88
10/28/2021 5:30:00 PM 12.65 54.77 0.24 8.42 2.57 10.73
10/28/2021 5:45:00 PM 12.65 54.77 0.24 8.37 2.6 10.54
10/28/2021 6:00:00 PM 12.65 54.77 0.24 8.3 2.61 10.39
10/28/2021 6:15:00 PM 12.64 54.752 0.24 8.25 2.64 10.27
10/28/2021 6:30:00 PM 12.64 54.752 0.239 8.2 2.68 10.16
10/28/2021 6:45:00 PM 12.63 54.734 0.239 8.17 2.74 10.07
10/28/2021 7:00:00 PM 12.63 54.734 0.239 8.13 2.74 9.98
10/28/2021 7:15:00 PM 12.63 54.734 0.24 8.11 3.31 9.95
10/28/2021 7:30:00 PM 12.62 54.716 0.242 8.08 2.91 9.89
10/28/2021 7:45:00 PM 12.62 54.716 0.243 8.05 2.86 9.83
10/28/2021 8:00:00 PM 12.63 54.734 0.245 8.03 3.25 9.78
10/28/2021 8:15:00 PM 12.63 54.734 0.245 8 3.38 9.7
10/28/2021 8:30:00 PM 12.64 54.752 0.246 7.98 3.16 9.68
10/28/2021 8:45:00 PM 12.64 54.752 0.246 7.97 2.93 9.64
10/28/2021 9:00:00 PM 12.65 54.77 0.246 7.94 2.81 9.6
10/28/2021 9:15:00 PM 12.66 54.788 0.245 7.93 2.84 9.57
10/28/2021 9:30:00 PM 12.66 54.788 0.245 7.92 2.77 9.51
10/28/2021 9:45:00 PM 12.67 54.806 0.245 7.91 2.89 9.51
10/28/2021 10:00:00 PM 12.68 54.824 0.245 7.9 2.86 9.49
10/28/2021 10:15:00 PM 12.69 54.842 0.246 7.9 2.98 9.47
10/28/2021 10:30:00 PM 12.7 54.86 0.247 7.89 2.71 9.44
10/28/2021 10:45:00 PM 12.72 54.896 0.248 7.89 2.79 9.43
10/28/2021 11:00:00 PM 12.73 54.914 0.249 7.88 6.58 9.41
10/28/2021 11:15:00 PM 12.75 54.95 0.249 7.88 2.66 9.39
10/28/2021 11:30:00 PM 12.76 54.968 0.249 7.87 2.6 9.36
10/28/2021 11:45:00 PM 12.77 54.986 0.248 7.87 2.57 9.37
10/29/2021 12:00:00 AM 12.78 55.004 0.247 7.86 2.65 9.37
10/29/2021 12:15:00 AM 12.78 55.004 0.247 7.86 2.68 9.35
10/29/2021 12:30:00 AM 12.79 55.022 0.247 7.86 2.69 9.35
10/29/2021 12:45:00 AM 12.79 55.022 0.247 7.85 2.81 9.34
10/29/2021 1:00:00 AM 12.8 55.04 0.247 7.85 2.95 9.33
10/29/2021 1:15:00 AM 12.81 55.058 0.248 7.85 3.05 9.32
10/29/2021 1:30:00 AM 12.81 55.058 0.249 7.84 2.74 9.32
10/29/2021 1:45:00 AM 12.81 55.058 0.249 7.84 2.73 9.3
10/29/2021 2:00:00 AM 12.82 55.076 0.25 7.83 3.03 9.31
10/29/2021 2:15:00 AM 12.82 55.076 0.249 7.83 2.95 9.3
10/29/2021 2:30:00 AM 12.82 55.076 0.249 7.83 3.02 9.3
10/29/2021 2:45:00 AM 12.81 55.058 0.248 7.83 3.65 9.29
10/29/2021 3:00:00 AM 12.8 55.04 0.248 7.83 4.58 9.3
10/29/2021 3:15:00 AM 12.79 55.022 0.247 7.83 4.38 9.28
10/29/2021 3:30:00 AM 12.78 55.004 0.246 7.83 5.3 9.31
10/29/2021 3:45:00 AM 12.77 54.986 0.246 7.82 5.58 9.3
10/29/2021 4:00:00 AM 12.76 54.968 0.246 7.82 5.68 9.3
10/29/2021 4:15:00 AM 12.75 54.95 0.247 7.82 6.02 9.3
10/29/2021 4:30:00 AM 12.73 54.914 0.246 7.82 6.2 9.3
10/29/2021 4:45:00 AM 12.71 54.878 0.247 7.82 6.28 9.3
10/29/2021 5:00:00 AM 12.7 54.86 0.246 7.82 5.77 9.3
10/29/2021 5:15:00 AM 12.68 54.824 0.246 7.82 5.38 9.29
10/29/2021 5:30:00 AM 12.66 54.788 0.245 7.82 5.18 9.31
10/29/2021 5:45:00 AM 12.63 54.734 0.244 7.81 5.27 9.31
10/29/2021 6:00:00 AM 12.61 54.698 0.243 7.81 5.03 9.3
10/29/2021 6:15:00 AM 12.59 54.662 0.243 7.81 4.71 9.33
10/29/2021 6:30:00 AM 12.57 54.626 0.242 7.81 4.22 9.31
10/29/2021 6:45:00 AM 12.55 54.59 0.242 7.8 4.71 9.33
10/29/2021 7:00:00 AM 12.53 54.554 0.242 7.8 4.07 9.31
10/29/2021 7:15:00 AM 12.51 54.518 0.242 7.8 3.93 9.33
10/29/2021 7:30:00 AM 12.48 54.464 0.241 7.8 3.76 9.19
10/29/2021 7:45:00 AM 12.46 54.428 0.24 7.79 3.99 9.31
10/29/2021 8:00:00 AM 12.44 54.392 0.239 7.79 4.36 9.35
10/29/2021 8:15:00 AM 12.42 54.356 0.238 7.79 4.82 9.37
10/29/2021 8:30:00 AM 12.4 54.32 0.236 7.79 4.73 9.38
10/29/2021 8:45:00 AM 12.38 54.284 0.236 7.79 5.24 9.4
10/29/2021 9:00:00 AM 12.36 54.248 0.236 7.79 5.27 9.42
10/29/2021 9:15:00 AM 12.34 54.212 0.238 7.8 5.48 9.47
10/29/2021 9:30:00 AM 12.33 54.194 0.239 7.81 5.97 9.52
10/29/2021 9:45:00 AM 12.31 54.158 0.24 7.79 6.07 9.54
10/29/2021 10:00:00 AM 12.28 54.104 0.239 7.83 6.04 9.56
10/29/2021 10:15:00 AM 12.25 54.05 0.238 7.83 6.4 9.59
10/29/2021 10:30:00 AM 12.23 54.014 0.236 7.81 6.56 9.59
10/29/2021 10:45:00 AM 12.2 53.96 0.233 7.82 5.91 9.67
10/29/2021 11:00:00 AM 12.18 53.924 0.231 7.83 6.28 9.71
10/29/2021 11:15:00 AM 12.15 53.87 0.227 7.82 9.37 9.73
10/29/2021 11:30:00 AM 12.1 53.78 0.216 7.73 28.23 9.71
10/29/2021 11:45:00 AM 12.02 53.636 0.198 7.7 70.94 9.7
10/29/2021 12:00:00 PM 11.95 53.51 0.187 7.65 151.8 9.74
10/29/2021 12:15:00 PM 11.87 53.366 0.17 7.58 202.84 9.78
10/29/2021 12:30:00 PM 11.81 53.258 0.157 7.54 223.22 9.83
10/29/2021 12:45:00 PM 11.75 53.15 0.149 7.5 255.64 9.86
10/29/2021 1:00:00 PM 11.7 53.06 0.141 7.44 257.71 9.89
10/29/2021 1:15:00 PM 11.67 53.006 0.134 7.4 228.29 9.9
10/29/2021 1:30:00 PM 11.68 53.024 0.131 7.38 229.43 9.91
10/29/2021 1:45:00 PM 11.7 53.06 0.131 7.42 197.8 9.91
10/29/2021 2:00:00 PM 11.74 53.132 0.136 7.42 155.66 9.89
10/29/2021 2:15:00 PM 11.77 53.186 0.144 7.46 124.69 9.85
10/29/2021 2:30:00 PM 11.8 53.24 0.152 7.49 109.67 9.81
10/29/2021 2:45:00 PM 11.84 53.312 0.164 7.53 102.63 9.73
10/29/2021 3:00:00 PM 11.91 53.438 0.176 7.51 99.67 9.69
10/29/2021 3:15:00 PM 11.99 53.582 0.188 7.49 109.55 9.63
10/29/2021 3:30:00 PM 12.05 53.69 0.193 7.46 109.12 9.58
10/29/2021 3:45:00 PM 12.1 53.78 0.19 7.4 111.15 9.53
10/29/2021 4:00:00 PM 12.07 53.726 0.174 7.42 116.04 9.54
10/29/2021 4:15:00 PM 12.04 53.672 0.16 7.39 119.04 9.54
10/29/2021 4:30:00 PM 12.03 53.654 0.15 7.38 107.3 9.53
10/29/2021 4:45:00 PM 12.02 53.636 0.145 7.4 106.2 9.53
10/29/2021 5:00:00 PM 12.02 53.636 0.067 7.37 93.61 9.53
10/29/2021 5:15:00 PM 12.01 53.618 0.142 7.4 87.6 9.52
10/29/2021 5:30:00 PM 12.01 53.618 0.142 7.36 82.1 9.52
10/29/2021 5:45:00 PM 11.99 53.582 0.142 7.35 79.46 9.53
10/29/2021 6:00:00 PM 11.99 53.582 0.144 7.38 76.21 9.53
10/29/2021 6:15:00 PM 12.01 53.618 0.148 7.37 72.95 9.51
10/29/2021 6:30:00 PM 12.04 53.672 0.153 7.37 69.21 9.48
10/29/2021 6:45:00 PM 12.07 53.726 0.155 7.39 66.55 9.47
10/29/2021 7:00:00 PM 12.08 53.744 0.154 7.39 59.5 9.46
10/29/2021 7:15:00 PM 12.09 53.762 0.154 7.41 57.38 9.46
10/29/2021 7:30:00 PM 12.11 53.798 0.153 7.38 53.02 9.45
10/29/2021 7:45:00 PM 12.11 53.798 0.153 7.32 49.32 9.45
10/29/2021 8:00:00 PM 12.11 53.798 0.152 7.37 45.58 9.45
10/29/2021 8:15:00 PM 12.1 53.78 0.15 7.34 42.36 9.47
10/29/2021 8:30:00 PM 12.08 53.744 0.149 7.39 40.89 9.5
10/29/2021 8:45:00 PM 12.07 53.726 0.148 7.38 37.38 9.51
10/29/2021 9:00:00 PM 12.06 53.708 0.148 7.41 40.76 9.51
10/29/2021 9:15:00 PM 12.07 53.726 0.149 7.4 33.74 9.51
10/29/2021 9:30:00 PM 12.07 53.726 0.149 7.39 33.83 9.51
10/29/2021 9:45:00 PM 12.06 53.708 0.149 7.41 32.16 9.53
10/29/2021 10:00:00 PM 12.04 53.672 0.148 7.42 30.35 9.54
10/29/2021 10:15:00 PM 12.03 53.654 0.149 7.4 30.04 9.55
10/29/2021 10:30:00 PM 12.04 53.672 0.151 7.42 27.96 9.54
10/29/2021 10:45:00 PM 12.05 53.69 0.154 7.41 27.18 9.53
10/29/2021 11:00:00 PM 12.06 53.708 0.156 7.42 26.11 9.53
10/29/2021 11:15:00 PM 12.07 53.726 0.157 7.43 24.93 9.53
10/29/2021 11:30:00 PM 12.06 53.708 0.157 7.42 24.07 9.55
10/29/2021 11:45:00 PM 12.05 53.69 0.157 7.43 22.52 9.56
10/30/2021 12:00:00 AM 12.04 53.672 0.157 7.43 22.01 9.57
10/30/2021 12:15:00 AM 12.04 53.672 0.157 7.43 21.74 9.57
10/30/2021 12:30:00 AM 12.05 53.69 0.159 7.44 21.21 9.57
10/30/2021 12:45:00 AM 12.06 53.708 0.161 7.44 19.93 9.57
10/30/2021 1:00:00 AM 12.07 53.726 0.161 7.44 19.23 9.56
10/30/2021 1:15:00 AM 12.06 53.708 0.161 7.44 18.75 9.58
10/30/2021 1:30:00 AM 12.05 53.69 0.16 7.45 18.99 9.59
10/30/2021 1:45:00 AM 12.03 53.654 0.159 7.45 18.11 9.6
10/30/2021 2:00:00 AM 12.02 53.636 0.159 7.45 17.9 9.61
10/30/2021 2:15:00 AM 12.01 53.618 0.16 7.44 16.85 9.61
10/30/2021 2:30:00 AM 12.01 53.618 0.161 7.44 17.42 9.61
10/30/2021 2:45:00 AM 12.01 53.618 0.162 7.45 17.49 9.6
10/30/2021 3:00:00 AM 12.02 53.636 0.164 7.45 17.06 9.59
10/30/2021 3:15:00 AM 12.03 53.654 0.165 7.44 17.81 9.58
10/30/2021 3:30:00 AM 12.03 53.654 0.164 7.44 15.03 9.58
10/30/2021 3:45:00 AM 12.02 53.636 0.163 7.46 15.36 9.59
10/30/2021 4:00:00 AM 12 53.6 0.161 7.47 14.82 9.61
10/30/2021 4:15:00 AM 11.98 53.564 0.16 7.46 14.61 9.62
10/30/2021 4:30:00 AM 11.96 53.528 0.16 7.46 14.48 9.63
10/30/2021 4:45:00 AM 11.95 53.51 0.16 7.47 14.31 9.64
10/30/2021 5:00:00 AM 11.94 53.492 0.159 7.46 14.29 9.65
10/30/2021 5:15:00 AM 11.94 53.492 0.16 7.47 13.74 9.65
10/30/2021 5:30:00 AM 11.94 53.492 0.161 7.48 13.39 9.64
10/30/2021 5:45:00 AM 11.95 53.51 0.163 7.48 12.35 9.64
10/30/2021 6:00:00 AM 11.95 53.51 0.163 7.46 12.48 9.64
10/30/2021 6:15:00 AM 11.94 53.492 0.162 7.49 12.89 9.65
10/30/2021 6:30:00 AM 11.92 53.456 0.161 7.49 12.57 9.66
10/30/2021 6:45:00 AM 11.91 53.438 0.16 7.49 12.33 9.67
10/30/2021 7:00:00 AM 11.89 53.402 0.159 7.49 12.21 9.68
10/30/2021 7:15:00 AM 11.88 53.384 0.159 7.49 11.65 9.69
10/30/2021 7:30:00 AM 11.87 53.366 0.159 7.48 11.7 9.69
10/30/2021 7:45:00 AM 11.86 53.348 0.159 7.49 11.32 9.7
10/30/2021 8:00:00 AM 11.85 53.33 0.159 7.47 11.31 9.71
10/30/2021 8:15:00 AM 11.85 53.33 0.16 7.49 10.7 9.71
10/30/2021 8:30:00 AM 11.84 53.312 0.16 7.49 10.98 9.73
10/30/2021 8:45:00 AM 11.85 53.33 0.16 7.49 10.66 9.75
10/30/2021 9:00:00 AM 11.85 53.33 0.16 7.5 10.69 9.77
10/30/2021 9:15:00 AM 11.87 53.366 0.16 7.52 10.5 9.79
10/30/2021 9:30:00 AM 11.89 53.402 0.161 7.52 9.99 9.81
10/30/2021 9:45:00 AM 11.92 53.456 0.162 7.54 9.81 9.83
10/30/2021 10:00:00 AM 11.94 53.492 0.163 7.54 9.53 9.83
10/30/2021 10:15:00 AM 11.96 53.528 0.164 7.54 9.22 9.85
10/30/2021 10:30:00 AM 11.97 53.546 0.163 7.54 9.35 9.87
10/30/2021 10:45:00 AM 11.98 53.564 0.162 7.55 8.83 9.89
10/30/2021 11:00:00 AM 11.98 53.564 0.161 7.55 8.92 9.92
10/30/2021 11:15:00 AM 11.99 53.582 0.161 7.56 9.07 9.92
10/30/2021 11:30:00 AM 12 53.6 0.161 7.55 8.8 9.93
10/30/2021 11:45:00 AM 12.02 53.636 0.161 7.57 8.76 9.96
10/30/2021 12:00:00 PM 12.04 53.672 0.161 7.58 8.41 9.98
10/30/2021 12:15:00 PM 12.05 53.69 0.161 7.59 8.43 9.98
10/30/2021 12:30:00 PM 12.08 53.744 0.163 7.58 8.1 9.96
10/30/2021 12:45:00 PM 12.09 53.762 0.165 7.58 8.23 9.93
10/30/2021 1:00:00 PM 12.11 53.798 0.166 7.57 8.05 9.91
10/30/2021 1:15:00 PM 12.12 53.816 0.165 7.58 8.3 9.92
10/30/2021 1:30:00 PM 12.13 53.834 0.163 7.59 7.97 9.95
10/30/2021 1:45:00 PM 12.16 53.888 0.162 7.59 8.18 9.99
10/30/2021 2:00:00 PM 12.18 53.924 0.161 7.6 8.24 10.01
10/30/2021 2:15:00 PM 12.2 53.96 0.16 7.6 8.34 10.01
10/30/2021 2:30:00 PM 12.22 53.996 0.16 7.61 8.27 10.02
10/30/2021 2:45:00 PM 12.25 54.05 0.16 7.61 8.9 10.02
10/30/2021 3:00:00 PM 12.28 54.104 0.16 7.61 9.21 10.02
10/30/2021 3:15:00 PM 12.31 54.158 0.162 7.62 9.49 9.99
10/30/2021 3:30:00 PM 12.33 54.194 0.164 7.63 9.05 9.97
10/30/2021 3:45:00 PM 12.36 54.248 0.165 7.62 9.54 9.95
10/30/2021 4:00:00 PM 12.37 54.266 0.164 7.62 9.21 9.95
10/30/2021 4:15:00 PM 12.37 54.266 0.163 7.61 8.99 9.93
10/30/2021 4:30:00 PM 12.37 54.266 0.162 7.61 9.18 9.9
10/30/2021 4:45:00 PM 12.37 54.266 0.162 7.59 9.11 9.88
10/30/2021 5:00:00 PM 12.37 54.266 0.163 7.59 8.78 9.84
10/30/2021 5:15:00 PM 12.36 54.248 0.164 7.58 8.45 9.82
10/30/2021 5:30:00 PM 12.37 54.266 0.163 7.58 8.38 9.8
10/30/2021 5:45:00 PM 12.37 54.266 0.165 7.57 8.71 9.77
10/30/2021 6:00:00 PM 12.39 54.302 0.167 7.58 8.65 9.74
10/30/2021 6:15:00 PM 12.4 54.32 0.169 7.57 8.52 9.72
10/30/2021 6:30:00 PM 12.4 54.32 0.169 7.56 8.27 9.7
10/30/2021 6:45:00 PM 12.4 54.32 0.169 7.54 8.42 9.69
10/30/2021 7:00:00 PM 12.39 54.302 0.167 7.55 8.6 9.69
10/30/2021 7:15:00 PM 12.39 54.302 0.167 7.55 8.78 9.67
10/30/2021 7:30:00 PM 12.38 54.284 0.168 7.55 8.47 9.67
10/30/2021 7:45:00 PM 12.38 54.284 0.169 7.55 8.76 9.66
10/30/2021 8:00:00 PM 12.38 54.284 0.169 7.54 8.57 9.65
10/30/2021 8:15:00 PM 12.38 54.284 0.17 7.55 8.52 9.64
10/30/2021 8:30:00 PM 12.39 54.302 0.172 7.55 8.6 9.63
10/30/2021 8:45:00 PM 12.4 54.32 0.173 7.53 8.83 9.62
10/30/2021 9:00:00 PM 12.39 54.302 0.173 7.54 9.07 9.61
10/30/2021 9:15:00 PM 12.38 54.284 0.171 7.54 9.18 9.62
10/30/2021 9:30:00 PM 12.37 54.266 0.17 7.53 8.5 9.62
10/30/2021 9:45:00 PM 12.36 54.248 0.169 7.53 8.69 9.62
10/30/2021 10:00:00 PM 12.34 54.212 0.168 7.52 8.75 9.62
10/30/2021 10:15:00 PM 12.34 54.212 0.168 7.52 8.89 9.62
10/30/2021 10:30:00 PM 12.33 54.194 0.168 7.52 8.56 9.62
10/30/2021 10:45:00 PM 12.32 54.176 0.168 7.5 8.51 9.62
10/30/2021 11:00:00 PM 12.32 54.176 0.167 7.51 8.65 9.62
10/30/2021 11:15:00 PM 12.32 54.176 0.168 7.51 8.57 9.61
10/30/2021 11:30:00 PM 12.33 54.194 0.169 7.51 8.86 9.61
10/30/2021 11:45:00 PM 12.34 54.212 0.168 7.51 8.91 9.61
10/31/2021 12:00:00 AM 12.33 54.194 0.166 7.51 9.68 9.62
10/31/2021 12:15:00 AM 12.32 54.176 0.164 7.5 10.23 9.63
10/31/2021 12:30:00 AM 12.31 54.158 0.163 7.5 11.4 9.63
10/31/2021 12:45:00 AM 12.3 54.14 0.163 7.48 11.65 9.64
10/31/2021 1:00:00 AM 12.3 54.14 0.164 7.5 11.46 9.63
10/31/2021 1:15:00 AM 12.29 54.122 0.164 7.5 11.06 9.63
10/31/2021 1:30:00 AM 12.29 54.122 0.164 7.5 10.87 9.63
10/31/2021 1:45:00 AM 12.29 54.122 0.165 7.49 10.59 9.63
10/31/2021 2:00:00 AM 12.29 54.122 0.166 7.5 10.38 9.62
10/31/2021 2:15:00 AM 12.3 54.14 0.167 7.5 9.94 9.62
10/31/2021 2:30:00 AM 12.3 54.14 0.167 7.51 9.93 9.61
10/31/2021 2:45:00 AM 12.29 54.122 0.167 7.51 9.52 9.62
10/31/2021 3:00:00 AM 12.27 54.086 0.166 7.5 9.82 9.63
10/31/2021 3:15:00 AM 12.26 54.068 0.165 7.5 10.3 9.63
10/31/2021 3:30:00 AM 12.25 54.05 0.166 7.5 10.51 9.63
10/31/2021 3:45:00 AM 12.24 54.032 0.166 7.51 7001.57 9.63
10/31/2021 4:00:00 AM 12.23 54.014 0.166 7.51 9.7 9.63
10/31/2021 4:15:00 AM 12.23 54.014 0.167 7.5 9.38 9.63
10/31/2021 4:30:00 AM 12.23 54.014 0.168 7.52 9.19 9.62
10/31/2021 4:45:00 AM 12.24 54.032 0.169 7.51 9.24 9.62
10/31/2021 5:00:00 AM 12.23 54.014 0.168 7.51 9.31 9.62
10/31/2021 5:15:00 AM 12.23 54.014 0.167 7.51 9.07 9.63
10/31/2021 5:30:00 AM 12.22 53.996 0.166 7.51 8.99 9.64
10/31/2021 5:45:00 AM 12.21 53.978 0.165 7.51 8.94 9.64
10/31/2021 6:00:00 AM 12.21 53.978 0.165 7.51 9.13 9.64
10/31/2021 6:15:00 AM 12.2 53.96 0.165 7.51 9.16 9.65
10/31/2021 6:30:00 AM 12.2 53.96 0.165 7.52 9.54 9.65
10/31/2021 6:45:00 AM 12.19 53.942 0.165 7.51 9.19 9.65
10/31/2021 7:00:00 AM 12.2 53.96 0.165 7.49 9.04 9.65
10/31/2021 7:15:00 AM 12.21 53.978 0.167 7.52 8.88 9.64
10/31/2021 7:30:00 AM 12.22 53.996 0.167 7.52 8.82 9.64
10/31/2021 7:45:00 AM 12.22 53.996 0.166 7.52 8.67 9.64
10/31/2021 8:00:00 AM 12.22 53.996 0.165 7.52 8.38 9.64
10/31/2021 8:15:00 AM 12.21 53.978 0.164 7.52 8.73 9.66
10/31/2021 8:30:00 AM 12.2 53.96 0.163 7.52 8.47 9.67
10/31/2021 8:45:00 AM 12.2 53.96 0.162 7.5 8.25 9.68
10/31/2021 9:00:00 AM 12.2 53.96 0.162 7.53 8.18 9.7
10/31/2021 9:15:00 AM 12.2 53.96 0.162 7.53 7.86 9.72
10/31/2021 9:30:00 AM 12.21 53.978 0.161 7.54 13.68 9.73
10/31/2021 9:45:00 AM 12.22 53.996 0.162 7.55 8.25 9.74
10/31/2021 10:00:00 AM 12.23 54.014 0.163 7.55 7.68 9.77
10/31/2021 10:15:00 AM 12.26 54.068 0.165 7.57 7.4 9.8
10/31/2021 10:30:00 AM 12.28 54.104 0.165 7.58 7.41 9.85
10/31/2021 10:45:00 AM 12.33 54.194 0.163 7.6 7.18 9.93
10/31/2021 11:00:00 AM 12.36 54.248 0.162 7.61 7 9.99
10/31/2021 11:15:00 AM 12.37 54.266 0.161 7.62 6.97 10.01
10/31/2021 11:30:00 AM 12.37 54.266 0.161 7.63 7.01 10.02
10/31/2021 11:45:00 AM 12.38 54.284 0.161 7.63 6.68 10.01
10/31/2021 12:00:00 PM 12.4 54.32 0.161 7.62 6.84 10.03
10/31/2021 12:15:00 PM 12.42 54.356 0.161 7.64 7.86 10.06
10/31/2021 12:30:00 PM 12.43 54.374 0.163 7.65 7.96 10.04
10/31/2021 12:45:00 PM 12.45 54.41 0.166 7.63 6.8 10.03
10/31/2021 1:00:00 PM 12.47 54.446 0.167 7.64 6.96 10.02
10/31/2021 1:15:00 PM 12.48 54.464 0.166 7.66 6.82 10.04
10/31/2021 1:30:00 PM 12.48 54.464 0.164 7.66 7.03 10.05
10/31/2021 1:45:00 PM 12.48 54.464 0.163 7.66 7.19 10.04
10/31/2021 2:00:00 PM 12.46 54.428 0.163 7.64 7 10
10/31/2021 2:15:00 PM 12.47 54.446 0.163 7.65 7.14 10
10/31/2021 2:30:00 PM 12.46 54.428 0.163 7.64 6.78 9.98
10/31/2021 2:45:00 PM 12.47 54.446 0.164 7.64 6.9 9.97
10/31/2021 3:00:00 PM 12.48 54.464 0.166 7.63 6.71 9.96
10/31/2021 3:15:00 PM 12.5 54.5 0.167 7.64 6.97 9.95
10/31/2021 3:30:00 PM 12.52 54.536 0.168 7.63 6.8 9.94
10/31/2021 3:45:00 PM 12.53 54.554 0.167 7.63 6.89 9.94
10/31/2021 4:00:00 PM 12.54 54.572 0.166 7.64 7.09 9.96
10/31/2021 4:15:00 PM 12.53 54.554 0.165 7.64 6.96 9.96
10/31/2021 4:30:00 PM 12.53 54.554 0.164 7.64 7.49 9.95
10/31/2021 4:45:00 PM 12.53 54.554 0.163 7.64 7.05 9.94
10/31/2021 5:00:00 PM 12.54 54.572 0.163 7.63 6.98 9.93
10/31/2021 5:15:00 PM 12.54 54.572 0.163 7.63 7.14 9.93
10/31/2021 5:30:00 PM 12.53 54.554 0.164 7.64 7.18 9.92
10/31/2021 5:45:00 PM 12.52 54.536 0.165 7.63 6.85 9.9
10/31/2021 6:00:00 PM 12.51 54.518 0.166 7.62 6.87 9.87
10/31/2021 6:15:00 PM 12.5 54.5 0.168 7.61 6.8 9.83
10/31/2021 6:30:00 PM 12.48 54.464 0.168 7.6 6.73 9.81
10/31/2021 6:45:00 PM 12.46 54.428 0.166 7.58 6.77 9.8
10/31/2021 7:00:00 PM 12.43 54.374 0.165 7.59 6.92 9.78
10/31/2021 7:15:00 PM 12.4 54.32 0.163 7.58 6.93 9.77
10/31/2021 7:30:00 PM 12.38 54.284 0.163 7.57 7.91 9.77
10/31/2021 7:45:00 PM 12.35 54.23 0.163 7.57 8.51 9.76
10/31/2021 8:00:00 PM 12.33 54.194 0.163 7.56 7.85 9.76
10/31/2021 8:15:00 PM 12.32 54.176 0.163 7.57 7.33 9.75
10/31/2021 8:30:00 PM 12.3 54.14 0.163 7.55 7.07 9.75
10/31/2021 8:45:00 PM 12.29 54.122 0.165 7.56 7.1 9.74
10/31/2021 9:00:00 PM 12.29 54.122 0.167 7.55 7.12 9.74
10/31/2021 9:15:00 PM 12.28 54.104 0.167 7.56 6.88 9.73
10/31/2021 9:30:00 PM 12.27 54.086 0.166 7.55 6.72 9.75
10/31/2021 9:45:00 PM 12.25 54.05 0.164 7.55 6.92 9.75
10/31/2021 10:00:00 PM 12.22 53.996 0.163 7.55 6.62 9.76
10/31/2021 10:15:00 PM 12.2 53.96 0.163 7.53 6.63 9.77
10/31/2021 10:30:00 PM 12.18 53.924 0.163 7.54 6.76 9.77
10/31/2021 10:45:00 PM 12.16 53.888 0.162 7.54 6.54 9.78
10/31/2021 11:00:00 PM 12.14 53.852 0.162 7.53 6.46 9.78
10/31/2021 11:15:00 PM 12.13 53.834 0.163 7.53 6.34 9.78
10/31/2021 11:30:00 PM 12.12 53.816 0.165 7.54 6.54 9.78
10/31/2021 11:45:00 PM 12.12 53.816 0.166 7.54 6.44 9.78
11/1/2021 12:00:00 AM 12.11 53.798 0.167 7.54 6.41 9.78
11/1/2021 12:15:00 AM 12.1 53.78 0.166 7.54 6.26 9.78
11/1/2021 12:30:00 AM 12.08 53.744 0.165 7.54 6.11 9.8
11/1/2021 12:45:00 AM 12.06 53.708 0.164 7.53 6.18 9.8
11/1/2021 1:00:00 AM 12.04 53.672 0.165 7.53 6.47 9.81
11/1/2021 1:15:00 AM 12.03 53.654 0.166 7.53 6.41 9.81
11/1/2021 1:30:00 AM 12.02 53.636 0.166 7.53 6.21 9.81
11/1/2021 1:45:00 AM 12.02 53.636 0.167 7.53 6.3 9.81
11/1/2021 2:00:00 AM 12.01 53.618 0.168 7.54 6.24 9.82
11/1/2021 2:15:00 AM 12.01 53.618 0.17 7.55 6.36 9.81
11/1/2021 2:30:00 AM 12.01 53.618 0.172 7.55 6.08 9.81
11/1/2021 2:45:00 AM 12.01 53.618 0.173 7.53 5.93 9.81
11/1/2021 3:00:00 AM 12 53.6 0.172 7.55 5.67 9.81
11/1/2021 3:15:00 AM 11.98 53.564 0.171 7.54 5.72 9.82
11/1/2021 3:30:00 AM 11.96 53.528 0.17 7.53 5.97 9.83
11/1/2021 3:45:00 AM 11.95 53.51 0.17 7.54 5.75 9.84
11/1/2021 4:00:00 AM 11.93 53.474 0.17 7.54 5.38 9.84
11/1/2021 4:15:00 AM 11.91 53.438 0.17 7.53 5.71 9.85
11/1/2021 4:30:00 AM 11.89 53.402 0.169 7.54 5.82 9.86
11/1/2021 4:45:00 AM 11.85 53.33 0.17 7.54 5.64 9.87
11/1/2021 5:00:00 AM 11.83 53.294 0.171 7.54 5.43 9.87
11/1/2021 5:15:00 AM 11.8 53.24 0.172 7.54 5.6 9.88
11/1/2021 5:30:00 AM 11.78 53.204 0.172 7.54 5.35 9.88
11/1/2021 5:45:00 AM 11.75 53.15 0.171 7.54 5.41 9.89
11/1/2021 6:00:00 AM 11.69 53.042 0.17 7.53 5.42 9.91
11/1/2021 6:15:00 AM 11.65 52.97 0.169 7.53 5.36 9.92
11/1/2021 6:30:00 AM 11.59 52.862 0.168 7.53 5.59 9.94
11/1/2021 6:45:00 AM 11.54 52.772 0.167 7.53 5.44 9.95
11/1/2021 7:00:00 AM 11.48 52.664 0.166 7.52 5.32 9.97
11/1/2021 7:15:00 AM 11.43 52.574 0.165 7.52 5.18 9.98
11/1/2021 7:30:00 AM 11.37 52.466 0.164 7.51 5.21 10
11/1/2021 7:45:00 AM 11.32 52.376 0.165 7.53 5.23 10.01
11/1/2021 8:00:00 AM 11.28 52.304 0.165 7.52 5.12 10.03
11/1/2021 8:15:00 AM 11.24 52.232 0.165 7.53 5.07 10.06
11/1/2021 8:30:00 AM 11.2 52.16 0.163 7.53 5.2 10.11
11/1/2021 8:45:00 AM 11.18 52.124 0.162 7.54 4.96 10.17
11/1/2021 9:00:00 AM 11.14 52.052 0.161 7.54 5.06 10.22
11/1/2021 9:15:00 AM 11.11 51.998 0.16 7.56 4.75 10.28
11/1/2021 9:30:00 AM 11.1 51.98 0.16 7.56 4.7 10.34
11/1/2021 9:45:00 AM 11.08 51.944 0.159 7.58 4.93 10.38
11/1/2021 10:00:00 AM 11.08 51.944 0.159 7.59 4.58 10.44
11/1/2021 10:15:00 AM 11.08 51.944 0.159 7.6 10.04 10.47
11/1/2021 10:30:00 AM 11.11 51.998 0.16 7.63 16.21 10.52
11/1/2021 10:45:00 AM 11.1 51.98 0.161 7.62 4.2 10.55
11/1/2021 11:00:00 AM 11.1 51.98 0.162 7.63 4.23 10.59
11/1/2021 11:15:00 AM 11.12 52.016 0.161 7.65 3.98 10.64
11/1/2021 11:30:00 AM 11.12 52.016 0.16 7.66 4.01 10.69
11/1/2021 11:45:00 AM 11.12 52.016 0.159 7.66 3.93 10.71
11/1/2021 12:00:00 PM 11.18 52.124 0.159 7.7 3.94 10.75
11/1/2021 12:15:00 PM 11.26 52.268 0.159 7.71 3.99 10.79
11/1/2021 12:30:00 PM 11.26 52.268 0.158 7.71 3.88 10.8
11/1/2021 12:45:00 PM 11.29 52.322 0.158 7.74 3.88 10.82
11/1/2021 1:00:00 PM 11.41 52.538 0.158 7.75 4.1 10.85
11/1/2021 1:15:00 PM 11.5 52.7 0.16 7.77 3.92 10.86
11/1/2021 1:30:00 PM 11.58 52.844 0.162 7.78 3.76 10.84
11/1/2021 1:45:00 PM 11.65 52.97 0.162 7.79 3.9 10.82
11/1/2021 2:00:00 PM 11.74 53.132 0.161 7.81 4.01 10.82
11/1/2021 2:15:00 PM 11.8 53.24 0.161 7.8 3.96 10.82
11/1/2021 2:30:00 PM 11.86 53.348 0.16 7.82 4.12 10.82
11/1/2021 2:45:00 PM 11.88 53.384 0.161 7.81 3.88 10.81
11/1/2021 3:00:00 PM 11.87 53.366 0.161 7.81 3.82 10.79
11/1/2021 3:15:00 PM 11.87 53.366 0.161 7.81 3.85 10.77
11/1/2021 3:30:00 PM 11.86 53.348 0.162 7.8 4.01 10.74
11/1/2021 3:45:00 PM 11.85 53.33 0.165 7.8 4.03 10.71
11/1/2021 4:00:00 PM 11.85 53.33 0.168 7.79 3.91 10.68
11/1/2021 4:15:00 PM 11.85 53.33 0.17 7.77 4.04 10.65
11/1/2021 4:30:00 PM 11.84 53.312 0.17 7.78 3.99 10.63
11/1/2021 4:45:00 PM 11.81 53.258 0.17 7.77 3.84 10.61
11/1/2021 5:00:00 PM 11.8 53.24 0.17 7.77 3.93 10.59
11/1/2021 5:15:00 PM 11.79 53.222 0.171 7.76 3.92 10.54
11/1/2021 5:30:00 PM 11.79 53.222 0.171 7.75 3.89 10.51
11/1/2021 5:45:00 PM 11.78 53.204 0.171 7.73 3.8 10.45
11/1/2021 6:00:00 PM 11.78 53.204 0.171 7.7 3.84 10.38
11/1/2021 6:15:00 PM 11.77 53.186 0.172 7.69 3.75 10.32
11/1/2021 6:30:00 PM 11.76 53.168 0.174 7.68 3.96 10.26
11/1/2021 6:45:00 PM 11.75 53.15 0.176 7.66 4.04 10.22
11/1/2021 7:00:00 PM 11.73 53.114 0.176 7.65 4.01 10.18
11/1/2021 7:15:00 PM 11.71 53.078 0.175 7.64 4.36 10.15
11/1/2021 7:30:00 PM 11.68 53.024 0.174 7.62 4.27 10.13
11/1/2021 7:45:00 PM 11.64 52.952 0.173 7.61 4.29 10.11
11/1/2021 8:00:00 PM 11.59 52.862 0.173 7.6 4.33 10.11
11/1/2021 8:15:00 PM 11.54 52.772 0.172 7.6 4.47 10.1
11/1/2021 8:30:00 PM 11.49 52.682 0.172 7.58 4.33 10.1
11/1/2021 8:45:00 PM 11.42 52.556 0.172 7.58 4.81 10.1
11/1/2021 9:00:00 PM 11.36 52.448 0.172 7.56 4.38 10.1
11/1/2021 9:15:00 PM 11.3 52.34 0.173 7.56 4.51 10.1
11/1/2021 9:30:00 PM 11.24 52.232 0.175 7.55 4.22 10.1
11/1/2021 9:45:00 PM 11.19 52.142 0.175 7.54 4.32 10.11
11/1/2021 10:00:00 PM 11.13 52.034 0.175 7.55 4.23 10.12
11/1/2021 10:15:00 PM 11.07 51.926 0.174 7.54 4.48 10.13
11/1/2021 10:30:00 PM 11.01 51.818 0.173 7.54 4.42 10.15
11/1/2021 10:45:00 PM 10.97 51.746 0.173 7.54 4.41 10.16
11/1/2021 11:00:00 PM 10.92 51.656 0.173 7.53 4.01 10.17
11/1/2021 11:15:00 PM 10.87 51.566 0.172 7.52 4.23 10.18
11/1/2021 11:30:00 PM 10.83 51.494 0.171 7.52 4.12 10.19
11/1/2021 11:45:00 PM 10.78 51.404 0.171 7.53 4.36 10.2
11/2/2021 12:00:00 AM 10.75 51.35 0.172 7.52 4 10.2
11/2/2021 12:15:00 AM 10.72 51.296 0.173 7.52 4.11 10.21
11/2/2021 12:30:00 AM 10.69 51.242 0.173 7.52 3.99 10.22
11/2/2021 12:45:00 AM 10.66 51.188 0.172 7.51 4.45 10.23
11/2/2021 1:00:00 AM 10.62 51.116 0.17 7.51 4.12 10.23
11/2/2021 1:15:00 AM 10.58 51.044 0.169 7.51 4.28 10.25
11/2/2021 1:30:00 AM 10.54 50.972 0.168 7.5 4.26 10.27
11/2/2021 1:45:00 AM 10.51 50.918 0.167 7.5 4.47 10.28
11/2/2021 2:00:00 AM 10.47 50.846 0.166 7.48 4.58 10.29
11/2/2021 2:15:00 AM 10.44 50.792 0.165 7.5 4.35 10.3
11/2/2021 2:30:00 AM 10.41 50.738 0.165 7.5 4.51 10.31
11/2/2021 2:45:00 AM 10.39 50.702 0.165 7.49 4.38 10.31
11/2/2021 3:00:00 AM 10.37 50.666 0.166 7.49 4.25 10.31
11/2/2021 3:15:00 AM 10.35 50.63 0.167 7.49 4.28 10.32
11/2/2021 3:30:00 AM 10.32 50.576 0.167 7.49 4.29 10.32
11/2/2021 3:45:00 AM 10.28 50.504 0.166 7.49 4.37 10.33
11/2/2021 4:00:00 AM 10.26 50.468 0.165 7.5 4.17 10.34
11/2/2021 4:15:00 AM 10.23 50.414 0.165 7.47 4.2 10.35
11/2/2021 4:30:00 AM 10.2 50.36 0.164 7.49 4.28 10.36
11/2/2021 4:45:00 AM 10.18 50.324 0.164 7.49 4.3 10.37
11/2/2021 5:00:00 AM 10.16 50.288 0.164 7.48 4.54 10.38
11/2/2021 5:15:00 AM 10.15 50.27 0.164 7.47 4.06 10.38
11/2/2021 5:30:00 AM 10.14 50.252 0.166 7.5 4 10.38
11/2/2021 5:45:00 AM 10.13 50.234 0.167 7.51 5.07 10.38
11/2/2021 6:00:00 AM 10.13 50.234 0.168 7.5 4.19 10.38
11/2/2021 6:15:00 AM 10.12 50.216 0.167 7.51 4.22 10.39
11/2/2021 6:30:00 AM 10.1 50.18 0.166 7.51 4.04 10.39
11/2/2021 6:45:00 AM 10.08 50.144 0.166 7.5 4.14 10.4
11/2/2021 7:00:00 AM 10.06 50.108 0.165 7.5 4.01 10.41
11/2/2021 7:15:00 AM 10.04 50.072 0.164 7.5 3.93 10.42
11/2/2021 7:30:00 AM 10.02 50.036 0.164 7.5 4.18 10.42
11/2/2021 7:45:00 AM 10.01 50.018 0.163 7.5 3.94 10.43
11/2/2021 8:00:00 AM 10 50 0.163 7.5 3.77 10.44
11/2/2021 8:15:00 AM 9.99 49.982 0.164 7.5 3.9 10.45
11/2/2021 8:30:00 AM 9.99 49.982 0.165 7.51 3.71 10.47
11/2/2021 8:45:00 AM 10 50 0.165 7.52 3.72 10.52
11/2/2021 9:00:00 AM 10 50 0.165 7.53 3.77 10.54
11/2/2021 9:15:00 AM 10 50 0.164 7.53 3.48 10.59
11/2/2021 9:30:00 AM 10.01 50.018 0.163 7.55 3.67 10.67
11/2/2021 9:45:00 AM 10 50 0.163 7.57 3.46 10.72
11/2/2021 10:00:00 AM 10.01 50.018 0.162 7.58 3.44 10.79
11/2/2021 10:15:00 AM 10.04 50.072 0.161 7.61 3.44 10.87
11/2/2021 10:30:00 AM 10.07 50.126 0.161 7.61 3.32 10.95
11/2/2021 10:45:00 AM 10.12 50.216 0.161 7.65 3.27 11.02
11/2/2021 11:00:00 AM 10.15 50.27 0.161 7.68 3.31 11.06
11/2/2021 11:15:00 AM 10.2 50.36 0.162 7.7 3.25 11.1
11/2/2021 11:30:00 AM 10.27 50.486 0.162 7.73 3.32 11.14
11/2/2021 11:45:00 AM 10.32 50.576 0.162 7.75 3.2 11.19
11/2/2021 12:00:00 PM 10.35 50.63 0.161 7.77 3.29 11.21
11/2/2021 12:15:00 PM 10.38 50.684 0.16 7.77 3.19 11.23
11/2/2021 12:30:00 PM 10.42 50.756 0.16 7.8 3.25 11.26
11/2/2021 12:45:00 PM 10.49 50.882 0.159 7.82 3.35 11.27
11/2/2021 1:00:00 PM 10.56 51.008 0.159 7.85 3.17 11.3
11/2/2021 1:15:00 PM 10.6 51.08 0.158 7.85 3.1 11.3
11/2/2021 1:30:00 PM 10.63 51.134 0.159 7.86 3.41 11.3
11/2/2021 1:45:00 PM 10.66 51.188 0.16 7.87 3.32 11.29
11/2/2021 2:00:00 PM 10.71 51.278 0.161 7.88 3.17 11.29
11/2/2021 2:15:00 PM 10.73 51.314 0.162 7.88 3.39 11.26
11/2/2021 2:30:00 PM 10.72 51.296 0.161 7.86 3.46 11.2
11/2/2021 2:45:00 PM 10.78 51.404 0.161 7.88 3.35 11.2
11/2/2021 3:00:00 PM 10.79 51.422 0.16 7.87 3.42 11.17
11/2/2021 3:15:00 PM 10.79 51.422 0.16 7.85 3.45 11.11
11/2/2021 3:30:00 PM 10.8 51.44 0.159 7.84 3.18 11.07
11/2/2021 3:45:00 PM 10.81 51.458 0.159 7.84 3.45 11.04
11/2/2021 4:00:00 PM 10.81 51.458 0.159 7.83 3.24 11.04
11/2/2021 4:15:00 PM 10.81 51.458 0.16 7.82 3.26 10.99
11/2/2021 4:30:00 PM 10.82 51.476 0.162 7.82 3.26 10.98
11/2/2021 4:45:00 PM 10.83 51.494 0.163 7.82 3.19 10.96
11/2/2021 5:00:00 PM 10.81 51.458 0.164 7.8 3.13 10.88
11/2/2021 5:15:00 PM 10.78 51.404 0.164 7.77 3.06 10.83
11/2/2021 5:30:00 PM 10.75 51.35 0.164 7.75 3.13 10.78
11/2/2021 5:45:00 PM 10.71 51.278 0.163 7.73 3.16 10.74
11/2/2021 6:00:00 PM 10.68 51.224 0.163 7.71 3.25 10.69
11/2/2021 6:15:00 PM 10.65 51.17 0.162 7.7 3.16 10.64
11/2/2021 6:30:00 PM 10.6 51.08 0.162 7.67 3.29 10.6
11/2/2021 6:45:00 PM 10.55 50.99 0.162 7.65 3.38 10.56
11/2/2021 7:00:00 PM 10.52 50.936 0.163 7.63 3.45 10.53
11/2/2021 7:15:00 PM 10.48 50.864 0.164 7.63 3.83 10.51
11/2/2021 7:30:00 PM 10.44 50.792 0.166 7.62 3.83 10.48
11/2/2021 7:45:00 PM 10.41 50.738 0.166 7.61 3.72 10.46
11/2/2021 8:00:00 PM 10.37 50.666 0.166 7.6 3.78 10.45
11/2/2021 8:15:00 PM 10.32 50.576 0.165 7.59 3.54 10.44
11/2/2021 8:30:00 PM 10.27 50.486 0.164 7.57 3.57 10.43
11/2/2021 8:45:00 PM 10.22 50.396 0.164 7.56 3.51 10.43
11/2/2021 9:00:00 PM 10.18 50.324 0.163 7.56 3.55 10.43
11/2/2021 9:15:00 PM 10.13 50.234 0.163 7.54 3.55 10.44
11/2/2021 9:30:00 PM 10.07 50.126 0.163 7.55 3.65 10.45
11/2/2021 9:45:00 PM 10.02 50.036 0.164 7.53 3.57 10.45
11/2/2021 10:00:00 PM 9.97 49.946 0.166 7.54 3.59 10.45
11/2/2021 10:15:00 PM 9.91 49.838 0.167 7.54 3.48 10.46
11/2/2021 10:30:00 PM 9.87 49.766 0.167 7.53 3.43 10.47
11/2/2021 10:45:00 PM 9.8 49.64 0.167 7.52 3.51 10.48
11/2/2021 11:00:00 PM 9.74 49.532 0.166 7.52 3.41 10.49
11/2/2021 11:15:00 PM 9.67 49.406 0.166 7.52 3.63 10.51
11/2/2021 11:30:00 PM 9.61 49.298 0.165 7.51 3.47 10.53
11/2/2021 11:45:00 PM 9.54 49.172 0.165 7.51 3.4 10.54
11/3/2021 12:00:00 AM 9.48 49.064 0.164 7.51 3.34 10.55
11/3/2021 12:15:00 AM 9.41 48.938 0.164 7.5 3.78 10.57
11/3/2021 12:30:00 AM 9.35 48.83 0.165 7.5 3.46 10.58
11/3/2021 12:45:00 AM 9.29 48.722 0.166 7.51 3.44 10.59
11/3/2021 1:00:00 AM 9.24 48.632 0.167 7.5 3.36 10.59
11/3/2021 1:15:00 AM 9.18 48.524 0.167 7.49 3.3 10.62
11/3/2021 1:30:00 AM 9.12 48.416 0.167 7.5 3.43 10.64
11/3/2021 1:45:00 AM 9.05 48.29 0.166 7.49 3.48 10.65
11/3/2021 2:00:00 AM 8.99 48.182 0.166 7.51 3.34 10.68
11/3/2021 2:15:00 AM 8.93 48.074 0.165 7.5 3.47 10.7
11/3/2021 2:30:00 AM 8.87 47.966 0.165 7.5 3.26 10.71
11/3/2021 2:45:00 AM 8.81 47.858 0.165 7.5 3.23 10.73
11/3/2021 3:00:00 AM 8.75 47.75 0.165 7.5 3.26 10.75
11/3/2021 3:15:00 AM 8.7 47.66 0.166 7.49 3.25 10.76
11/3/2021 3:30:00 AM 8.65 47.57 0.167 7.5 3.18 10.77
11/3/2021 3:45:00 AM 8.61 47.498 0.169 7.51 3.25 10.79
11/3/2021 4:00:00 AM 8.57 47.426 0.169 7.5 3.24 10.8
11/3/2021 4:15:00 AM 8.52 47.336 0.169 7.51 3.38 10.81
11/3/2021 4:30:00 AM 8.48 47.264 0.168 7.51 3.31 10.83
11/3/2021 4:45:00 AM 8.43 47.174 0.167 7.49 3.27 10.84
11/3/2021 5:00:00 AM 8.39 47.102 0.167 7.5 3.28 10.86
11/3/2021 5:15:00 AM 8.34 47.012 0.166 7.51 3.09 10.87
11/3/2021 5:30:00 AM 8.31 46.958 0.166 7.52 3.37 10.88
11/3/2021 5:45:00 AM 8.28 46.904 0.166 7.52 3.26 10.9
11/3/2021 6:00:00 AM 8.25 46.85 0.167 7.52 3.16 10.91
11/3/2021 6:15:00 AM 8.23 46.814 0.169 7.51 3.29 10.91
11/3/2021 6:30:00 AM 8.2 46.76 0.17 7.51 3.22 10.92
11/3/2021 6:45:00 AM 8.18 46.724 0.17 7.52 3.25 10.92
11/3/2021 7:00:00 AM 8.15 46.67 0.17 7.49 3.16 10.94
11/3/2021 7:15:00 AM 8.12 46.616 0.169 7.5 3.19 10.94
11/3/2021 7:30:00 AM 8.09 46.562 0.168 7.51 3.21 10.96
11/3/2021 7:45:00 AM 8.05 46.49 0.167 7.5 3.14 10.97
11/3/2021 8:00:00 AM 8.02 46.436 0.167 7.51 3.2 11
11/3/2021 8:15:00 AM 8 46.4 0.166 7.52 3.66 11.02
11/3/2021 8:30:00 AM 7.97 46.346 0.166 7.52 3.11 11.07
11/3/2021 8:45:00 AM 7.95 46.31 0.166 7.53 3.05 11.11
11/3/2021 9:00:00 AM 7.94 46.292 0.168 7.53 3.2 11.15
11/3/2021 9:15:00 AM 7.94 46.292 0.168 7.56 2.97 11.21
11/3/2021 9:30:00 AM 7.96 46.328 0.168 7.56 3.03 11.28
11/3/2021 9:45:00 AM 7.98 46.364 0.167 7.6 3.13 11.35
11/3/2021 10:00:00 AM 8.01 46.418 0.167 7.62 3.12 11.42
11/3/2021 10:15:00 AM 8.04 46.472 0.166 7.63 2.91 11.48
11/3/2021 10:30:00 AM 8.08 46.544 0.165 7.65 3.13 11.53
11/3/2021 10:45:00 AM 8.12 46.616 0.164 7.67 2.86 11.57
11/3/2021 11:00:00 AM 8.15 46.67 0.164 7.69 2.83 11.63
11/3/2021 11:15:00 AM 8.15 46.67 0.164 7.67 2.74 11.66
11/3/2021 11:30:00 AM 8.2 46.76 0.165 7.72 2.78 11.69
11/3/2021 11:45:00 AM 8.19 46.742 0.165 7.72 2.86 11.69
11/3/2021 12:00:00 PM 8.23 46.814 0.166 7.74 2.81 11.73
11/3/2021 12:15:00 PM 8.27 46.886 0.166 7.75 2.82 11.77
11/3/2021 12:30:00 PM 8.3 46.94 0.166 7.77 2.8 11.79
11/3/2021 12:45:00 PM 8.34 47.012 0.165 7.79 2.89 11.8
11/3/2021 1:00:00 PM 8.36 47.048 0.165 7.79 2.74 11.8
11/3/2021 1:15:00 PM 8.46 47.228 0.164 7.82 2.78 11.82
11/3/2021 1:30:00 PM 8.53 47.354 0.163 7.81 2.83 11.81
11/3/2021 1:45:00 PM 8.58 47.444 0.163 7.83 2.74 11.82
11/3/2021 2:00:00 PM 8.63 47.534 0.163 7.84 2.75 11.8
11/3/2021 2:15:00 PM 8.66 47.588 0.164 7.85 2.96 11.79
11/3/2021 2:30:00 PM 8.78 47.804 0.166 7.87 2.86 11.78
11/3/2021 2:45:00 PM 8.83 47.894 0.166 7.87 2.97 11.76
11/3/2021 3:00:00 PM 8.86 47.948 0.167 7.87 2.95 11.74
11/3/2021 3:15:00 PM 8.87 47.966 0.166 7.86 2.9 11.71
11/3/2021 3:30:00 PM 8.9 48.02 0.166 7.86 3.39 11.69
11/3/2021 3:45:00 PM 8.93 48.074 0.166 7.86 2.99 11.67
11/3/2021 4:00:00 PM 8.96 48.128 0.165 7.87 2.98 11.66
11/3/2021 4:15:00 PM 9.01 48.218 0.165 7.87 3.15 11.63
11/3/2021 4:30:00 PM 9.05 48.29 0.164 7.86 2.9 11.6
11/3/2021 4:45:00 PM 9.08 48.344 0.165 7.85 2.77 11.56
11/3/2021 5:00:00 PM 9.1 48.38 0.166 7.83 2.96 11.48
11/3/2021 5:15:00 PM 9.12 48.416 0.168 7.78 2.67 11.4
11/3/2021 5:30:00 PM 9.13 48.434 0.169 7.76 2.84 11.32
11/3/2021 5:45:00 PM 9.14 48.452 0.169 7.72 2.84 11.25
11/3/2021 6:00:00 PM 9.13 48.434 0.168 7.71 2.87 11.18
11/3/2021 6:15:00 PM 9.12 48.416 0.167 7.68 2.9 11.12
11/3/2021 6:30:00 PM 9.12 48.416 0.165 7.66 2.83 11.07
11/3/2021 6:45:00 PM 9.11 48.398 0.164 7.64 2.95 11.02
11/3/2021 7:00:00 PM 9.09 48.362 0.163 7.61 2.91 10.98
11/3/2021 7:15:00 PM 9.06 48.308 0.162 7.6 3.03 10.94
11/3/2021 7:30:00 PM 9.03 48.254 0.162 7.59 3.15 10.91
11/3/2021 7:45:00 PM 9 48.2 0.164 7.56 3.21 10.88
11/3/2021 8:00:00 PM 8.98 48.164 0.165 7.55 3.01 10.86
11/3/2021 8:15:00 PM 8.95 48.11 0.166 7.55 3.08 10.84
11/3/2021 8:30:00 PM 8.91 48.038 0.166 7.55 3.07 10.83
11/3/2021 8:45:00 PM 8.87 47.966 0.166 7.53 3 10.83
11/3/2021 9:00:00 PM 8.83 47.894 0.165 7.53 3.06 10.82
11/3/2021 9:15:00 PM 8.79 47.822 0.164 7.52 3.26 10.83
11/3/2021 9:30:00 PM 8.75 47.75 0.163 7.51 2.98 10.83
11/3/2021 9:45:00 PM 8.7 47.66 0.163 7.51 2.91 10.84
11/3/2021 10:00:00 PM 8.65 47.57 0.163 7.51 2.96 10.85
11/3/2021 10:15:00 PM 8.6 47.48 0.164 7.51 3.03 10.84
11/3/2021 10:30:00 PM 8.56 47.408 0.166 7.51 3.05 10.85
11/3/2021 10:45:00 PM 8.52 47.336 0.167 7.5 3.07 10.86
11/3/2021 11:00:00 PM 8.48 47.264 0.169 7.5 2.94 10.87
11/3/2021 11:15:00 PM 8.44 47.192 0.17 7.5 2.95 10.87
11/3/2021 11:30:00 PM 8.39 47.102 0.17 7.5 2.96 10.88
11/3/2021 11:45:00 PM 8.35 47.03 0.17 7.5 2.92 10.9
11/4/2021 12:00:00 AM 8.3 46.94 0.17 7.5 2.83 10.91
11/4/2021 12:15:00 AM 8.25 46.85 0.169 7.49 2.92 10.93
11/4/2021 12:30:00 AM 8.2 46.76 0.169 7.5 2.96 10.93
11/4/2021 12:45:00 AM 8.15 46.67 0.17 7.48 2.79 10.95
11/4/2021 1:00:00 AM 8.11 46.598 0.171 7.48 2.83 10.96
11/4/2021 1:15:00 AM 8.07 46.526 0.172 7.48 2.8 10.97
11/4/2021 1:30:00 AM 8.03 46.454 0.174 7.51 2.93 10.97
11/4/2021 1:45:00 AM 7.99 46.382 0.174 7.49 2.81 10.99
11/4/2021 2:00:00 AM 7.95 46.31 0.175 7.51 3.03 11
11/4/2021 2:15:00 AM 7.91 46.238 0.174 7.51 2.85 11.01
11/4/2021 2:30:00 AM 7.86 46.148 0.174 7.5 3 11.02
11/4/2021 2:45:00 AM 7.81 46.058 0.173 7.5 2.93 11.04
11/4/2021 3:00:00 AM 7.77 45.986 0.172 7.5 2.83 11.06
11/4/2021 3:15:00 AM 7.72 45.896 0.172 7.49 2.75 11.07
11/4/2021 3:30:00 AM 7.67 45.806 0.172 7.49 2.75 11.09
11/4/2021 3:45:00 AM 7.63 45.734 0.173 7.5 2.8 11.1
11/4/2021 4:00:00 AM 7.59 45.662 0.174 7.49 2.79 11.1
11/4/2021 4:15:00 AM 7.55 45.59 0.175 7.5 2.88 11.11
11/4/2021 4:30:00 AM 7.52 45.536 0.176 7.5 2.87 11.13
11/4/2021 4:45:00 AM 7.47 45.446 0.177 7.5 2.82 11.14
11/4/2021 5:00:00 AM 7.43 45.374 0.176 7.48 2.94 11.15
11/4/2021 5:15:00 AM 7.39 45.302 0.176 7.5 2.96 11.17
11/4/2021 5:30:00 AM 7.33 45.194 0.175 7.47 2.81 11.18
11/4/2021 5:45:00 AM 7.29 45.122 0.174 7.49 2.79 11.2
11/4/2021 6:00:00 AM 7.24 45.032 0.174 7.48 2.89 11.2
11/4/2021 6:15:00 AM 7.2 44.96 0.174 7.49 2.81 11.22
11/4/2021 6:30:00 AM 7.16 44.888 0.175 7.5 2.75 11.24
11/4/2021 6:45:00 AM 7.12 44.816 0.176 7.5 2.83 11.25
11/4/2021 7:00:00 AM 7.09 44.762 0.177 7.5 2.76 11.26
11/4/2021 7:15:00 AM 7.06 44.708 0.178 7.49 2.77 11.26
11/4/2021 7:30:00 AM 7.02 44.636 0.178 7.5 2.79 11.28
11/4/2021 7:45:00 AM 6.98 44.564 0.178 7.49 2.87 11.29
11/4/2021 8:00:00 AM 6.93 44.474 0.177 7.5 2.74 11.31
11/4/2021 8:15:00 AM 6.9 44.42 0.176 7.51 2.99 11.35
11/4/2021 8:30:00 AM 6.86 44.348 0.175 7.51 2.84 11.41
11/4/2021 8:45:00 AM 6.82 44.276 0.174 7.51 2.7 11.45
11/4/2021 9:00:00 AM 6.8 44.24 0.174 7.52 2.64 11.51
11/4/2021 9:15:00 AM 6.78 44.204 0.174 7.53 2.76 11.57
11/4/2021 9:30:00 AM 6.79 44.222 0.175 7.55 2.62 11.64
11/4/2021 9:45:00 AM 6.82 44.276 0.176 7.57 2.59 11.72
11/4/2021 10:00:00 AM 6.86 44.348 0.176 7.6 2.58 11.79
11/4/2021 10:15:00 AM 6.92 44.456 0.176 7.61 2.59 11.86
11/4/2021 10:30:00 AM 6.97 44.546 0.175 7.64 2.43 11.92
11/4/2021 10:45:00 AM 7.03 44.654 0.174 7.66 2.56 11.97
11/4/2021 11:00:00 AM 7.07 44.726 0.173 7.68 2.52 12.01
11/4/2021 11:15:00 AM 7.13 44.834 0.172 7.7 2.55 12.06
11/4/2021 11:30:00 AM 7.21 44.978 0.171 7.71 2.54 12.09
11/4/2021 11:45:00 AM 7.26 45.068 0.171 7.73 2.49 12.12
11/4/2021 12:00:00 PM 7.31 45.158 0.171 7.75 2.61 12.14
11/4/2021 12:15:00 PM 7.4 45.32 0.172 7.77 2.37 12.17
11/4/2021 12:30:00 PM 7.51 45.518 0.173 7.8 3.23 12.19
11/4/2021 12:45:00 PM 7.62 45.716 0.173 7.82 2.45 12.19
11/4/2021 1:00:00 PM 7.69 45.842 0.173 7.84 2.44 12.2
11/4/2021 1:15:00 PM 7.79 46.022 0.173 7.86 2.38 12.21
11/4/2021 1:30:00 PM 7.87 46.166 0.172 7.88 2.57 12.21
11/4/2021 1:45:00 PM 7.95 46.31 0.171 7.89 2.4 12.22
11/4/2021 2:00:00 PM 8.03 46.454 0.17 7.92 2.45 12.22
11/4/2021 2:15:00 PM 8.07 46.526 0.17 7.93 2.49 12.22
11/4/2021 2:30:00 PM 8.13 46.634 0.17 7.94 2.36 12.21
11/4/2021 2:45:00 PM 8.2 46.76 0.171 7.96 2.34 12.19
11/4/2021 3:00:00 PM 8.26 46.868 0.172 7.96 2.28 12.15
11/4/2021 3:15:00 PM 8.29 46.922 0.173 7.95 2.59 12.11
11/4/2021 3:30:00 PM 8.33 46.994 0.173 7.96 2.61 12.07
11/4/2021 3:45:00 PM 8.38 47.084 0.173 7.97 2.48 12.05
11/4/2021 4:00:00 PM 8.42 47.156 0.173 7.97 2.41 12.03
11/4/2021 4:15:00 PM 8.46 47.228 0.172 7.97 2.43 12
11/4/2021 4:30:00 PM 8.48 47.264 0.171 7.95 2.49 11.94
11/4/2021 4:45:00 PM 8.48 47.264 0.171 7.93 2.49 11.85
11/4/2021 5:00:00 PM 8.5 47.3 0.171 7.9 2.37 11.77
11/4/2021 5:15:00 PM 8.51 47.318 0.172 7.88 2.35 11.7
11/4/2021 5:30:00 PM 8.54 47.372 0.173 7.86 2.52 11.62
11/4/2021 5:45:00 PM 8.54 47.372 0.175 7.82 2.42 11.53
11/4/2021 6:00:00 PM 8.54 47.372 0.176 7.79 2.36 11.44
11/4/2021 6:15:00 PM 8.52 47.336 0.177 7.77 2.56 11.36
11/4/2021 6:30:00 PM 8.52 47.336 0.177 7.74 2.51 11.29
11/4/2021 6:45:00 PM 8.51 47.318 0.177 7.72 2.55 11.23
11/4/2021 7:00:00 PM 8.5 47.3 0.176 7.7 2.48 11.18
11/4/2021 7:15:00 PM 8.5 47.3 0.176 7.68 2.46 11.13
11/4/2021 7:30:00 PM 8.49 47.282 0.175 7.66 2.54 11.09
11/4/2021 7:45:00 PM 8.49 47.282 0.175 7.65 2.43 11.05
11/4/2021 8:00:00 PM 8.49 47.282 0.177 7.63 2.48 11.02
11/4/2021 8:15:00 PM 8.49 47.282 0.178 7.62 2.52 10.98
11/4/2021 8:30:00 PM 8.5 47.3 0.179 7.61 2.65 10.95
11/4/2021 8:45:00 PM 8.5 47.3 0.181 7.61 2.62 10.93
11/4/2021 9:00:00 PM 8.49 47.282 0.181 7.6 2.66 10.91
11/4/2021 9:15:00 PM 8.47 47.246 0.181 7.59 2.63 10.9
11/4/2021 9:30:00 PM 8.46 47.228 0.181 7.59 2.64 10.89
11/4/2021 9:45:00 PM 8.44 47.192 0.18 7.58 2.65 10.89
11/4/2021 10:00:00 PM 8.41 47.138 0.179 7.56 2.7 10.89
11/4/2021 10:15:00 PM 8.39 47.102 0.178 7.57 2.55 10.9
11/4/2021 10:30:00 PM 8.37 47.066 0.178 7.56 2.54 10.89
11/4/2021 10:45:00 PM 8.34 47.012 0.179 7.55 2.7 10.9
11/4/2021 11:00:00 PM 8.32 46.976 0.18 7.55 2.55 10.89
11/4/2021 11:15:00 PM 8.3 46.94 0.181 7.55 2.62 10.89
11/4/2021 11:30:00 PM 8.27 46.886 0.182 7.55 2.72 10.89
11/4/2021 11:45:00 PM 8.24 46.832 0.182 7.54 2.65 10.91
11/5/2021 12:00:00 AM 8.2 46.76 0.182 7.54 2.51 10.91
11/5/2021 12:15:00 AM 8.16 46.688 0.181 7.54 2.61 10.92
11/5/2021 12:30:00 AM 8.12 46.616 0.18 7.53 2.49 10.93
11/5/2021 12:45:00 AM 8.07 46.526 0.179 7.52 2.58 10.94
11/5/2021 1:00:00 AM 8.02 46.436 0.179 7.52 2.89 10.93
11/5/2021 1:15:00 AM 7.96 46.328 0.179 7.52 2.64 10.96
11/5/2021 1:30:00 AM 7.92 46.256 0.179 7.5 2.54 10.97
11/5/2021 1:45:00 AM 7.87 46.166 0.18 7.51 2.63 10.98
11/5/2021 2:00:00 AM 7.83 46.094 0.181 7.52 2.6 10.99
11/5/2021 2:15:00 AM 7.79 46.022 0.182 7.51 2.6 11
11/5/2021 2:30:00 AM 7.74 45.932 0.182 7.52 2.45 11.01
11/5/2021 2:45:00 AM 7.69 45.842 0.182 7.51 2.53 11.02
11/5/2021 3:00:00 AM 7.64 45.752 0.181 7.51 2.62 11.04
11/5/2021 3:15:00 AM 7.59 45.662 0.18 7.5 2.49 11.06
11/5/2021 3:30:00 AM 7.54 45.572 0.179 7.5 2.42 11.07
11/5/2021 3:45:00 AM 7.48 45.464 0.179 7.5 2.48 11.09
11/5/2021 4:00:00 AM 7.43 45.374 0.179 7.49 2.38 11.1
11/5/2021 4:15:00 AM 7.38 45.284 0.18 7.5 2.5 11.12
11/5/2021 4:30:00 AM 7.34 45.212 0.181 7.5 2.4 11.13
11/5/2021 4:45:00 AM 7.29 45.122 0.183 7.5 2.43 11.14
11/5/2021 5:00:00 AM 7.25 45.05 0.183 7.49 2.43 11.15
11/5/2021 5:15:00 AM 7.21 44.978 0.184 7.5 2.54 11.16
11/5/2021 5:30:00 AM 7.16 44.888 0.183 7.49 2.47 11.19
11/5/2021 5:45:00 AM 7.11 44.798 0.182 7.5 2.52 11.2
11/5/2021 6:00:00 AM 7.06 44.708 0.181 7.49 2.52 11.21
11/5/2021 6:15:00 AM 7.01 44.618 0.181 7.49 2.46 11.24
11/5/2021 6:30:00 AM 6.96 44.528 0.18 7.49 2.38 11.25
11/5/2021 6:45:00 AM 6.91 44.438 0.181 7.49 2.41 11.27
11/5/2021 7:00:00 AM 6.86 44.348 0.181 7.49 2.49 11.28
11/5/2021 7:15:00 AM 6.82 44.276 0.183 7.49 2.55 11.3
11/5/2021 7:30:00 AM 6.79 44.222 0.184 7.49 2.6 11.31
11/5/2021 7:45:00 AM 6.75 44.15 0.185 7.49 2.45 11.32
11/5/2021 8:00:00 AM 6.71 44.078 0.185 7.5 2.54 11.35
11/5/2021 8:15:00 AM 6.67 44.006 0.185 7.5 2.44 11.4
11/5/2021 8:30:00 AM 6.63 43.934 0.184 7.5 2.42 11.46
11/5/2021 8:45:00 AM 6.59 43.862 0.183 7.51 5.31 11.52
11/5/2021 9:00:00 AM 6.56 43.808 0.182 7.51 18.19 11.58
11/5/2021 9:15:00 AM 6.54 43.772 0.181 7.53 7.54 11.66
11/5/2021 9:30:00 AM 6.53 43.754 0.181 7.55 19.33 11.74
11/5/2021 9:45:00 AM 6.56 43.808 0.182 7.57 4.04 11.84
11/5/2021 10:00:00 AM 6.6 43.88 0.182 7.6 5.32 11.91
11/5/2021 10:15:00 AM 6.66 43.988 0.183 7.62 2.28 11.96
11/5/2021 10:30:00 AM 6.74 44.132 0.184 7.65 2.27 12.05
11/5/2021 10:45:00 AM 6.81 44.258 0.183 7.67 2.18 12.11
11/5/2021 11:00:00 AM 6.89 44.402 0.183 7.69 2.16 12.14
11/5/2021 11:15:00 AM 6.97 44.546 0.181 7.71 2.17 12.17
11/5/2021 11:30:00 AM 7.04 44.672 0.18 7.74 2.17 12.25
11/5/2021 11:45:00 AM 7.1 44.78 0.179 7.76 2.21 12.26
11/5/2021 12:00:00 PM 7.16 44.888 0.178 7.78 2.15 12.3
11/5/2021 12:15:00 PM 7.22 44.996 0.178 7.8 2.21 12.32
11/5/2021 12:30:00 PM 7.3 45.14 0.178 7.81 2.2 12.34
11/5/2021 12:45:00 PM 7.41 45.338 0.179 7.84 2.14 12.36
11/5/2021 1:00:00 PM 7.51 45.518 0.18 7.86 2.12 12.35
11/5/2021 1:15:00 PM 7.57 45.626 0.18 7.87 2.28 12.34
11/5/2021 1:30:00 PM 7.71 45.878 0.179 7.9 2.37 12.36
11/5/2021 1:45:00 PM 7.83 46.094 0.179 7.93 2.36 12.35
11/5/2021 2:00:00 PM 7.93 46.274 0.178 7.94 2.27 12.33
11/5/2021 2:15:00 PM 8.03 46.454 0.177 7.95 2.34 12.31
11/5/2021 2:30:00 PM 8.09 46.562 0.176 7.95 2.25 12.27
11/5/2021 2:45:00 PM 8.14 46.652 0.176 7.96 2.32 12.24
11/5/2021 3:00:00 PM 8.2 46.76 0.176 7.97 2.32 12.22
11/5/2021 3:15:00 PM 8.26 46.868 0.177 7.98 2.42 12.2
11/5/2021 3:30:00 PM 8.3 46.94 0.178 7.97 2.26 12.15
11/5/2021 3:45:00 PM 8.34 47.012 0.179 7.98 2.34 12.11
11/5/2021 4:00:00 PM 8.37 47.066 0.179 7.97 2.53 12.06
11/5/2021 4:15:00 PM 8.39 47.102 0.179 7.96 2.24 12.02
11/5/2021 4:30:00 PM 8.4 47.12 0.179 7.95 2.37 11.96
11/5/2021 4:45:00 PM 8.39 47.102 0.178 7.92 2.23 11.91
11/5/2021 5:00:00 PM 8.38 47.084 0.177 7.9 2.22 11.84
11/5/2021 5:15:00 PM 8.35 47.03 0.177 7.88 2.2 11.77
11/5/2021 5:30:00 PM 8.33 46.994 0.177 7.85 6.56 11.7
11/5/2021 5:45:00 PM 8.3 46.94 0.177 7.82 2.26 11.64
11/5/2021 6:00:00 PM 8.27 46.886 0.179 7.79 14.3 11.56
11/5/2021 6:15:00 PM 8.24 46.832 0.18 7.77 2.15 11.49
11/5/2021 6:30:00 PM 8.21 46.778 0.182 7.74 2.23 11.41
11/5/2021 6:45:00 PM 8.19 46.742 0.183 7.72 2.29 11.36
11/5/2021 7:00:00 PM 8.16 46.688 0.183 7.7 2.4 11.31
11/5/2021 7:15:00 PM 8.14 46.652 0.183 7.68 2.35 11.27
11/5/2021 7:30:00 PM 8.11 46.598 0.182 7.66 2.63 11.23
11/5/2021 7:45:00 PM 8.07 46.526 0.182 7.65 2.42 11.2
11/5/2021 8:00:00 PM 8.04 46.472 0.181 7.63 2.37 11.17
11/5/2021 8:15:00 PM 8.02 46.436 0.182 7.62 2.37 11.15
11/5/2021 8:30:00 PM 7.99 46.382 0.183 7.61 2.45 11.13
11/5/2021 8:45:00 PM 7.97 46.346 0.184 7.6 2.52 11.11
11/5/2021 9:00:00 PM 7.95 46.31 0.186 7.59 2.42 11.08
11/5/2021 9:15:00 PM 7.94 46.292 0.187 7.59 2.38 11.08
11/5/2021 9:30:00 PM 7.91 46.238 0.187 7.58 2.41 11.07
11/5/2021 9:45:00 PM 7.88 46.184 0.187 7.57 2.36 11.07
11/5/2021 10:00:00 PM 7.85 46.13 0.186 7.57 2.45 11.07
11/5/2021 10:15:00 PM 7.81 46.058 0.185 7.56 2.43 11.07
11/5/2021 10:30:00 PM 7.76 45.968 0.184 7.55 2.36 11.08
11/5/2021 10:45:00 PM 7.71 45.878 0.183 7.54 2.37 11.09
11/5/2021 11:00:00 PM 7.66 45.788 0.183 7.54 2.36 11.1
11/5/2021 11:15:00 PM 7.6 45.68 0.184 7.53 2.35 11.11
11/5/2021 11:30:00 PM 7.55 45.59 0.185 7.52 2.4 11.12
11/5/2021 11:45:00 PM 7.5 45.5 0.186 7.53 2.4 11.13
11/6/2021 12:00:00 AM 7.45 45.41 0.188 7.53 2.42 11.14
11/6/2021 12:15:00 AM 7.4 45.32 0.188 7.52 2.34 11.15
11/6/2021 12:30:00 AM 7.34 45.212 0.188 7.51 2.6 11.17
11/6/2021 12:45:00 AM 7.29 45.122 0.188 7.52 2.68 11.19
11/6/2021 1:00:00 AM 7.23 45.014 0.187 7.52 2.36 11.2
11/6/2021 1:15:00 AM 7.16 44.888 0.186 7.52 2.42 11.22
11/6/2021 1:30:00 AM 7.1 44.78 0.186 7.51 2.55 11.24
11/6/2021 1:45:00 AM 7.04 44.672 0.186 7.51 2.33 11.26
11/6/2021 2:00:00 AM 6.98 44.564 0.186 7.51 2.45 11.28
11/6/2021 2:15:00 AM 6.92 44.456 0.187 7.5 2.46 11.29
11/6/2021 2:30:00 AM 6.87 44.366 0.189 7.51 2.49 11.31
11/6/2021 2:45:00 AM 6.82 44.276 0.19 7.51 2.49 11.31
11/6/2021 3:00:00 AM 6.77 44.186 0.19 7.5 2.37 11.34
11/6/2021 3:15:00 AM 6.71 44.078 0.189 7.5 2.41 11.35
11/6/2021 3:30:00 AM 6.66 43.988 0.188 7.49 2.35 11.37
11/6/2021 3:45:00 AM 6.6 43.88 0.187 7.5 2.39 11.39
11/6/2021 4:00:00 AM 6.54 43.772 0.186 7.49 2.48 11.41
11/6/2021 4:15:00 AM 6.48 43.664 0.186 7.49 2.41 11.43
11/6/2021 4:30:00 AM 6.43 43.574 0.186 7.49 2.34 11.45
11/6/2021 4:45:00 AM 6.37 43.466 0.187 7.48 2.33 11.47
11/6/2021 5:00:00 AM 6.32 43.376 0.188 7.49 2.33 11.48
11/6/2021 5:15:00 AM 6.28 43.304 0.189 7.48 2.29 11.5
11/6/2021 5:30:00 AM 6.24 43.232 0.19 7.5 2.42 11.51
11/6/2021 5:45:00 AM 6.19 43.142 0.191 7.47 2.29 11.52
11/6/2021 6:00:00 AM 6.15 43.07 0.19 7.49 2.34 11.54
11/6/2021 6:15:00 AM 6.1 42.98 0.189 7.49 2.31 11.55
11/6/2021 6:30:00 AM 6.05 42.89 0.188 7.49 2.33 11.57
11/6/2021 6:45:00 AM 5.99 42.782 0.188 7.48 2.25 11.59
11/6/2021 7:00:00 AM 5.94 42.692 0.188 7.49 2.29 11.61
11/6/2021 7:15:00 AM 5.9 42.62 0.187 7.48 2.34 11.63
11/6/2021 7:30:00 AM 5.85 42.53 0.188 7.48 2.84 11.64
11/6/2021 7:45:00 AM 5.81 42.458 0.189 7.48 2.38 11.66
11/6/2021 8:00:00 AM 5.77 42.386 0.19 7.48 8.98 11.68
11/6/2021 8:15:00 AM 5.73 42.314 0.191 7.5 26.22 11.72
11/6/2021 8:30:00 AM 5.71 42.278 0.191 7.5 2.35 11.78
11/6/2021 8:45:00 AM 5.67 42.206 0.19 7.51 2.31 11.84
11/6/2021 9:00:00 AM 5.64 42.152 0.189 7.52 2.27 11.9
11/6/2021 9:15:00 AM 5.62 42.116 0.188 7.53 2.21 11.99
11/6/2021 9:30:00 AM 5.62 42.116 0.187 7.55 2.77 12.08
11/6/2021 9:45:00 AM 5.64 42.152 0.187 7.57 2.22 12.18
11/6/2021 10:00:00 AM 5.67 42.206 0.187 7.6 2.22 12.27
11/6/2021 10:15:00 AM 5.72 42.296 0.187 7.62 2.22 12.36
11/6/2021 10:30:00 AM 5.79 42.422 0.188 7.65 2.25 12.42
11/6/2021 10:45:00 AM 5.87 42.566 0.188 7.68 2.12 12.48
11/6/2021 11:00:00 AM 5.95 42.71 0.189 7.7 2.11 12.53
11/6/2021 11:15:00 AM 6.04 42.872 0.189 7.73 2.22 12.58
11/6/2021 11:30:00 AM 6.12 43.016 0.188 7.75 2.06 12.61
11/6/2021 11:45:00 AM 6.19 43.142 0.187 7.78 2.09 12.65
11/6/2021 12:00:00 PM 6.26 43.268 0.186 7.79 2.07 12.67
11/6/2021 12:15:00 PM 6.34 43.412 0.185 7.81 2.08 12.68
11/6/2021 12:30:00 PM 6.41 43.538 0.184 7.83 2.05 12.7
11/6/2021 12:45:00 PM 6.5 43.7 0.184 7.86 2.07 12.71
11/6/2021 1:00:00 PM 6.6 43.88 0.184 7.88 2.03 12.71
11/6/2021 1:15:00 PM 6.71 44.078 0.185 7.91 2.05 12.71
11/6/2021 1:30:00 PM 6.82 44.276 0.186 7.93 2.02 12.71
11/6/2021 1:45:00 PM 6.94 44.492 0.187 7.95 2.19 12.69
11/6/2021 2:00:00 PM 7.06 44.708 0.186 7.96 2.09 12.67
11/6/2021 2:15:00 PM 7.17 44.906 0.186 7.98 2.04 12.65
11/6/2021 2:30:00 PM 7.26 45.068 0.185 7.99 2.15 12.62
11/6/2021 2:45:00 PM 7.35 45.23 0.184 8 2.07 12.59
11/6/2021 3:00:00 PM 7.42 45.356 0.183 8.02 2.09 12.57
11/6/2021 3:15:00 PM 7.49 45.482 0.183 8.02 2.16 12.53
11/6/2021 3:30:00 PM 7.54 45.572 0.183 8.03 4.99 12.49
11/6/2021 3:45:00 PM 7.59 45.662 0.183 8.02 2.16 12.44
11/6/2021 4:00:00 PM 7.63 45.734 0.184 8.03 8.85 12.39
11/6/2021 4:15:00 PM 7.66 45.788 0.185 8.01 2.35 12.33
11/6/2021 4:30:00 PM 7.68 45.824 0.186 8 8.18 12.28
11/6/2021 4:45:00 PM 7.68 45.824 0.186 7.98 10.44 12.21
11/6/2021 5:00:00 PM 7.69 45.842 0.185 7.96 11.61 12.14
11/6/2021 5:15:00 PM 7.68 45.824 0.185 7.93 9.17 12.06
11/6/2021 5:30:00 PM 7.67 45.806 0.185 7.91 2.27 11.98
11/6/2021 5:45:00 PM 7.65 45.77 0.185 7.87 2.3 11.9
11/6/2021 6:00:00 PM 7.63 45.734 0.185 7.83 11.63 11.82
11/6/2021 6:15:00 PM 7.6 45.68 0.186 7.81 2.25 11.73
11/6/2021 6:30:00 PM 7.57 45.626 0.187 7.77 2.11 11.65
11/6/2021 6:45:00 PM 7.55 45.59 0.189 7.75 2.17 11.59
11/6/2021 7:00:00 PM 7.53 45.554 0.19 7.73 2.15 11.53
11/6/2021 7:15:00 PM 7.51 45.518 0.191 7.71 2.21 11.48
11/6/2021 7:30:00 PM 7.49 45.482 0.19 7.69 2.35 11.44
11/6/2021 7:45:00 PM 7.47 45.446 0.189 7.68 2.5 11.4
11/6/2021 8:00:00 PM 7.44 45.392 0.189 7.66 2.39 11.36
11/6/2021 8:15:00 PM 7.42 45.356 0.188 7.65 2.32 11.33
11/6/2021 8:30:00 PM 7.4 45.32 0.188 7.63 2.65 11.31
11/6/2021 8:45:00 PM 7.38 45.284 0.188 7.62 2.53 11.28
11/6/2021 9:00:00 PM 7.37 45.266 0.189 7.61 2.39 11.26
11/6/2021 9:15:00 PM 7.36 45.248 0.191 7.6 2.67 11.24
11/6/2021 9:30:00 PM 7.35 45.23 0.192 7.6 2.45 11.22
11/6/2021 9:45:00 PM 7.34 45.212 0.194 7.59 2.51 11.21
11/6/2021 10:00:00 PM 7.33 45.194 0.194 7.58 2.41 11.19
11/6/2021 10:15:00 PM 7.31 45.158 0.194 7.58 2.32 11.19
11/6/2021 10:30:00 PM 7.28 45.104 0.193 7.57 2.54 11.18
11/6/2021 10:45:00 PM 7.24 45.032 0.193 7.57 2.39 11.19
11/6/2021 11:00:00 PM 7.21 44.978 0.192 7.56 2.35 11.2
11/6/2021 11:15:00 PM 7.16 44.888 0.192 7.56 2.37 11.21
11/6/2021 11:30:00 PM 7.11 44.798 0.192 7.54 2.33 11.2
11/6/2021 11:45:00 PM 7.06 44.708 0.193 7.55 3.18 11.22
11/7/2021 12:00:00 AM 7.02 44.636 0.195 7.55 2.48 11.23
11/7/2021 12:15:00 AM 6.97 44.546 0.197 7.54 2.43 11.25
11/7/2021 12:30:00 AM 6.92 44.456 0.198 7.54 2.28 11.24
11/7/2021 12:45:00 AM 6.87 44.366 0.198 7.54 2.32 11.26
11/7/2021 1:00:00 AM 6.82 44.276 0.197 7.54 2.45 11.28
11/7/2021 1:15:00 AM 6.76 44.168 0.196 7.53 2.37 11.29
11/7/2021 1:30:00 AM 6.7 44.06 0.195 7.53 2.42 11.31
11/7/2021 1:45:00 AM 6.64 43.952 0.194 7.52 2.44 11.32
11/7/2021 2:00:00 AM 6.59 43.862 0.194 7.51 2.44 11.34
11/7/2021 2:15:00 AM 6.53 43.754 0.194 7.51 2.41 11.36
11/7/2021 2:30:00 AM 6.48 43.664 0.195 7.51 2.38 11.38
11/7/2021 2:45:00 AM 6.42 43.556 0.196 7.51 2.58 11.39
11/7/2021 3:00:00 AM 6.37 43.466 0.197 7.51 2.31 11.4
11/7/2021 3:15:00 AM 6.33 43.394 0.198 7.51 2.4 11.41
11/7/2021 3:30:00 AM 6.28 43.304 0.198 7.51 2.36 11.43
11/7/2021 3:45:00 AM 6.23 43.214 0.198 7.49 2.38 11.45
11/7/2021 4:00:00 AM 6.17 43.106 0.197 7.5 2.43 11.47
11/7/2021 4:15:00 AM 6.11 42.998 0.196 7.5 2.38 11.48
11/7/2021 4:30:00 AM 6.06 42.908 0.195 7.5 2.55 11.5
11/7/2021 4:45:00 AM 6 42.8 0.194 7.49 2.35 11.53
11/7/2021 5:00:00 AM 5.95 42.71 0.194 7.49 2.37 11.54
11/7/2021 5:15:00 AM 5.89 42.602 0.195 7.49 2.46 11.56
11/7/2021 5:30:00 AM 5.85 42.53 0.197 7.49 2.35 11.57
11/7/2021 5:45:00 AM 5.81 42.458 0.198 7.49 2.31 11.58
11/7/2021 6:00:00 AM 5.77 42.386 0.198 7.49 2.39 11.59
11/7/2021 6:15:00 AM 5.73 42.314 0.198 7.5 2.31 11.61
11/7/2021 6:30:00 AM 5.68 42.224 0.198 7.49 2.41 11.63
11/7/2021 6:45:00 AM 5.63 42.134 0.197 7.49 2.44 11.65
11/7/2021 7:00:00 AM 5.58 42.044 0.196 7.48 2.38 11.66
11/7/2021 7:15:00 AM 5.53 41.954 0.195 7.48 2.97 11.68
11/7/2021 7:30:00 AM 5.48 41.864 0.195 7.48 2.37 11.7
11/7/2021 7:45:00 AM 5.44 41.792 0.195 7.49 2.41 11.71
11/7/2021 8:00:00 AM 5.4 41.72 0.196 7.47 3.44 11.74
11/7/2021 8:15:00 AM 5.37 41.666 0.197 7.49 4.8 11.78
11/7/2021 8:30:00 AM 5.34 41.612 0.198 7.49 8.46 11.83
11/7/2021 8:45:00 AM 5.32 41.576 0.198 7.51 2.66 11.9
11/7/2021 9:00:00 AM 5.3 41.54 0.197 7.52 2.23 11.97
11/7/2021 9:15:00 AM 5.28 41.504 0.197 7.54 2.66 12.05
11/7/2021 9:30:00 AM 5.28 41.504 0.195 7.56 2.47 12.15
11/7/2021 9:45:00 AM 5.3 41.54 0.194 7.58 2.3 12.25
11/7/2021 10:00:00 AM 5.34 41.612 0.193 7.61 2.26 12.35
11/7/2021 10:15:00 AM 5.4 41.72 0.192 7.61 2.1 12.45
11/7/2021 10:30:00 AM 5.47 41.846 0.192 7.66 1.98 12.53
11/7/2021 10:45:00 AM 5.56 42.008 0.193 7.68 2.04 12.59
11/7/2021 11:00:00 AM 5.65 42.17 0.194 7.72 1.97 12.65
11/7/2021 11:15:00 AM 5.74 42.332 0.195 7.75 2.01 12.69
11/7/2021 11:30:00 AM 5.84 42.512 0.196 7.78 1.97 12.74
11/7/2021 11:45:00 AM 5.93 42.674 0.195 7.81 2.1 12.77
11/7/2021 12:00:00 PM 6.02 42.836 0.194 7.83 2.06 12.79
11/7/2021 12:15:00 PM 6.1 42.98 0.194 7.86 1.92 12.81
11/7/2021 12:30:00 PM 6.19 43.142 0.193 7.87 1.97 12.82
11/7/2021 12:45:00 PM 6.29 43.322 0.192 7.89 2.28 12.83
11/7/2021 1:00:00 PM 6.4 43.52 0.191 7.92 2.07 12.84
11/7/2021 1:15:00 PM 6.52 43.736 0.191 7.95 2.88 12.83
11/7/2021 1:30:00 PM 6.65 43.97 0.191 7.97 3.04 12.82
11/7/2021 1:45:00 PM 6.78 44.204 0.192 8 2.06 12.82
11/7/2021 2:00:00 PM 6.91 44.438 0.192 8.01 2.08 12.79
11/7/2021 2:15:00 PM 7.05 44.69 0.192 8.04 2.01 12.76
11/7/2021 2:30:00 PM 7.17 44.906 0.191 8.06 2.02 12.74
11/7/2021 2:45:00 PM 7.27 45.086 0.191 8.07 2.19 12.7
11/7/2021 3:00:00 PM 7.36 45.248 0.19 8.07 1.98 12.66
11/7/2021 3:15:00 PM 7.45 45.41 0.189 8.08 2.16 12.62
11/7/2021 3:30:00 PM 7.52 45.536 0.189 8.07 2.53 12.57
11/7/2021 3:45:00 PM 7.59 45.662 0.188 8.08 2.62 12.52
11/7/2021 4:00:00 PM 7.64 45.752 0.189 8.08 2.82 12.46
11/7/2021 4:15:00 PM 7.68 45.824 0.189 8.07 2.34 12.39
11/7/2021 4:30:00 PM 7.71 45.878 0.19 8.05 2.28 12.33
11/7/2021 4:45:00 PM 7.73 45.914 0.191 8.03 2.27 12.25
11/7/2021 5:00:00 PM 7.75 45.95 0.191 8.01 2.04 12.17
11/7/2021 5:15:00 PM 7.76 45.968 0.19 7.98 2.75 12.09
11/7/2021 5:30:00 PM 7.75 45.95 0.19 7.95 2.72 11.99
11/7/2021 5:45:00 PM 7.74 45.932 0.189 7.9 2.84 11.89
11/7/2021 6:00:00 PM 7.72 45.896 0.189 7.86 1.98 11.8
11/7/2021 6:15:00 PM 7.7 45.86 0.189 7.83 2.39 11.7
11/7/2021 6:30:00 PM 7.69 45.842 0.19 7.78 2.05 11.62
11/7/2021 6:45:00 PM 7.67 45.806 0.19 7.78 2.47 11.55
11/7/2021 7:00:00 PM 7.65 45.77 0.192 7.76 2.15 11.49
11/7/2021 7:15:00 PM 7.63 45.734 0.193 7.74 2.21 11.44
11/7/2021 7:30:00 PM 7.61 45.698 0.193 7.72 2.26 11.39
11/7/2021 7:45:00 PM 7.6 45.68 0.192 7.7 2.15 11.35
11/7/2021 8:00:00 PM 7.58 45.644 0.192 7.68 2.15 11.3
11/7/2021 8:15:00 PM 7.57 45.626 0.191 7.67 2.26 11.27
11/7/2021 8:30:00 PM 7.57 45.626 0.191 7.65 2.2 11.24
11/7/2021 8:45:00 PM 7.57 45.626 0.191 7.64 2.17 11.2
11/7/2021 9:00:00 PM 7.56 45.608 0.191 7.63 2.28 11.18
11/7/2021 9:15:00 PM 7.57 45.626 0.192 7.62 2.39 11.16
11/7/2021 9:30:00 PM 7.57 45.626 0.193 7.61 2.36 11.13
11/7/2021 9:45:00 PM 7.59 45.662 0.195 7.61 2.3 11.11
11/7/2021 10:00:00 PM 7.6 45.68 0.197 7.6 2.37 11.09
11/7/2021 10:15:00 PM 7.61 45.698 0.198 7.6 2.2 11.08
11/7/2021 10:30:00 PM 7.6 45.68 0.198 7.6 2.24 11.06
11/7/2021 10:45:00 PM 7.59 45.662 0.198 7.59 2.24 11.06
11/7/2021 11:00:00 PM 7.57 45.626 0.197 7.58 2.23 11.06
11/7/2021 11:15:00 PM 7.55 45.59 0.197 7.58 2.13 11.06
11/7/2021 11:30:00 PM 7.53 45.554 0.197 7.57 2.25 11.06
11/7/2021 11:45:00 PM 7.5 45.5 0.197 7.57 2.12 11.06
11/8/2021 12:00:00 AM 7.48 45.464 0.198 7.56 2.21 11.06
11/8/2021 12:15:00 AM 7.45 45.41 0.2 7.56 2.22 11.06
11/8/2021 12:30:00 AM 7.43 45.374 0.202 7.57 2.35 11.06
11/8/2021 12:45:00 AM 7.41 45.338 0.203 7.56 2.35 11.06
11/8/2021 1:00:00 AM 7.38 45.284 0.204 7.56 2.17 11.07
11/8/2021 1:15:00 AM 7.35 45.23 0.203 7.55 2.16 11.08
11/8/2021 1:30:00 AM 7.32 45.176 0.202 7.55 2.33 11.09
11/8/2021 1:45:00 AM 7.28 45.104 0.201 7.55 2.1 11.1
11/8/2021 2:00:00 AM 7.24 45.032 0.2 7.53 2.25 11.11
11/8/2021 2:15:00 AM 7.2 44.96 0.2 7.54 2.45 11.12
11/8/2021 2:30:00 AM 7.17 44.906 0.2 7.54 2.23 11.12
11/8/2021 2:45:00 AM 7.13 44.834 0.2 7.53 2.37 11.15
11/8/2021 3:00:00 AM 7.1 44.78 0.201 7.55 2.19 11.15
11/8/2021 3:15:00 AM 7.07 44.726 0.203 7.54 2.24 11.16
11/8/2021 3:30:00 AM 7.04 44.672 0.204 7.54 2.27 11.17
11/8/2021 3:45:00 AM 7.01 44.618 0.204 7.53 2.19 11.17
11/8/2021 4:00:00 AM 6.97 44.546 0.204 7.53 2.21 11.19
11/8/2021 4:15:00 AM 6.93 44.474 0.203 7.52 2.11 11.2
11/8/2021 4:30:00 AM 6.89 44.402 0.202 7.53 2.29 11.21
11/8/2021 4:45:00 AM 6.86 44.348 0.201 7.53 2.21 11.23
11/8/2021 5:00:00 AM 6.82 44.276 0.201 7.52 2.32 11.24
11/8/2021 5:15:00 AM 6.78 44.204 0.201 7.52 2.34 11.25
11/8/2021 5:30:00 AM 6.74 44.132 0.201 7.52 2.39 11.27
11/8/2021 5:45:00 AM 6.71 44.078 0.202 7.53 2.24 11.27
11/8/2021 6:00:00 AM 6.68 44.024 0.204 7.53 2.28 11.28
11/8/2021 6:15:00 AM 6.65 43.97 0.204 7.52 2.35 11.29
11/8/2021 6:30:00 AM 6.62 43.916 0.205 7.52 2.48 11.29
11/8/2021 6:45:00 AM 6.59 43.862 0.204 7.52 2.38 11.31
11/8/2021 7:00:00 AM 6.56 43.808 0.203 7.51 2.3 11.32
11/8/2021 7:15:00 AM 6.53 43.754 0.202 7.52 2.29 11.33
11/8/2021 7:30:00 AM 6.5 43.7 0.201 7.51 2.57 11.34
11/8/2021 7:45:00 AM 6.47 43.646 0.201 7.51 10.19 11.36
11/8/2021 8:00:00 AM 6.44 43.592 0.201 7.51 2.33 11.38
11/8/2021 8:15:00 AM 6.42 43.556 0.202 7.52 2.45 11.43
11/8/2021 8:30:00 AM 6.4 43.52 0.203 7.53 2.31 11.48
11/8/2021 8:45:00 AM 6.4 43.52 0.204 7.55 2.36 11.54
11/8/2021 9:00:00 AM 6.4 43.52 0.205 7.56 3.18 11.62
11/8/2021 9:15:00 AM 6.4 43.52 0.205 7.57 2.88 11.7
11/8/2021 9:30:00 AM 6.43 43.574 0.204 7.6 2.33 11.81
11/8/2021 9:45:00 AM 6.47 43.646 0.203 7.63 2.05 11.93
11/8/2021 10:00:00 AM 6.53 43.754 0.203 7.65 2.37 12.04
11/8/2021 10:15:00 AM 6.62 43.916 0.202 7.69 2.07 12.16
11/8/2021 10:30:00 AM 6.73 44.114 0.201 7.73 2.05 12.25
11/8/2021 10:45:00 AM 6.86 44.348 0.201 7.78 2.36 12.32
11/8/2021 11:00:00 AM 6.99 44.582 0.201 7.82 13.98 12.4
11/8/2021 11:15:00 AM 7.12 44.816 0.202 7.86 2.31 12.46
11/8/2021 11:30:00 AM 7.25 45.05 0.203 7.89 2.52 12.5
11/8/2021 11:45:00 AM 7.37 45.266 0.203 7.93 2.46 12.54
11/8/2021 12:00:00 PM 7.48 45.464 0.203 7.97 2.36 12.57
11/8/2021 12:15:00 PM 7.58 45.644 0.203 8 2.41 12.59
11/8/2021 12:30:00 PM 7.69 45.842 0.202 8.02 4.9 12.61
11/8/2021 12:45:00 PM 7.81 46.058 0.201 8.06 2.13 12.62
11/8/2021 1:00:00 PM 7.93 46.274 0.2 8.08 2.59 12.63
11/8/2021 1:15:00 PM 8.05 46.49 0.199 8.12 2 12.63
11/8/2021 1:30:00 PM 8.17 46.706 0.198 8.15 1.95 12.62
11/8/2021 1:45:00 PM 8.3 46.94 0.198 8.17 1.95 12.62
11/8/2021 2:00:00 PM 8.44 47.192 0.199 8.21 2 12.59
11/8/2021 2:15:00 PM 8.57 47.426 0.199 8.23 1.99 12.58
11/8/2021 2:30:00 PM 8.7 47.66 0.199 8.26 2.03 12.55
11/8/2021 2:45:00 PM 8.81 47.858 0.198 8.28 1.96 12.51
11/8/2021 3:00:00 PM 8.9 48.02 0.197 8.28 1.92 12.47
11/8/2021 3:15:00 PM 8.98 48.164 0.196 8.3 2.02 12.42
11/8/2021 3:30:00 PM 9.05 48.29 0.195 8.3 2.03 12.37
11/8/2021 3:45:00 PM 9.11 48.398 0.194 8.3 2.12 12.3
11/8/2021 4:00:00 PM 9.15 48.47 0.193 8.28 2.07 12.23
11/8/2021 4:15:00 PM 9.19 48.542 0.193 8.27 2.04 12.15
11/8/2021 4:30:00 PM 9.22 48.596 0.194 8.25 2.1 12.07
11/8/2021 4:45:00 PM 9.24 48.632 0.194 8.22 2 11.98
11/8/2021 5:00:00 PM 9.25 48.65 0.195 8.19 2.03 11.89
11/8/2021 5:15:00 PM 9.25 48.65 0.195 8.15 2.11 11.79
11/8/2021 5:30:00 PM 9.25 48.65 0.194 8.1 1.97 11.68
11/8/2021 5:45:00 PM 9.24 48.632 0.194 8.04 2 11.55
11/8/2021 6:00:00 PM 9.22 48.596 0.194 7.98 2.06 11.44
11/8/2021 6:15:00 PM 9.2 48.56 0.194 7.94 2.04 11.33
11/8/2021 6:30:00 PM 9.17 48.506 0.194 7.89 2.3 11.24
11/8/2021 6:45:00 PM 9.14 48.452 0.194 7.85 2.19 11.16
11/8/2021 7:00:00 PM 9.11 48.398 0.194 7.82 2.15 11.1
11/8/2021 7:15:00 PM 9.08 48.344 0.196 7.8 2.18 11.04
11/8/2021 7:30:00 PM 9.05 48.29 0.197 7.77 2.1 10.99
11/8/2021 7:45:00 PM 9.02 48.236 0.197 7.75 2.29 10.95
11/8/2021 8:00:00 PM 8.99 48.182 0.198 7.73 2.16 10.91
11/8/2021 8:15:00 PM 8.97 48.146 0.198 7.72 2.22 10.87
11/8/2021 8:30:00 PM 8.94 48.092 0.198 7.7 2.22 10.83
11/8/2021 8:45:00 PM 8.92 48.056 0.198 7.68 2.23 10.8
11/8/2021 9:00:00 PM 8.9 48.02 0.198 7.67 2.24 10.78
11/8/2021 9:15:00 PM 8.89 48.002 0.198 7.66 2.26 10.76
11/8/2021 9:30:00 PM 8.88 47.984 0.199 7.65 2.19 10.74
11/8/2021 9:45:00 PM 8.86 47.948 0.2 7.64 2.48 10.72
11/8/2021 10:00:00 PM 8.85 47.93 0.202 7.63 2.17 10.7
11/8/2021 10:15:00 PM 8.84 47.912 0.203 7.63 2.13 10.68
11/8/2021 10:30:00 PM 8.84 47.912 0.205 7.63 2.18 10.67
11/8/2021 10:45:00 PM 8.83 47.894 0.206 7.62 2.14 10.66
11/8/2021 11:00:00 PM 8.81 47.858 0.206 7.61 2.2 10.65
11/8/2021 11:15:00 PM 8.79 47.822 0.206 7.6 2.28 10.65
11/8/2021 11:30:00 PM 8.77 47.786 0.205 7.6 2.22 10.65
11/8/2021 11:45:00 PM 8.75 47.75 0.205 7.6 2.21 10.65
11/9/2021 12:00:00 AM 8.71 47.678 0.205 7.57 2.16 10.65
11/9/2021 12:15:00 AM 8.68 47.624 0.205 7.59 2.12 10.66
11/9/2021 12:30:00 AM 8.64 47.552 0.206 7.58 2.33 10.67
11/9/2021 12:45:00 AM 8.6 47.48 0.207 7.58 2.14 10.67
11/9/2021 1:00:00 AM 8.56 47.408 0.208 7.57 2.2 10.68
11/9/2021 1:15:00 AM 8.52 47.336 0.209 7.57 2.24 10.69
11/9/2021 1:30:00 AM 8.48 47.264 0.209 7.57 2.18 10.7
11/9/2021 1:45:00 AM 8.44 47.192 0.209 7.56 2.2 10.71
11/9/2021 2:00:00 AM 8.39 47.102 0.208 7.56 2.14 10.71
11/9/2021 2:15:00 AM 8.34 47.012 0.208 7.55 2.23 10.73
11/9/2021 2:30:00 AM 8.29 46.922 0.207 7.55 2.16 10.74
11/9/2021 2:45:00 AM 8.24 46.832 0.207 7.54 2.2 10.75
11/9/2021 3:00:00 AM 8.2 46.76 0.206 7.55 2.25 10.77
11/9/2021 3:15:00 AM 8.15 46.67 0.207 7.54 2.21 10.78
11/9/2021 3:30:00 AM 8.1 46.58 0.208 7.54 2.17 10.79
11/9/2021 3:45:00 AM 8.06 46.508 0.209 7.54 2.13 10.81
11/9/2021 4:00:00 AM 8.02 46.436 0.209 7.54 2.22 10.81
11/9/2021 4:15:00 AM 7.98 46.364 0.209 7.54 2.23 10.83
11/9/2021 4:30:00 AM 7.93 46.274 0.209 7.54 2.25 10.85
11/9/2021 4:45:00 AM 7.89 46.202 0.208 7.54 2.37 10.86
11/9/2021 5:00:00 AM 7.85 46.13 0.208 7.54 2.15 10.88
11/9/2021 5:15:00 AM 7.82 46.076 0.207 7.54 2.44 10.89
11/9/2021 5:30:00 AM 7.78 46.004 0.207 7.54 2.36 10.9
11/9/2021 5:45:00 AM 7.75 45.95 0.207 7.54 2.3 10.91
11/9/2021 6:00:00 AM 7.73 45.914 0.207 7.53 2.34 10.92
11/9/2021 6:15:00 AM 7.7 45.86 0.208 7.54 2.21 10.93
11/9/2021 6:30:00 AM 7.68 45.824 0.209 7.54 2.25 10.94
11/9/2021 6:45:00 AM 7.65 45.77 0.209 7.54 2.31 10.95
11/9/2021 7:00:00 AM 7.62 45.716 0.209 7.54 2.25 10.96
11/9/2021 7:15:00 AM 7.59 45.662 0.209 7.54 2.27 10.98
11/9/2021 7:30:00 AM 7.56 45.608 0.208 7.54 2.43 10.98
11/9/2021 7:45:00 AM 7.54 45.572 0.207 7.54 2.34 11
11/9/2021 8:00:00 AM 7.51 45.518 0.206 7.54 2.48 11.02
11/9/2021 8:15:00 AM 7.5 45.5 0.206 7.55 2.7 11.04
11/9/2021 8:30:00 AM 7.49 45.482 0.206 7.56 2.37 11.12
11/9/2021 8:45:00 AM 7.48 45.464 0.207 7.58 2.09 11.18
11/9/2021 9:00:00 AM 7.49 45.482 0.208 7.58 22.43 11.25
11/9/2021 9:15:00 AM 7.51 45.518 0.209 7.61 32.33 11.34
11/9/2021 9:30:00 AM 7.54 45.572 0.209 7.63 2.23 11.46
11/9/2021 9:45:00 AM 7.59 45.662 0.209 7.67 23.67 11.6
11/9/2021 10:00:00 AM 7.67 45.806 0.208 7.71 5.69 11.73
11/9/2021 10:15:00 AM 7.78 46.004 0.208 7.75 2.25 11.85
11/9/2021 10:30:00 AM 7.9 46.22 0.207 7.8 46.1 11.97
11/9/2021 10:45:00 AM 7.96 46.328 0.207 7.83 266.34 12.03
11/9/2021 11:00:00 AM 8.03 46.454 0.206 7.88 1.89 12.09
11/9/2021 11:15:00 AM 8.18 46.724 0.206 7.92 1.89 12.18
11/9/2021 11:30:00 AM 8.31 46.958 0.207 7.97 2.45 12.26
11/9/2021 11:45:00 AM 8.43 47.174 0.208 8.02 768.78 12.32
11/9/2021 12:00:00 PM 8.55 47.39 0.208 8.07 1.94 12.38
11/9/2021 12:15:00 PM 8.65 47.57 0.209 8.1 1.85 12.41
11/9/2021 12:30:00 PM 8.75 47.75 0.208 8.14 1.82 12.44
11/9/2021 12:45:00 PM 8.86 47.948 0.208 8.18 1.88 12.48
11/9/2021 1:00:00 PM 8.96 48.128 0.207 8.22 1.77 12.49
11/9/2021 1:15:00 PM 9.07 48.326 0.207 8.26 1.94 12.51
11/9/2021 1:30:00 PM 9.18 48.524 0.206 8.29 1.88 12.5
11/9/2021 1:45:00 PM 9.3 48.74 0.205 8.33 1.78 12.5
11/9/2021 2:00:00 PM 9.43 48.974 0.205 8.36 1.79 12.49
11/9/2021 2:15:00 PM 9.55 49.19 0.205 8.4 2.03 12.48
11/9/2021 2:30:00 PM 9.65 49.37 0.206 8.42 1.86 12.46
11/9/2021 2:45:00 PM 9.75 49.55 0.205 8.44 1.9 12.42
11/9/2021 3:00:00 PM 9.84 49.712 0.205 8.46 2.1 12.39
11/9/2021 3:15:00 PM 9.91 49.838 0.205 8.48 1.97 12.35
11/9/2021 3:30:00 PM 9.98 49.964 0.204 8.49 1.86 12.31
11/9/2021 3:45:00 PM 10.03 50.054 0.203 8.49 2.18 12.26
11/9/2021 4:00:00 PM 10.06 50.108 0.202 8.5 2.11 12.22
11/9/2021 4:15:00 PM 10.08 50.144 0.202 8.5 1.95 12.18
11/9/2021 4:30:00 PM 10.12 50.216 0.201 8.5 1.97 12.14
11/9/2021 4:45:00 PM 10.14 50.252 0.202 8.48 1.96 12.03
11/9/2021 5:00:00 PM 10.14 50.252 0.202 8.45 1.83 11.93
11/9/2021 5:15:00 PM 10.15 50.27 0.203 8.4 1.87 11.79
11/9/2021 5:30:00 PM 10.15 50.27 0.203 8.34 2.09 11.6
11/9/2021 5:45:00 PM 10.14 50.252 0.203 8.26 1.98 11.43
11/9/2021 6:00:00 PM 10.12 50.216 0.203 8.18 1.96 11.27
11/9/2021 6:15:00 PM 10.1 50.18 0.202 8.11 1.9 11.11
11/9/2021 6:30:00 PM 10.09 50.162 0.202 8.03 2.11 11.03
11/9/2021 6:45:00 PM 10.07 50.126 0.201 8 2.12 10.94
11/9/2021 7:00:00 PM 10.05 50.09 0.201 7.94 2.15 10.85
11/9/2021 7:15:00 PM 10.03 50.054 0.202 7.91 2.23 10.8
11/9/2021 7:30:00 PM 10.02 50.036 0.204 7.88 2.12 10.74
11/9/2021 7:45:00 PM 10.01 50.018 0.206 7.84 2.12 10.67
11/9/2021 8:00:00 PM 10 50 0.208 7.82 2.55 10.59
11/9/2021 8:15:00 PM 10.01 50.018 0.209 7.79 2.21 10.57
11/9/2021 8:30:00 PM 10.01 50.018 0.209 7.78 2.29 10.53
11/9/2021 8:45:00 PM 10.01 50.018 0.208 7.75 2.18 10.48
11/9/2021 9:00:00 PM 10.02 50.036 0.208 7.73 2.4 10.44
11/9/2021 9:15:00 PM 10.02 50.036 0.207 7.72 2.23 10.41
11/9/2021 9:30:00 PM 10.02 50.036 0.206 7.7 2.4 10.36
11/9/2021 9:45:00 PM 10.03 50.054 0.206 7.69 2.37 10.35
11/9/2021 10:00:00 PM 10.04 50.072 0.207 7.68 2.19 10.32
11/9/2021 10:15:00 PM 10.04 50.072 0.208 7.67 2.14 10.3
11/9/2021 10:30:00 PM 10.05 50.09 0.21 7.66 2.54 10.28
11/9/2021 10:45:00 PM 10.05 50.09 0.212 7.65 3.71 10.26
11/9/2021 11:00:00 PM 10.05 50.09 0.214 7.65 3.52 10.25
11/9/2021 11:15:00 PM 10.04 50.072 0.215 7.64 4.1 10.23
11/9/2021 11:30:00 PM 10.05 50.09 0.215 7.64 4.03 10.23
11/9/2021 11:45:00 PM 10.05 50.09 0.214 7.64 3.92 10.2
11/10/2021 12:00:00 AM 10.03 50.054 0.214 7.63 3.24 10.19
11/10/2021 12:15:00 AM 10.02 50.036 0.212 7.62 3.51 10.2
11/10/2021 12:30:00 AM 10.02 50.036 0.213 7.62 3.25 10.21
11/10/2021 12:45:00 AM 10 50 0.213 7.63 3.31 10.21
11/10/2021 1:00:00 AM 9.98 49.964 0.214 7.62 3.28 10.21
11/10/2021 1:15:00 AM 9.96 49.928 0.215 7.62 3.22 10.22
11/10/2021 1:30:00 AM 9.94 49.892 0.216 7.62 3.46 10.21
11/10/2021 1:45:00 AM 9.92 49.856 0.216 7.62 3.24 10.23
11/10/2021 2:00:00 AM 9.9 49.82 0.216 7.61 8.74 10.2
11/10/2021 2:15:00 AM 9.9 49.82 0.215 7.62 3.54 10.17
11/10/2021 2:30:00 AM 9.89 49.802 0.215 7.61 3.36 10.22
11/10/2021 2:45:00 AM 9.88 49.784 0.214 7.61 3.31 10.24
11/10/2021 3:00:00 AM 9.86 49.748 0.214 7.61 3.2 10.25
11/10/2021 3:15:00 AM 9.85 49.73 0.213 7.61 3.2 10.25
11/10/2021 3:30:00 AM 9.83 49.694 0.214 7.61 3.05 10.24
11/10/2021 3:45:00 AM 9.83 49.694 0.214 7.61 3.14 10.25
11/10/2021 4:00:00 AM 9.81 49.658 0.215 7.61 3.18 10.25
11/10/2021 4:15:00 AM 9.78 49.604 0.215 7.6 3.11 10.26
11/10/2021 4:30:00 AM 9.75 49.55 0.215 7.61 3.1 10.26
11/10/2021 4:45:00 AM 9.73 49.514 0.215 7.6 3.3 10.28
11/10/2021 5:00:00 AM 9.69 49.442 0.214 7.61 3.21 10.29
11/10/2021 5:15:00 AM 9.67 49.406 0.214 7.61 2.89 10.29
11/10/2021 5:30:00 AM 9.64 49.352 0.213 7.61 2.87 10.31
11/10/2021 5:45:00 AM 9.61 49.298 0.212 7.6 3.01 10.31
11/10/2021 6:00:00 AM 9.6 49.28 0.212 7.61 3.16 10.33
11/10/2021 6:15:00 AM 9.59 49.262 0.213 7.61 2.9 10.33
11/10/2021 6:30:00 AM 9.59 49.262 0.213 7.61 3.03 10.33
11/10/2021 6:45:00 AM 9.58 49.244 0.214 7.62 2.92 10.34
11/10/2021 7:00:00 AM 9.58 49.244 0.214 7.61 3 10.34
11/10/2021 7:15:00 AM 9.58 49.244 0.214 7.62 3.11 10.35
11/10/2021 7:30:00 AM 9.59 49.262 0.214 7.62 3.38 10.35
11/10/2021 7:45:00 AM 9.58 49.244 0.213 7.62 3.28 10.36
11/10/2021 8:00:00 AM 9.55 49.19 0.213 7.62 3.5 10.37
11/10/2021 8:15:00 AM 9.54 49.172 0.212 7.63 3.21 10.41
11/10/2021 8:30:00 AM 9.55 49.19 0.212 7.64 3.21 10.49
11/10/2021 8:45:00 AM 9.53 49.154 0.212 7.65 3.25 10.57
11/10/2021 9:00:00 AM 9.52 49.136 0.212 7.67 3.27 10.67
11/10/2021 9:15:00 AM 9.53 49.154 0.213 7.69 4.23 10.79
11/10/2021 9:30:00 AM 9.53 49.154 0.214 7.74 3.05 10.95
11/10/2021 9:45:00 AM 9.55 49.19 0.214 7.78 3.14 11.11
11/10/2021 10:00:00 AM 9.6 49.28 0.215 7.84 2.97 11.31
11/10/2021 10:15:00 AM 9.64 49.352 0.214 7.89 3.18 11.45
11/10/2021 10:30:00 AM 9.7 49.46 0.214 7.95 3.04 11.6
11/10/2021 10:45:00 AM 9.77 49.586 0.213 8 3.02 11.71
11/10/2021 11:00:00 AM 9.84 49.712 0.213 8.05 2.98 11.8
11/10/2021 11:15:00 AM 9.9 49.82 0.212 8.11 3.15 11.89
11/10/2021 11:30:00 AM 9.97 49.946 0.212 8.17 2.95 12.01
11/10/2021 11:45:00 AM 10.06 50.108 0.212 8.22 2.89 12.1
11/10/2021 12:00:00 PM 10.14 50.252 0.213 8.28 3.05 12.17
11/10/2021 12:15:00 PM 10.21 50.378 0.214 8.32 3.01 12.23
11/10/2021 12:30:00 PM 10.27 50.486 0.214 8.36 3.05 12.27
11/10/2021 12:45:00 PM 10.34 50.612 0.214 8.41 2.87 12.31
11/10/2021 1:00:00 PM 10.42 50.756 0.214 8.45 2.89 12.35
11/10/2021 1:15:00 PM 10.49 50.882 0.213 8.48 3.47 12.36
11/10/2021 1:30:00 PM 10.56 51.008 0.213 8.51 4.21 12.38
11/10/2021 1:45:00 PM 10.63 51.134 0.212 8.55 3.87 12.38
11/10/2021 2:00:00 PM 10.71 51.278 0.211 8.56 3.61 12.4
11/10/2021 2:15:00 PM 10.78 51.404 0.211 8.6 3.42 12.39
11/10/2021 2:30:00 PM 10.84 51.512 0.21 8.6 4.15 12.35
11/10/2021 2:45:00 PM 10.9 51.62 0.21 8.62 6.47 12.34
11/10/2021 3:00:00 PM 10.94 51.692 0.21 8.64 4.46 12.31
11/10/2021 3:15:00 PM 10.98 51.764 0.21 8.65 4.27 12.27
11/10/2021 3:30:00 PM 11.01 51.818 0.21 8.64 4.76 12.2
11/10/2021 3:45:00 PM 11.03 51.854 0.21 8.66 4.29 12.15
11/10/2021 4:00:00 PM 11.03 51.854 0.21 8.67 4.35 12.06
11/10/2021 4:15:00 PM 11.02 51.836 0.209 8.65 4.4 11.97
11/10/2021 4:30:00 PM 11 51.8 0.208 8.62 3.64 11.87
11/10/2021 4:45:00 PM 10.98 51.764 0.208 8.59 4.91 11.7
11/10/2021 5:00:00 PM 10.95 51.71 0.208 8.56 3.1 11.62
11/10/2021 5:15:00 PM 10.92 51.656 0.208 8.51 2.69 11.53
11/10/2021 5:30:00 PM 10.89 51.602 0.209 8.45 2.68 11.41
11/10/2021 5:45:00 PM 10.85 51.53 0.209 8.39 2.82 11.27
11/10/2021 6:00:00 PM 10.81 51.458 0.209 8.31 3.03 11.11
11/10/2021 6:15:00 PM 10.75 51.35 0.21 8.23 9.25 10.97
11/10/2021 6:30:00 PM 10.69 51.242 0.105 8.15 2.45 10.85
11/10/2021 6:45:00 PM 10.63 51.134 0.21 8.1 2.35 10.76
11/10/2021 7:00:00 PM 10.56 51.008 0.209 8.04 2.66 10.68
11/10/2021 7:15:00 PM 10.5 50.9 0.209 7.99 2.82 10.63
11/10/2021 7:30:00 PM 10.44 50.792 0.209 7.95 2.65 10.6
11/10/2021 7:45:00 PM 10.37 50.666 0.21 7.92 2.64 10.56
11/10/2021 8:00:00 PM 10.31 50.558 0.211 7.89 2.89 10.52
11/10/2021 8:15:00 PM 10.25 50.45 0.211 7.86 3.11 10.45
11/10/2021 8:30:00 PM 10.19 50.342 0.212 7.84 2.96 10.45
11/10/2021 8:45:00 PM 10.13 50.234 0.212 7.81 2.86 10.43
11/10/2021 9:00:00 PM 10.06 50.108 0.212 7.79 2.94 10.41
11/10/2021 9:15:00 PM 10.01 50.018 0.212 7.77 2.85 10.39
11/10/2021 9:30:00 PM 9.95 49.91 0.211 7.76 2.74 10.38
11/10/2021 9:45:00 PM 9.9 49.82 0.211 7.74 2.86 10.37
11/10/2021 10:00:00 PM 9.86 49.748 0.211 7.73 2.94 10.36
11/10/2021 10:15:00 PM 9.82 49.676 0.211 7.72 2.91 10.35
11/10/2021 10:30:00 PM 9.78 49.604 0.212 7.71 2.81 10.36
11/10/2021 10:45:00 PM 9.74 49.532 0.213 7.7 2.86 10.35
11/10/2021 11:00:00 PM 9.71 49.478 0.214 7.7 2.77 10.35
11/10/2021 11:15:00 PM 9.68 49.424 0.215 7.69 4.76 10.33
11/10/2021 11:30:00 PM 9.66 49.388 0.215 7.69 2.99 10.31
11/10/2021 11:45:00 PM 9.64 49.352 0.216 7.67 2.88 10.34
11/11/2021 12:00:00 AM 9.61 49.298 0.216 7.68 2.93 10.35
11/11/2021 12:15:00 AM 9.58 49.244 0.216 7.68 2.87 10.35
11/11/2021 12:30:00 AM 9.55 49.19 0.216 7.67 3.31 10.36
11/11/2021 12:45:00 AM 9.51 49.118 0.216 7.67 3.1 10.37
11/11/2021 1:00:00 AM 9.46 49.028 0.216 7.66 2.89 10.37
11/11/2021 1:15:00 AM 9.42 48.956 0.217 7.66 3.15 10.39
11/11/2021 1:30:00 AM 9.37 48.866 0.218 7.66 3.03 10.4
11/11/2021 1:45:00 AM 9.32 48.776 0.219 7.65 3.11 10.4
11/11/2021 2:00:00 AM 9.27 48.686 0.22 7.65 2.83 10.42
11/11/2021 2:15:00 AM 9.22 48.596 0.22 7.65 3.07 10.43
11/11/2021 2:30:00 AM 9.18 48.524 0.22 7.64 3.25 10.44
11/11/2021 2:45:00 AM 9.12 48.416 0.22 7.64 2.95 10.46
11/11/2021 3:00:00 AM 9.08 48.344 0.219 7.65 2.92 10.47
11/11/2021 3:15:00 AM 9.03 48.254 0.219 7.64 2.88 10.49
11/11/2021 3:30:00 AM 8.98 48.164 0.218 7.63 3.02 10.5
11/11/2021 3:45:00 AM 8.93 48.074 0.219 7.63 3.07 10.52
11/11/2021 4:00:00 AM 8.88 47.984 0.219 7.63 3.02 10.53
11/11/2021 4:15:00 AM 8.83 47.894 0.22 7.63 3.43 10.54
11/11/2021 4:30:00 AM 8.77 47.786 0.22 7.63 2.88 10.56
11/11/2021 4:45:00 AM 8.72 47.696 0.221 7.62 2.86 10.57
11/11/2021 5:00:00 AM 8.67 47.606 0.221 7.63 2.88 10.59
11/11/2021 5:15:00 AM 8.61 47.498 0.221 7.63 2.94 10.6
11/11/2021 5:30:00 AM 8.56 47.408 0.221 7.62 3.04 10.61
11/11/2021 5:45:00 AM 8.5 47.3 0.22 7.62 2.92 10.63
11/11/2021 6:00:00 AM 8.45 47.21 0.22 7.61 2.86 10.66
11/11/2021 6:15:00 AM 8.4 47.12 0.219 7.61 2.81 10.67
11/11/2021 6:30:00 AM 8.34 47.012 0.22 7.61 2.82 10.69
11/11/2021 6:45:00 AM 8.29 46.922 0.22 7.61 2.82 10.71
11/11/2021 7:00:00 AM 8.23 46.814 0.221 7.61 2.89 10.72
11/11/2021 7:15:00 AM 8.18 46.724 0.221 7.61 2.98 10.74
11/11/2021 7:30:00 AM 8.12 46.616 0.221 7.6 3.7 10.76
11/11/2021 7:45:00 AM 8.07 46.526 0.221 7.59 4.71 10.77
11/11/2021 8:00:00 AM 8.02 46.436 0.221 7.61 3.69 10.8
11/11/2021 8:15:00 AM 7.97 46.346 0.22 7.61 3.38 10.85
11/11/2021 8:30:00 AM 7.93 46.274 0.219 7.62 3.08 10.95
11/11/2021 8:45:00 AM 7.89 46.202 0.219 7.65 2.53 11.09
11/11/2021 9:00:00 AM 7.87 46.166 0.218 7.68 2.66 11.26
11/11/2021 9:15:00 AM 7.85 46.13 0.218 7.69 2.66 11.39
11/11/2021 9:30:00 AM 7.84 46.112 0.219 7.73 2.55 11.55
11/11/2021 9:45:00 AM 7.85 46.13 0.219 7.78 2.6 11.75
11/11/2021 10:00:00 AM 7.89 46.202 0.219 7.85 2.71 11.95
11/11/2021 10:15:00 AM 7.93 46.274 0.219 7.91 2.5 12.12
11/11/2021 10:30:00 AM 7.98 46.364 0.22 7.98 2.4 12.29
11/11/2021 10:45:00 AM 8.06 46.508 0.219 8.06 2.58 12.45
11/11/2021 11:00:00 AM 8.12 46.616 0.219 8.13 2.49 12.6
11/11/2021 11:15:00 AM 8.22 46.796 0.218 8.21 2.46 12.74
11/11/2021 11:30:00 AM 8.28 46.904 0.218 8.28 2.45 12.82
11/11/2021 11:45:00 AM 8.36 47.048 0.218 8.34 2.59 12.91
11/11/2021 12:00:00 PM 8.44 47.192 0.218 8.4 2.45 12.98
11/11/2021 12:15:00 PM 8.52 47.336 0.218 8.44 2.52 13.06
11/11/2021 12:30:00 PM 8.67 47.606 0.218 8.52 2.31 13.16
11/11/2021 12:45:00 PM 8.79 47.822 0.218 8.58 2.48 13.22
11/11/2021 1:00:00 PM 8.84 47.912 0.218 8.61 2.44 13.21
11/11/2021 1:15:00 PM 8.89 48.002 0.217 8.65 2.57 13.22
11/11/2021 1:30:00 PM 8.97 48.146 0.217 8.69 4.79 13.27
11/11/2021 1:45:00 PM 9.06 48.308 0.217 8.72 2.4 13.28
11/11/2021 2:00:00 PM 9.16 48.488 0.216 8.76 2.31 13.29
11/11/2021 2:15:00 PM 9.23 48.614 0.215 8.79 3.29 13.27
11/11/2021 2:30:00 PM 9.32 48.776 0.214 8.82 6.36 13.28
11/11/2021 2:45:00 PM 9.4 48.92 0.214 8.84 7.32 13.24
11/11/2021 3:00:00 PM 9.46 49.028 0.214 8.85 3.24 13.18
11/11/2021 3:15:00 PM 9.56 49.208 0.213 8.85 3.3 13.18
11/11/2021 3:30:00 PM 9.64 49.352 0.213 8.86 3.36 13.06
11/11/2021 3:45:00 PM 9.67 49.406 0.214 8.85 3.55 12.93
11/11/2021 4:00:00 PM 9.7 49.46 0.214 8.85 9.65 12.83
11/11/2021 4:15:00 PM 9.73 49.514 0.214 8.84 3.69 12.76
11/11/2021 4:30:00 PM 9.77 49.586 0.214 8.83 3.87 12.67
11/11/2021 4:45:00 PM 9.79 49.622 0.213 8.81 3.63 12.53
11/11/2021 5:00:00 PM 9.79 49.622 0.213 8.77 3.6 12.35
11/11/2021 5:15:00 PM 9.8 49.64 0.213 8.73 3.06 12.2
11/11/2021 5:30:00 PM 9.81 49.658 0.213 8.71 3.19 12.03
11/11/2021 5:45:00 PM 9.81 49.658 0.214 8.64 3.5 11.82
11/11/2021 6:00:00 PM 9.81 49.658 0.214 8.56 3.48 11.6
11/11/2021 6:15:00 PM 9.81 49.658 0.214 8.47 3.42 11.41
11/11/2021 6:30:00 PM 9.81 49.658 0.215 8.4 3.34 11.25
11/11/2021 6:45:00 PM 9.83 49.694 0.215 8.32 3.22 11.13
11/11/2021 7:00:00 PM 9.85 49.73 0.215 8.25 3.85 11.01
11/11/2021 7:15:00 PM 9.87 49.766 0.215 8.19 4.04 10.92
11/11/2021 7:30:00 PM 9.89 49.802 0.215 8.12 3.29 10.84
11/11/2021 7:45:00 PM 9.91 49.838 0.215 8.08 3.37 10.77
11/11/2021 8:00:00 PM 9.91 49.838 0.215 8.03 4.86 10.7
11/11/2021 8:15:00 PM 9.92 49.856 0.215 7.98 3.42 10.64
11/11/2021 8:30:00 PM 9.93 49.874 0.215 7.94 3.41 10.58
11/11/2021 8:45:00 PM 9.95 49.91 0.216 7.91 3.63 10.52
11/11/2021 9:00:00 PM 9.97 49.946 0.216 7.89 3.46 10.47
11/11/2021 9:15:00 PM 10 50 0.217 7.86 3.67 10.42
11/11/2021 9:30:00 PM 10.04 50.072 0.216 7.85 3.54 10.37
11/11/2021 9:45:00 PM 10.07 50.126 0.216 7.82 3.52 10.33
11/11/2021 10:00:00 PM 10.1 50.18 0.216 7.8 3.71 10.29
11/11/2021 10:15:00 PM 10.12 50.216 0.216 7.79 3.66 10.26
11/11/2021 10:30:00 PM 10.15 50.27 0.216 7.77 3.63 10.22
11/11/2021 10:45:00 PM 10.19 50.342 0.217 7.77 3.53 10.2
11/11/2021 11:00:00 PM 10.22 50.396 0.217 7.76 3.62 10.17
11/11/2021 11:15:00 PM 10.26 50.468 0.218 7.74 3.48 10.14
11/11/2021 11:30:00 PM 10.3 50.54 0.219 7.75 3.6 10.12
11/11/2021 11:45:00 PM 10.33 50.594 0.219 7.75 3.52 10.1
11/12/2021 12:00:00 AM 10.37 50.666 0.22 7.74 3.54 10.07
11/12/2021 12:15:00 AM 10.4 50.72 0.22 7.73 3.58 10.06
11/12/2021 12:30:00 AM 10.43 50.774 0.22 7.73 3.5 10.04
11/12/2021 12:45:00 AM 10.47 50.846 0.22 7.71 3.48 10.02
11/12/2021 1:00:00 AM 10.5 50.9 0.22 7.72 3.53 10
11/12/2021 1:15:00 AM 10.53 50.954 0.22 7.71 3.42 9.98
11/12/2021 1:30:00 AM 10.56 51.008 0.221 7.71 3.65 9.97
11/12/2021 1:45:00 AM 10.59 51.062 0.222 7.72 3.52 9.95
11/12/2021 2:00:00 AM 10.62 51.116 0.223 7.71 3.61 9.94
11/12/2021 2:15:00 AM 10.65 51.17 0.224 7.71 3.39 9.93
11/12/2021 2:30:00 AM 10.67 51.206 0.224 7.71 3.33 9.91
11/12/2021 2:45:00 AM 10.7 51.26 0.224 7.7 3.39 9.89
11/12/2021 3:00:00 AM 10.73 51.314 0.223 7.69 3.39 9.89
11/12/2021 3:15:00 AM 10.75 51.35 0.223 7.69 3.99 9.85
11/12/2021 3:30:00 AM 10.76 51.368 0.222 7.68 5.4 9.83
11/12/2021 3:45:00 AM 10.77 51.386 0.222 7.67 5.95 9.82
11/12/2021 4:00:00 AM 10.8 51.44 0.22 7.68 3.7 9.85
11/12/2021 4:15:00 AM 10.82 51.476 0.219 7.68 3.82 9.85
11/12/2021 4:30:00 AM 10.83 51.494 0.219 7.67 3.87 9.83
11/12/2021 4:45:00 AM 10.83 51.494 0.217 7.67 4.29 9.82
11/12/2021 5:00:00 AM 10.82 51.476 0.214 7.65 5.15 9.81
11/12/2021 5:15:00 AM 10.8 51.44 0.207 7.62 16.44 9.82
11/12/2021 5:30:00 AM 10.8 51.44 0.199 7.6 31.16 9.83
11/12/2021 5:45:00 AM 10.82 51.476 0.197 7.58 53.96 9.86
11/12/2021 6:00:00 AM 10.83 51.494 0.196 7.57 83.24 9.85
11/12/2021 6:15:00 AM 10.84 51.512 0.196 7.57 88.43 9.83
11/12/2021 6:30:00 AM 10.84 51.512 0.197 7.56 67.37 9.82
11/12/2021 6:45:00 AM 10.8 51.44 0.197 7.56 54.38 9.81
11/12/2021 7:00:00 AM 10.77 51.386 0.198 7.55 53.64 9.82
11/12/2021 7:15:00 AM 10.73 51.314 0.198 7.56 44.67 9.83
11/12/2021 7:30:00 AM 10.69 51.242 0.198 7.56 40.46 9.85
11/12/2021 7:45:00 AM 10.65 51.17 0.195 7.56 36.43 9.86
11/12/2021 8:00:00 AM 10.63 51.134 0.193 7.55 35.11 9.88
11/12/2021 8:15:00 AM 10.61 51.098 0.192 7.55 31.97 9.88
11/12/2021 8:30:00 AM 10.6 51.08 0.193 7.55 27.68 9.88
11/12/2021 8:45:00 AM 10.59 51.062 0.193 7.57 28.12 9.9
11/12/2021 9:00:00 AM 10.56 51.008 0.193 7.57 22 9.93
11/12/2021 9:15:00 AM 10.55 50.99 0.199 7.59 20.88 9.96
11/12/2021 9:30:00 AM 10.57 51.026 0.21 7.6 21.14 9.97
11/12/2021 9:45:00 AM 10.6 51.08 0.218 7.62 19.92 9.98
11/12/2021 10:00:00 AM 10.64 51.152 0.222 7.64 18.94 10
11/12/2021 10:15:00 AM 10.69 51.242 0.225 7.64 16.63 10.05
11/12/2021 10:30:00 AM 10.74 51.332 0.229 7.66 17.32 10.07
11/12/2021 10:45:00 AM 10.8 51.44 0.236 7.67 16.1 10.06
11/12/2021 11:00:00 AM 10.87 51.566 0.242 7.68 23.54 10.12
11/12/2021 11:15:00 AM 10.92 51.656 0.244 7.68 70.03 10.15
11/12/2021 11:30:00 AM 10.96 51.728 0.242 7.68 16.67 10.19
11/12/2021 11:45:00 AM 10.98 51.764 0.237 7.7 17.33 10.24
11/12/2021 12:00:00 PM 11 51.8 0.231 7.71 51.77 10.28
11/12/2021 12:15:00 PM 11.03 51.854 0.226 7.69 29.87 10.32
11/12/2021 12:30:00 PM 11.06 51.908 0.221 7.71 16.8 10.35
11/12/2021 12:45:00 PM 11.1 51.98 0.218 7.72 17.89 10.37
11/12/2021 1:00:00 PM 11.16 52.088 0.216 7.73 23.09 10.4
11/12/2021 1:15:00 PM 11.22 52.196 0.214 7.74 18.98 10.41
11/12/2021 1:30:00 PM 11.28 52.304 0.212 7.75 18.32 10.44
11/12/2021 1:45:00 PM 11.33 52.394 0.21 7.74 17.21 10.47
11/12/2021 2:00:00 PM 11.38 52.484 0.208 7.76 18.14 10.48
11/12/2021 2:15:00 PM 11.39 52.502 0.205 7.77 17.6 10.49
11/12/2021 2:30:00 PM 11.42 52.556 0.204 7.78 18.04 10.52
11/12/2021 2:45:00 PM 11.44 52.592 0.202 7.79 16.82 10.53
11/12/2021 3:00:00 PM 11.45 52.61 0.201 7.8 15.9 10.54
11/12/2021 3:15:00 PM 11.46 52.628 0.201 7.81 15.52 10.55
11/12/2021 3:30:00 PM 11.45 52.61 0.201 7.81 41.65 10.55
11/12/2021 3:45:00 PM 11.42 52.556 0.201 7.81 33.04 10.54
11/12/2021 4:00:00 PM 11.39 52.502 0.202 7.81 14.57 10.52
11/12/2021 4:15:00 PM 11.35 52.43 0.203 7.81 20.7 10.5
11/12/2021 4:30:00 PM 11.32 52.376 0.206 7.8 25.6 10.47
11/12/2021 4:45:00 PM 11.3 52.34 0.209 7.8 12.45 10.43
11/12/2021 5:00:00 PM 11.26 52.268 0.212 7.79 16.45 10.38
11/12/2021 5:15:00 PM 11.22 52.196 0.214 7.78 15.95 10.35
11/12/2021 5:30:00 PM 11.17 52.106 0.215 7.77 16.56 10.29
11/12/2021 5:45:00 PM 11.12 52.016 0.215 7.75 18.31 10.23
11/12/2021 6:00:00 PM 11.07 51.926 0.215 7.73 18.36 10.18
11/12/2021 6:15:00 PM 11.02 51.836 0.215 7.72 17.53 10.13
11/12/2021 6:30:00 PM 10.96 51.728 0.215 7.7 20.15 10.09
11/12/2021 6:45:00 PM 10.91 51.638 0.215 7.69 20.32 10.05
11/12/2021 7:00:00 PM 10.85 51.53 0.214 7.67 20.25 10.03
11/12/2021 7:15:00 PM 10.79 51.422 0.214 7.67 18.37 10.01
11/12/2021 7:30:00 PM 10.74 51.332 0.214 7.66 20.64 9.99
11/12/2021 7:45:00 PM 10.69 51.242 0.215 7.66 18.17 9.97
11/12/2021 8:00:00 PM 10.65 51.17 0.216 7.65 21.58 9.96
11/12/2021 8:15:00 PM 10.61 51.098 0.218 7.64 22.46 9.94
11/12/2021 8:30:00 PM 10.58 51.044 0.22 7.64 21.82 9.94
11/12/2021 8:45:00 PM 10.53 50.954 0.221 7.64 20.21 9.92
11/12/2021 9:00:00 PM 10.48 50.864 0.221 7.64 19.45 9.93
11/12/2021 9:15:00 PM 10.43 50.774 0.22 7.62 17.56 9.94
11/12/2021 9:30:00 PM 10.38 50.684 0.22 7.63 17.73 9.95
11/12/2021 9:45:00 PM 10.33 50.594 0.219 7.63 18.97 9.96
11/12/2021 10:00:00 PM 10.27 50.486 0.217 7.62 18.05 9.97
11/12/2021 10:15:00 PM 10.21 50.378 0.216 7.61 18.49 9.98
11/12/2021 10:30:00 PM 10.14 50.252 0.216 7.61 19.75 9.99
11/12/2021 10:45:00 PM 10.07 50.126 0.216 7.61 17.09 10.01
11/12/2021 11:00:00 PM 10 50 0.217 7.61 17.17 10.02
11/12/2021 11:15:00 PM 9.94 49.892 0.219 7.61 17.42 10.04
11/12/2021 11:30:00 PM 9.88 49.784 0.22 7.61 17.63 10.06
11/12/2021 11:45:00 PM 9.83 49.694 0.222 7.61 16.17 10.06
11/13/2021 12:00:00 AM 9.76 49.568 0.223 7.61 15.44 10.07
11/13/2021 12:15:00 AM 9.71 49.478 0.223 7.61 18.88 10.08
11/13/2021 12:30:00 AM 9.65 49.37 0.222 7.61 20.68 10.1
11/13/2021 12:45:00 AM 9.59 49.262 0.222 7.6 15.92 10.12
11/13/2021 1:00:00 AM 9.53 49.154 0.221 7.6 15.74 10.14
11/13/2021 1:15:00 AM 9.48 49.064 0.22 7.6 15.74 10.16
11/13/2021 1:30:00 AM 9.42 48.956 0.219 7.59 15.48 10.17
11/13/2021 1:45:00 AM 9.37 48.866 0.218 7.6 15.34 10.18
11/13/2021 2:00:00 AM 9.32 48.776 0.219 7.6 16.31 10.21
11/13/2021 2:15:00 AM 9.28 48.704 0.219 7.59 17.77 10.2
11/13/2021 2:30:00 AM 9.24 48.632 0.22 7.59 15.23 10.24
11/13/2021 2:45:00 AM 9.2 48.56 0.221 7.59 15.33 10.23
11/13/2021 3:00:00 AM 9.17 48.506 0.222 7.59 15.36 10.24
11/13/2021 3:15:00 AM 9.14 48.452 0.223 7.59 15.3 10.27
11/13/2021 3:30:00 AM 9.1 48.38 0.222 7.6 15.02 10.29
11/13/2021 3:45:00 AM 9.05 48.29 0.221 7.59 15.15 10.31
11/13/2021 4:00:00 AM 9.01 48.218 0.22 7.58 15.13 10.32
11/13/2021 4:15:00 AM 8.97 48.146 0.219 7.59 14.93 10.33
11/13/2021 4:30:00 AM 8.93 48.074 0.218 7.59 14.89 10.35
11/13/2021 4:45:00 AM 8.89 48.002 0.217 7.59 14.51 10.35
11/13/2021 5:00:00 AM 8.85 47.93 0.217 7.57 14.36 10.37
11/13/2021 5:15:00 AM 8.82 47.876 0.217 7.58 14.22 10.39
11/13/2021 5:30:00 AM 8.79 47.822 0.218 7.58 14.54 10.39
11/13/2021 5:45:00 AM 8.76 47.768 0.219 7.57 14.18 10.4
11/13/2021 6:00:00 AM 8.75 47.75 0.22 7.58 14.13 10.41
11/13/2021 6:15:00 AM 8.73 47.714 0.22 7.58 14.31 10.42
11/13/2021 6:30:00 AM 8.7 47.66 0.22 7.59 13.82 10.42
11/13/2021 6:45:00 AM 8.67 47.606 0.219 7.59 14.01 10.44
11/13/2021 7:00:00 AM 8.63 47.534 0.217 7.59 14.48 10.46
11/13/2021 7:15:00 AM 8.6 47.48 0.216 7.56 14.04 10.46
11/13/2021 7:30:00 AM 8.57 47.426 0.215 7.58 13.9 10.46
11/13/2021 7:45:00 AM 8.55 47.39 0.214 7.58 14.1 10.47
11/13/2021 8:00:00 AM 8.53 47.354 0.214 7.58 13.86 10.48
11/13/2021 8:15:00 AM 8.52 47.336 0.214 7.6 14.14 10.51
11/13/2021 8:30:00 AM 8.51 47.318 0.215 7.6 13.95 10.51
11/13/2021 8:45:00 AM 8.5 47.3 0.216 7.6 13.72 10.53
11/13/2021 9:00:00 AM 8.49 47.282 0.217 7.61 14.1 10.54
11/13/2021 9:15:00 AM 8.49 47.282 0.217 7.62 13.78 10.56
11/13/2021 9:30:00 AM 8.48 47.264 0.216 7.63 13.77 10.64
11/13/2021 9:45:00 AM 8.47 47.246 0.215 7.64 13.71 10.71
11/13/2021 10:00:00 AM 8.46 47.228 0.214 7.65 13.5 10.79
11/13/2021 10:15:00 AM 8.45 47.21 0.213 7.67 13.4 10.9
11/13/2021 10:30:00 AM 8.43 47.174 0.213 7.69 13.3 11.04
11/13/2021 10:45:00 AM 8.43 47.174 0.213 7.73 13.08 11.19
11/13/2021 11:00:00 AM 8.42 47.156 0.214 7.75 19.67 11.19
11/13/2021 11:15:00 AM 8.4 47.12 0.215 7.78 13.15 11.34
11/13/2021 11:30:00 AM 8.4 47.12 0.216 7.8 12.76 11.39
11/13/2021 11:45:00 AM 8.38 47.084 0.216 7.82 13.41 11.44
11/13/2021 12:00:00 PM 8.4 47.12 0.215 7.86 11.71 11.6
11/13/2021 12:15:00 PM 8.43 47.174 0.214 7.93 10.39 11.82
11/13/2021 12:30:00 PM 8.45 47.21 0.213 8.01 10.33 12.02
11/13/2021 12:45:00 PM 8.46 47.228 0.212 8.07 10.23 12.12
11/13/2021 1:00:00 PM 8.42 47.156 0.211 8.05 10.14 12.04
11/13/2021 1:15:00 PM 8.44 47.192 0.211 8.11 10.24 12.16
11/13/2021 1:30:00 PM 8.44 47.192 0.211 8.15 9.97 12.24
11/13/2021 1:45:00 PM 8.42 47.156 0.211 8.15 10 12.18
11/13/2021 2:00:00 PM 8.41 47.138 0.212 8.17 9.88 12.22
11/13/2021 2:15:00 PM 8.41 47.138 0.213 8.21 10.06 12.28
11/13/2021 2:30:00 PM 8.42 47.156 0.213 8.25 10.02 12.33
11/13/2021 2:45:00 PM 8.41 47.138 0.214 8.26 9.97 12.32
11/13/2021 3:00:00 PM 8.4 47.12 0.213 8.27 9.77 12.31
11/13/2021 3:15:00 PM 8.43 47.174 0.213 8.31 9.77 12.38
11/13/2021 3:30:00 PM 8.44 47.192 0.213 8.35 9.9 12.49
11/13/2021 3:45:00 PM 8.46 47.228 0.212 8.41 9.77 12.55
11/13/2021 4:00:00 PM 8.45 47.21 0.211 8.43 9.72 12.54
11/13/2021 4:15:00 PM 8.4 47.12 0.211 8.39 9.52 12.39
11/13/2021 4:30:00 PM 8.36 47.048 0.212 8.31 9.53 12.21
11/13/2021 4:45:00 PM 8.31 46.958 0.212 8.25 9.52 12.02
11/13/2021 5:00:00 PM 8.26 46.868 0.213 8.18 9.54 11.86
11/13/2021 5:15:00 PM 8.22 46.796 0.214 8.12 9.28 11.72
11/13/2021 5:30:00 PM 8.18 46.724 0.214 8.06 9.38 11.62
11/13/2021 5:45:00 PM 8.14 46.652 0.213 8.01 8.29 11.52
11/13/2021 6:00:00 PM 8.11 46.598 0.213 7.98 8.31 11.43
11/13/2021 6:15:00 PM 8.07 46.526 0.212 7.93 8.4 11.35
11/13/2021 6:30:00 PM 8.03 46.454 0.212 7.9 8.4 11.28
11/13/2021 6:45:00 PM 7.99 46.382 0.212 7.88 8.39 11.23
11/13/2021 7:00:00 PM 7.94 46.292 0.212 7.84 8.33 11.18
11/13/2021 7:15:00 PM 7.89 46.202 0.213 7.82 8.49 11.14
11/13/2021 7:30:00 PM 7.85 46.13 0.214 7.8 8.85 11.1
11/13/2021 7:45:00 PM 7.84 46.112 0.215 7.79 8.35 11.07
11/13/2021 8:00:00 PM 7.83 46.094 0.216 7.78 8.4 11.04
11/13/2021 8:15:00 PM 7.81 46.058 0.216 7.76 8.36 11
11/13/2021 8:30:00 PM 7.78 46.004 0.216 7.74 8.59 10.98
11/13/2021 8:45:00 PM 7.75 45.95 0.216 7.72 8.61 10.96
11/13/2021 9:00:00 PM 7.74 45.932 0.215 7.72 8.65 10.94
11/13/2021 9:15:00 PM 7.72 45.896 0.215 7.71 8.45 10.92
11/13/2021 9:30:00 PM 7.68 45.824 0.214 7.7 8.52 10.93
11/13/2021 9:45:00 PM 7.65 45.77 0.215 7.69 8.46 10.92
11/13/2021 10:00:00 PM 7.63 45.734 0.215 7.69 8.52 10.91
11/13/2021 10:15:00 PM 7.62 45.716 0.217 7.69 8.5 10.91
11/13/2021 10:30:00 PM 7.6 45.68 0.218 7.69 8.48 10.9
11/13/2021 10:45:00 PM 7.59 45.662 0.219 7.7 8.43 10.9
11/13/2021 11:00:00 PM 7.57 45.626 0.219 7.69 8.4 10.9
11/13/2021 11:15:00 PM 7.55 45.59 0.219 7.67 8.56 10.9
11/13/2021 11:30:00 PM 7.52 45.536 0.219 7.68 8.53 10.9
11/13/2021 11:45:00 PM 7.5 45.5 0.219 7.67 8.32 10.91
11/14/2021 12:00:00 AM 7.47 45.446 0.219 7.67 8.44 10.91
11/14/2021 12:15:00 AM 7.44 45.392 0.219 7.66 8.3 10.92
11/14/2021 12:30:00 AM 7.4 45.32 0.219 7.67 8.33 10.92
11/14/2021 12:45:00 AM 7.37 45.266 0.22 7.67 7.86 10.93
11/14/2021 1:00:00 AM 7.37 45.266 0.221 7.64 8.03 10.92
11/14/2021 1:15:00 AM 7.37 45.266 0.223 7.67 7.85 10.92
11/14/2021 1:30:00 AM 7.36 45.248 0.225 7.66 7.8 10.93
11/14/2021 1:45:00 AM 7.32 45.176 0.225 7.66 7.77 10.94
11/14/2021 2:00:00 AM 7.28 45.104 0.226 7.65 7.6 10.95
11/14/2021 2:15:00 AM 7.24 45.032 0.225 7.65 7.74 10.96
11/14/2021 2:30:00 AM 7.22 44.996 0.225 7.65 7.82 10.95
11/14/2021 2:45:00 AM 7.18 44.924 0.225 7.66 7.78 10.96
11/14/2021 3:00:00 AM 7.14 44.852 0.224 7.65 7.71 10.97
11/14/2021 3:15:00 AM 7.1 44.78 0.224 7.65 7.83 10.99
11/14/2021 3:30:00 AM 7.07 44.726 0.224 7.65 7.81 10.98
11/14/2021 3:45:00 AM 7.05 44.69 0.226 7.65 7.71 11.01
11/14/2021 4:00:00 AM 7.02 44.636 0.227 7.64 7.66 11.02
11/14/2021 4:15:00 AM 6.99 44.582 0.227 7.65 7.65 11.01
11/14/2021 4:30:00 AM 6.95 44.51 0.228 7.64 8.02 11.03
11/14/2021 4:45:00 AM 6.92 44.456 0.228 7.65 7.93 11.05
11/14/2021 5:00:00 AM 6.88 44.384 0.227 7.64 7.76 11.05
11/14/2021 5:15:00 AM 6.86 44.348 0.227 7.64 8.01 11.07
11/14/2021 5:30:00 AM 6.83 44.294 0.226 7.64 8.09 11.07
11/14/2021 5:45:00 AM 6.8 44.24 0.226 7.63 7.85 11.09
11/14/2021 6:00:00 AM 6.77 44.186 0.226 7.64 8.2 11.09
11/14/2021 6:15:00 AM 6.74 44.132 0.226 7.63 7.87 11.09
11/14/2021 6:30:00 AM 6.72 44.096 0.227 7.63 7.85 11.11
11/14/2021 6:45:00 AM 6.7 44.06 0.228 7.63 7.78 11.11
11/14/2021 7:00:00 AM 6.67 44.006 0.229 7.63 7.9 11.12
11/14/2021 7:15:00 AM 6.65 43.97 0.229 7.64 8.23 11.13
11/14/2021 7:30:00 AM 6.64 43.952 0.229 7.63 7.81 11.13
11/14/2021 7:45:00 AM 6.64 43.952 0.228 7.63 7.84 11.14
11/14/2021 8:00:00 AM 6.63 43.934 0.227 7.63 7.75 11.16
11/14/2021 8:15:00 AM 6.63 43.934 0.227 7.64 7.82 11.17
11/14/2021 8:30:00 AM 6.63 43.934 0.226 7.64 8 11.19
11/14/2021 8:45:00 AM 6.62 43.916 0.226 7.65 7.86 11.24
11/14/2021 9:00:00 AM 6.62 43.916 0.227 7.65 7.8 11.29
11/14/2021 9:15:00 AM 6.62 43.916 0.227 7.67 7.8 11.33
11/14/2021 9:30:00 AM 6.62 43.916 0.228 7.68 7.75 11.37
11/14/2021 9:45:00 AM 6.62 43.916 0.228 7.69 7.69 11.43
11/14/2021 10:00:00 AM 6.63 43.934 0.228 7.71 7.84 11.53
11/14/2021 10:15:00 AM 6.64 43.952 0.228 7.73 7.87 11.67
11/14/2021 10:30:00 AM 6.65 43.97 0.227 7.78 7.93 11.82
11/14/2021 10:45:00 AM 6.67 44.006 0.226 7.81 7.65 11.94
11/14/2021 11:00:00 AM 6.68 44.024 0.225 7.84 9.59 12.05
11/14/2021 11:15:00 AM 6.7 44.06 0.225 7.89 11.14 12.19
11/14/2021 11:30:00 AM 6.72 44.096 0.225 7.92 10.8 12.28
11/14/2021 11:45:00 AM 6.74 44.132 0.225 7.95 10.88 12.35
11/14/2021 12:00:00 PM 6.77 44.186 0.225 7.99 10.78 12.44
11/14/2021 12:15:00 PM 6.84 44.312 0.225 8.05 10.76 12.63
11/14/2021 12:30:00 PM 6.86 44.348 0.226 8.09 10.76 12.61
11/14/2021 12:45:00 PM 6.87 44.366 0.226 8.11 10.74 12.65
11/14/2021 1:00:00 PM 6.88 44.384 0.225 8.14 10.74 12.66
11/14/2021 1:15:00 PM 6.9 44.42 0.225 8.17 10.9 12.71
11/14/2021 1:30:00 PM 6.9 44.42 0.224 8.17 10.81 12.65
11/14/2021 1:45:00 PM 6.91 44.438 0.224 8.19 10.8 12.68
11/14/2021 2:00:00 PM 6.93 44.474 0.223 8.23 10.83 12.76
11/14/2021 2:15:00 PM 6.95 44.51 0.223 8.26 10.79 12.79
11/14/2021 2:30:00 PM 6.97 44.546 0.223 8.29 10.95 12.83
11/14/2021 2:45:00 PM 6.99 44.582 0.224 8.32 11.18 12.84
11/14/2021 3:00:00 PM 7 44.6 0.225 8.31 10.68 12.74
11/14/2021 3:15:00 PM 7.01 44.618 0.225 8.3 10.66 12.68
11/14/2021 3:30:00 PM 7.02 44.636 0.225 8.28 10.87 12.59
11/14/2021 3:45:00 PM 7.03 44.654 0.225 8.26 10.69 12.54
11/14/2021 4:00:00 PM 7.05 44.69 0.225 8.27 10.58 12.54
11/14/2021 4:15:00 PM 7.06 44.708 0.224 8.25 10.59 12.44
11/14/2021 4:30:00 PM 7.06 44.708 0.224 8.23 10.58 12.37
11/14/2021 4:45:00 PM 7.07 44.726 0.224 8.2 10.59 12.31
11/14/2021 5:00:00 PM 7.07 44.726 0.224 8.17 10.35 12.21
11/14/2021 5:15:00 PM 7.06 44.708 0.225 8.13 10.71 12.09
11/14/2021 5:30:00 PM 7.04 44.672 0.225 8.08 10.41 11.97
11/14/2021 5:45:00 PM 7.02 44.636 0.225 8.03 10.36 11.85
11/14/2021 6:00:00 PM 7.01 44.618 0.225 7.98 10.36 11.74
11/14/2021 6:15:00 PM 7 44.6 0.225 7.94 10.38 11.65
11/14/2021 6:30:00 PM 6.98 44.564 0.224 7.91 10.4 11.57
11/14/2021 6:45:00 PM 6.95 44.51 0.224 7.88 10.31 11.51
11/14/2021 7:00:00 PM 6.91 44.438 0.223 7.85 10.25 11.47
11/14/2021 7:15:00 PM 6.89 44.402 0.223 7.83 10.31 11.43
11/14/2021 7:30:00 PM 6.87 44.366 0.223 7.81 10.43 11.39
11/14/2021 7:45:00 PM 6.85 44.33 0.223 7.79 10.61 11.35
11/14/2021 8:00:00 PM 6.85 44.33 0.224 7.77 10.46 11.32
11/14/2021 8:15:00 PM 6.84 44.312 0.224 7.76 10.37 11.3
11/14/2021 8:30:00 PM 6.84 44.312 0.224 7.75 10.3 11.26
11/14/2021 8:45:00 PM 6.83 44.294 0.224 7.74 10.35 11.23
11/14/2021 9:00:00 PM 6.83 44.294 0.224 7.73 10.42 11.21
11/14/2021 9:15:00 PM 6.82 44.276 0.223 7.71 10.48 11.19
11/14/2021 9:30:00 PM 6.82 44.276 0.222 7.67 14.79 11.17
11/14/2021 9:45:00 PM 6.82 44.276 0.222 7.7 17.7 11.15
11/14/2021 10:00:00 PM 6.82 44.276 0.221 7.68 6.21 11.16
11/14/2021 10:15:00 PM 6.83 44.294 0.221 7.67 6.4 11.14
11/14/2021 10:30:00 PM 6.83 44.294 0.222 7.68 6.13 11.14
11/14/2021 10:45:00 PM 6.83 44.294 0.223 7.67 6.07 11.12
11/14/2021 11:00:00 PM 6.83 44.294 0.223 7.66 6.12 11.12
11/14/2021 11:15:00 PM 6.84 44.312 0.223 7.66 6.06 11.11
11/14/2021 11:30:00 PM 6.83 44.294 0.222 7.65 6.12 11.1
11/14/2021 11:45:00 PM 6.84 44.312 0.222 7.65 6.15 11.1
11/15/2021 12:00:00 AM 6.84 44.312 0.221 7.65 6.41 11.09
11/15/2021 12:15:00 AM 6.84 44.312 0.22 7.64 6.15 11.08
11/15/2021 12:30:00 AM 6.85 44.33 0.22 7.64 6.16 11.09
11/15/2021 12:45:00 AM 6.85 44.33 0.22 7.64 6.18 11.08
11/15/2021 1:00:00 AM 6.86 44.348 0.221 7.63 6.12 11.08
11/15/2021 1:15:00 AM 6.86 44.348 0.222 7.64 6.18 11.06
11/15/2021 1:30:00 AM 6.86 44.348 0.223 7.63 6.4 11.06
11/15/2021 1:45:00 AM 6.87 44.366 0.223 7.62 6.09 11.07
11/15/2021 2:00:00 AM 6.86 44.348 0.223 7.62 6.32 11.05
11/15/2021 2:15:00 AM 6.86 44.348 0.223 7.62 6.18 11.03
11/15/2021 2:30:00 AM 6.84 44.312 0.222 7.61 6.09 11.05
11/15/2021 2:45:00 AM 6.81 44.258 0.221 7.62 6.41 11.06
11/15/2021 3:00:00 AM 6.8 44.24 0.221 7.62 6.09 11.06
11/15/2021 3:15:00 AM 6.78 44.204 0.221 7.62 6.12 11.06
11/15/2021 3:30:00 AM 6.76 44.168 0.223 7.62 6.24 11.06
11/15/2021 3:45:00 AM 6.76 44.168 0.225 7.61 6.25 11.06
11/15/2021 4:00:00 AM 6.75 44.15 0.226 7.61 6.38 11.06
11/15/2021 4:15:00 AM 6.75 44.15 0.227 7.62 6.24 11.07
11/15/2021 4:30:00 AM 6.73 44.114 0.227 7.61 6.31 11.07
11/15/2021 4:45:00 AM 6.71 44.078 0.226 7.61 6.09 11.08
11/15/2021 5:00:00 AM 6.7 44.06 0.226 7.61 6.17 11.08
11/15/2021 5:15:00 AM 6.67 44.006 0.225 7.61 6.21 11.08
11/15/2021 5:30:00 AM 6.65 43.97 0.224 7.61 6.18 11.09
11/15/2021 5:45:00 AM 6.63 43.934 0.224 7.6 6.31 11.1
11/15/2021 6:00:00 AM 6.61 43.898 0.224 7.6 6.38 11.11
11/15/2021 6:15:00 AM 6.6 43.88 0.226 7.61 6.25 11.11
11/15/2021 6:30:00 AM 6.59 43.862 0.227 7.61 6.37 11.1
11/15/2021 6:45:00 AM 6.58 43.844 0.228 7.61 7.63 11.11
11/15/2021 7:00:00 AM 6.57 43.826 0.228 7.6 6.69 11.12
11/15/2021 7:15:00 AM 6.56 43.808 0.228 7.61 6.17 11.12
11/15/2021 7:30:00 AM 6.54 43.772 0.227 7.61 6.17 11.14
11/15/2021 7:45:00 AM 6.53 43.754 0.226 7.6 6.35 11.14
11/15/2021 8:00:00 AM 6.51 43.718 0.226 7.6 6.13 11.15
11/15/2021 8:15:00 AM 6.5 43.7 0.225 7.61 6.22 11.17
11/15/2021 8:30:00 AM 6.48 43.664 0.226 7.61 6.19 11.21
11/15/2021 8:45:00 AM 6.48 43.664 0.226 7.63 6.15 11.29
11/15/2021 9:00:00 AM 6.48 43.664 0.228 7.65 6.1 11.41
11/15/2021 9:15:00